<?xml version="1.0" encoding="UTF-8"?>
<gpx version="1.1" creator="https://www.youtrack.es" xsi:schemaLocation="http://www.topografix.com/GPX/1/1 http://www.topografix.com/GPX/1/1/gpx.xsd http://www.garmin.com/xmlschemas/GpxExtensions/v3 http://www.garmin.com/xmlschemas/GpxExtensionsv3.xsd http://www.garmin.com/xmlschemas/TrackPointExtension/v1 http://www.garmin.com/xmlschemas/TrackPointExtensionv1.xsd" xmlns:gpxtpx="http://www.garmin.com/xmlschemas/TrackPointExtension/v1" xmlns:gpxx="http://www.garmin.com/xmlschemas/GpxExtensions/v3" xmlns:xsi="http://www.w3.org/2001/XMLSchema-instance">
  <metadata>
    <link href="https://www.youtrack.es">
      <text>YouTrack.es</text>
    </link>
    <time>2026-05-10T17:15:14Z</time>
  </metadata>
  <trk>
    <src>https://www.youtrack.es</src>
    <link href="https://www.youtrack.es/ruta/5708-corridinha">
      <text>YouTrack.es</text>
    </link>
    <trkseg>
      <trkpt lat="-20.851275" lon="-41.110597">
        <ele>28.0</ele>
        <time>2019-05-11T23:43:18.000Z</time>
      </trkpt>
      <trkpt lat="-20.851286" lon="-41.110595">
        <ele>28.1</ele>
        <time>2019-05-11T23:43:19.000Z</time>
      </trkpt>
      <trkpt lat="-20.851302" lon="-41.110589">
        <ele>28.1</ele>
        <time>2019-05-11T23:43:20.000Z</time>
      </trkpt>
      <trkpt lat="-20.85132" lon="-41.110581">
        <ele>28.1</ele>
        <time>2019-05-11T23:43:21.000Z</time>
      </trkpt>
      <trkpt lat="-20.851342" lon="-41.110571">
        <ele>28.1</ele>
        <time>2019-05-11T23:43:22.000Z</time>
      </trkpt>
      <trkpt lat="-20.851365" lon="-41.110559">
        <ele>28.0</ele>
        <time>2019-05-11T23:43:23.000Z</time>
      </trkpt>
      <trkpt lat="-20.851389" lon="-41.110546">
        <ele>28.0</ele>
        <time>2019-05-11T23:43:24.000Z</time>
      </trkpt>
      <trkpt lat="-20.851413" lon="-41.110533">
        <ele>27.9</ele>
        <time>2019-05-11T23:43:25.000Z</time>
      </trkpt>
      <trkpt lat="-20.851437" lon="-41.11052">
        <ele>27.9</ele>
        <time>2019-05-11T23:43:26.000Z</time>
      </trkpt>
      <trkpt lat="-20.851458" lon="-41.110509">
        <ele>27.8</ele>
        <time>2019-05-11T23:43:27.000Z</time>
      </trkpt>
      <trkpt lat="-20.851478" lon="-41.110499">
        <ele>27.8</ele>
        <time>2019-05-11T23:43:28.000Z</time>
      </trkpt>
      <trkpt lat="-20.851497" lon="-41.11049">
        <ele>27.8</ele>
        <time>2019-05-11T23:43:29.000Z</time>
      </trkpt>
      <trkpt lat="-20.851518" lon="-41.11048">
        <ele>27.7</ele>
        <time>2019-05-11T23:43:30.000Z</time>
      </trkpt>
      <trkpt lat="-20.851541" lon="-41.110468">
        <ele>27.7</ele>
        <time>2019-05-11T23:43:31.000Z</time>
      </trkpt>
      <trkpt lat="-20.851569" lon="-41.110454">
        <ele>27.6</ele>
        <time>2019-05-11T23:43:32.000Z</time>
      </trkpt>
      <trkpt lat="-20.851599" lon="-41.110436">
        <ele>27.5</ele>
        <time>2019-05-11T23:43:33.000Z</time>
      </trkpt>
      <trkpt lat="-20.851628" lon="-41.110416">
        <ele>27.3</ele>
        <time>2019-05-11T23:43:34.000Z</time>
      </trkpt>
      <trkpt lat="-20.851653" lon="-41.110394">
        <ele>27.1</ele>
        <time>2019-05-11T23:43:35.000Z</time>
      </trkpt>
      <trkpt lat="-20.851674" lon="-41.110369">
        <ele>26.9</ele>
        <time>2019-05-11T23:43:36.000Z</time>
      </trkpt>
      <trkpt lat="-20.851694" lon="-41.110344">
        <ele>26.7</ele>
        <time>2019-05-11T23:43:37.000Z</time>
      </trkpt>
      <trkpt lat="-20.85172" lon="-41.11032">
        <ele>26.7</ele>
        <time>2019-05-11T23:43:38.000Z</time>
      </trkpt>
      <trkpt lat="-20.851751" lon="-41.110295">
        <ele>26.8</ele>
        <time>2019-05-11T23:43:39.000Z</time>
      </trkpt>
      <trkpt lat="-20.851787" lon="-41.110267">
        <ele>26.9</ele>
        <time>2019-05-11T23:43:40.000Z</time>
      </trkpt>
      <trkpt lat="-20.851827" lon="-41.110237">
        <ele>27.0</ele>
        <time>2019-05-11T23:43:41.000Z</time>
      </trkpt>
      <trkpt lat="-20.851869" lon="-41.110206">
        <ele>27.1</ele>
        <time>2019-05-11T23:43:42.000Z</time>
      </trkpt>
      <trkpt lat="-20.851912" lon="-41.110176">
        <ele>27.2</ele>
        <time>2019-05-11T23:43:43.000Z</time>
      </trkpt>
      <trkpt lat="-20.851954" lon="-41.110147">
        <ele>27.4</ele>
        <time>2019-05-11T23:43:44.000Z</time>
      </trkpt>
      <trkpt lat="-20.851995" lon="-41.110121">
        <ele>27.6</ele>
        <time>2019-05-11T23:43:45.000Z</time>
      </trkpt>
      <trkpt lat="-20.852035" lon="-41.110096">
        <ele>27.8</ele>
        <time>2019-05-11T23:43:46.000Z</time>
      </trkpt>
      <trkpt lat="-20.852075" lon="-41.110072">
        <ele>28.0</ele>
        <time>2019-05-11T23:43:47.000Z</time>
      </trkpt>
      <trkpt lat="-20.852114" lon="-41.110047">
        <ele>28.1</ele>
        <time>2019-05-11T23:43:48.000Z</time>
      </trkpt>
      <trkpt lat="-20.852153" lon="-41.110022">
        <ele>28.3</ele>
        <time>2019-05-11T23:43:49.000Z</time>
      </trkpt>
      <trkpt lat="-20.852192" lon="-41.109996">
        <ele>28.5</ele>
        <time>2019-05-11T23:43:50.000Z</time>
      </trkpt>
      <trkpt lat="-20.852232" lon="-41.109967">
        <ele>28.8</ele>
        <time>2019-05-11T23:43:51.000Z</time>
      </trkpt>
      <trkpt lat="-20.852271" lon="-41.109936">
        <ele>29.1</ele>
        <time>2019-05-11T23:43:52.000Z</time>
      </trkpt>
      <trkpt lat="-20.852311" lon="-41.109904">
        <ele>29.3</ele>
        <time>2019-05-11T23:43:53.000Z</time>
      </trkpt>
      <trkpt lat="-20.85235" lon="-41.109871">
        <ele>29.4</ele>
        <time>2019-05-11T23:43:54.000Z</time>
      </trkpt>
      <trkpt lat="-20.852388" lon="-41.10984">
        <ele>29.4</ele>
        <time>2019-05-11T23:43:55.000Z</time>
      </trkpt>
      <trkpt lat="-20.852424" lon="-41.109811">
        <ele>29.5</ele>
        <time>2019-05-11T23:43:56.000Z</time>
      </trkpt>
      <trkpt lat="-20.852459" lon="-41.109787">
        <ele>29.5</ele>
        <time>2019-05-11T23:43:57.000Z</time>
      </trkpt>
      <trkpt lat="-20.852492" lon="-41.109765">
        <ele>29.5</ele>
        <time>2019-05-11T23:43:58.000Z</time>
      </trkpt>
      <trkpt lat="-20.852525" lon="-41.109745">
        <ele>29.4</ele>
        <time>2019-05-11T23:43:59.000Z</time>
      </trkpt>
      <trkpt lat="-20.852558" lon="-41.109727">
        <ele>29.3</ele>
        <time>2019-05-11T23:44:00.000Z</time>
      </trkpt>
      <trkpt lat="-20.852591" lon="-41.109709">
        <ele>29.2</ele>
        <time>2019-05-11T23:44:01.000Z</time>
      </trkpt>
      <trkpt lat="-20.852625" lon="-41.109692">
        <ele>29.2</ele>
        <time>2019-05-11T23:44:02.000Z</time>
      </trkpt>
      <trkpt lat="-20.852659" lon="-41.109672">
        <ele>29.0</ele>
        <time>2019-05-11T23:44:03.000Z</time>
      </trkpt>
      <trkpt lat="-20.852693" lon="-41.109651">
        <ele>28.9</ele>
        <time>2019-05-11T23:44:04.000Z</time>
      </trkpt>
      <trkpt lat="-20.852728" lon="-41.109627">
        <ele>28.7</ele>
        <time>2019-05-11T23:44:05.000Z</time>
      </trkpt>
      <trkpt lat="-20.852762" lon="-41.109602">
        <ele>28.5</ele>
        <time>2019-05-11T23:44:06.000Z</time>
      </trkpt>
      <trkpt lat="-20.852796" lon="-41.109575">
        <ele>28.3</ele>
        <time>2019-05-11T23:44:07.000Z</time>
      </trkpt>
      <trkpt lat="-20.852831" lon="-41.109549">
        <ele>28.1</ele>
        <time>2019-05-11T23:44:08.000Z</time>
      </trkpt>
      <trkpt lat="-20.852865" lon="-41.109524">
        <ele>27.9</ele>
        <time>2019-05-11T23:44:09.000Z</time>
      </trkpt>
      <trkpt lat="-20.8529" lon="-41.109501">
        <ele>27.7</ele>
        <time>2019-05-11T23:44:10.000Z</time>
      </trkpt>
      <trkpt lat="-20.852934" lon="-41.109479">
        <ele>27.6</ele>
        <time>2019-05-11T23:44:11.000Z</time>
      </trkpt>
      <trkpt lat="-20.852968" lon="-41.109458">
        <ele>27.4</ele>
        <time>2019-05-11T23:44:12.000Z</time>
      </trkpt>
      <trkpt lat="-20.853001" lon="-41.109438">
        <ele>27.3</ele>
        <time>2019-05-11T23:44:13.000Z</time>
      </trkpt>
      <trkpt lat="-20.853034" lon="-41.109419">
        <ele>27.2</ele>
        <time>2019-05-11T23:44:14.000Z</time>
      </trkpt>
      <trkpt lat="-20.853065" lon="-41.109401">
        <ele>27.1</ele>
        <time>2019-05-11T23:44:15.000Z</time>
      </trkpt>
      <trkpt lat="-20.853094" lon="-41.109383">
        <ele>27.0</ele>
        <time>2019-05-11T23:44:16.000Z</time>
      </trkpt>
      <trkpt lat="-20.853122" lon="-41.109367">
        <ele>26.9</ele>
        <time>2019-05-11T23:44:17.000Z</time>
      </trkpt>
      <trkpt lat="-20.853146" lon="-41.109356">
        <ele>26.8</ele>
        <time>2019-05-11T23:44:18.000Z</time>
      </trkpt>
      <trkpt lat="-20.853165" lon="-41.109352">
        <ele>26.9</ele>
        <time>2019-05-11T23:44:19.000Z</time>
      </trkpt>
      <trkpt lat="-20.853187" lon="-41.109348">
        <ele>26.9</ele>
        <time>2019-05-11T23:44:20.000Z</time>
      </trkpt>
      <trkpt lat="-20.853218" lon="-41.109334">
        <ele>26.9</ele>
        <time>2019-05-11T23:44:21.000Z</time>
      </trkpt>
      <trkpt lat="-20.853255" lon="-41.109313">
        <ele>26.7</ele>
        <time>2019-05-11T23:44:22.000Z</time>
      </trkpt>
      <trkpt lat="-20.853294" lon="-41.109286">
        <ele>26.5</ele>
        <time>2019-05-11T23:44:23.000Z</time>
      </trkpt>
      <trkpt lat="-20.85333" lon="-41.109256">
        <ele>26.3</ele>
        <time>2019-05-11T23:44:24.000Z</time>
      </trkpt>
      <trkpt lat="-20.853359" lon="-41.109227">
        <ele>26.3</ele>
        <time>2019-05-11T23:44:25.000Z</time>
      </trkpt>
      <trkpt lat="-20.853383" lon="-41.109199">
        <ele>26.3</ele>
        <time>2019-05-11T23:44:26.000Z</time>
      </trkpt>
      <trkpt lat="-20.853401" lon="-41.109175">
        <ele>26.2</ele>
        <time>2019-05-11T23:44:27.000Z</time>
      </trkpt>
      <trkpt lat="-20.853414" lon="-41.109157">
        <ele>26.3</ele>
        <time>2019-05-11T23:44:28.000Z</time>
      </trkpt>
      <trkpt lat="-20.853428" lon="-41.109142">
        <ele>26.4</ele>
        <time>2019-05-11T23:44:29.000Z</time>
      </trkpt>
      <trkpt lat="-20.853445" lon="-41.109128">
        <ele>26.6</ele>
        <time>2019-05-11T23:44:30.000Z</time>
      </trkpt>
      <trkpt lat="-20.853462" lon="-41.109113">
        <ele>26.8</ele>
        <time>2019-05-11T23:44:31.000Z</time>
      </trkpt>
      <trkpt lat="-20.853477" lon="-41.109099">
        <ele>26.9</ele>
        <time>2019-05-11T23:44:32.000Z</time>
      </trkpt>
      <trkpt lat="-20.853493" lon="-41.109083">
        <ele>27.0</ele>
        <time>2019-05-11T23:44:33.000Z</time>
      </trkpt>
      <trkpt lat="-20.853513" lon="-41.109065">
        <ele>27.2</ele>
        <time>2019-05-11T23:44:34.000Z</time>
      </trkpt>
      <trkpt lat="-20.853537" lon="-41.109045">
        <ele>27.4</ele>
        <time>2019-05-11T23:44:35.000Z</time>
      </trkpt>
      <trkpt lat="-20.853566" lon="-41.109022">
        <ele>27.7</ele>
        <time>2019-05-11T23:44:36.000Z</time>
      </trkpt>
      <trkpt lat="-20.853597" lon="-41.108998">
        <ele>28.0</ele>
        <time>2019-05-11T23:44:37.000Z</time>
      </trkpt>
      <trkpt lat="-20.853631" lon="-41.108973">
        <ele>28.3</ele>
        <time>2019-05-11T23:44:38.000Z</time>
      </trkpt>
      <trkpt lat="-20.853666" lon="-41.108947">
        <ele>28.5</ele>
        <time>2019-05-11T23:44:39.000Z</time>
      </trkpt>
      <trkpt lat="-20.853702" lon="-41.10892">
        <ele>28.8</ele>
        <time>2019-05-11T23:44:40.000Z</time>
      </trkpt>
      <trkpt lat="-20.853738" lon="-41.108893">
        <ele>29.0</ele>
        <time>2019-05-11T23:44:41.000Z</time>
      </trkpt>
      <trkpt lat="-20.853774" lon="-41.108867">
        <ele>29.3</ele>
        <time>2019-05-11T23:44:42.000Z</time>
      </trkpt>
      <trkpt lat="-20.853809" lon="-41.10884">
        <ele>29.5</ele>
        <time>2019-05-11T23:44:43.000Z</time>
      </trkpt>
      <trkpt lat="-20.853843" lon="-41.108815">
        <ele>29.6</ele>
        <time>2019-05-11T23:44:44.000Z</time>
      </trkpt>
      <trkpt lat="-20.853876" lon="-41.10879">
        <ele>29.8</ele>
        <time>2019-05-11T23:44:45.000Z</time>
      </trkpt>
      <trkpt lat="-20.853908" lon="-41.108766">
        <ele>29.9</ele>
        <time>2019-05-11T23:44:46.000Z</time>
      </trkpt>
      <trkpt lat="-20.853939" lon="-41.108743">
        <ele>30.0</ele>
        <time>2019-05-11T23:44:47.000Z</time>
      </trkpt>
      <trkpt lat="-20.853968" lon="-41.108721">
        <ele>30.1</ele>
        <time>2019-05-11T23:44:48.000Z</time>
      </trkpt>
      <trkpt lat="-20.853995" lon="-41.1087">
        <ele>30.2</ele>
        <time>2019-05-11T23:44:49.000Z</time>
      </trkpt>
      <trkpt lat="-20.854021" lon="-41.108681">
        <ele>30.3</ele>
        <time>2019-05-11T23:44:50.000Z</time>
      </trkpt>
      <trkpt lat="-20.854045" lon="-41.108662">
        <ele>30.3</ele>
        <time>2019-05-11T23:44:51.000Z</time>
      </trkpt>
      <trkpt lat="-20.854068" lon="-41.108644">
        <ele>30.3</ele>
        <time>2019-05-11T23:44:52.000Z</time>
      </trkpt>
      <trkpt lat="-20.85409" lon="-41.108626">
        <ele>30.3</ele>
        <time>2019-05-11T23:44:53.000Z</time>
      </trkpt>
      <trkpt lat="-20.854112" lon="-41.108607">
        <ele>30.3</ele>
        <time>2019-05-11T23:44:54.000Z</time>
      </trkpt>
      <trkpt lat="-20.854134" lon="-41.108586">
        <ele>30.3</ele>
        <time>2019-05-11T23:44:55.000Z</time>
      </trkpt>
      <trkpt lat="-20.854156" lon="-41.108562">
        <ele>30.2</ele>
        <time>2019-05-11T23:44:56.000Z</time>
      </trkpt>
      <trkpt lat="-20.854178" lon="-41.108536">
        <ele>30.5</ele>
        <time>2019-05-11T23:44:57.000Z</time>
      </trkpt>
      <trkpt lat="-20.854202" lon="-41.108507">
        <ele>31.3</ele>
        <time>2019-05-11T23:44:58.000Z</time>
      </trkpt>
      <trkpt lat="-20.854226" lon="-41.108475">
        <ele>32.0</ele>
        <time>2019-05-11T23:44:59.000Z</time>
      </trkpt>
      <trkpt lat="-20.85425" lon="-41.108441">
        <ele>32.7</ele>
        <time>2019-05-11T23:45:00.000Z</time>
      </trkpt>
      <trkpt lat="-20.854273" lon="-41.108405">
        <ele>33.4</ele>
        <time>2019-05-11T23:45:01.000Z</time>
      </trkpt>
      <trkpt lat="-20.854296" lon="-41.108368">
        <ele>34.1</ele>
        <time>2019-05-11T23:45:02.000Z</time>
      </trkpt>
      <trkpt lat="-20.854318" lon="-41.108331">
        <ele>34.8</ele>
        <time>2019-05-11T23:45:03.000Z</time>
      </trkpt>
      <trkpt lat="-20.854337" lon="-41.108294">
        <ele>35.5</ele>
        <time>2019-05-11T23:45:04.000Z</time>
      </trkpt>
      <trkpt lat="-20.854355" lon="-41.108258">
        <ele>36.2</ele>
        <time>2019-05-11T23:45:05.000Z</time>
      </trkpt>
      <trkpt lat="-20.85437" lon="-41.108223">
        <ele>36.7</ele>
        <time>2019-05-11T23:45:06.000Z</time>
      </trkpt>
      <trkpt lat="-20.854384" lon="-41.108189">
        <ele>37.1</ele>
        <time>2019-05-11T23:45:07.000Z</time>
      </trkpt>
      <trkpt lat="-20.854397" lon="-41.108154">
        <ele>37.5</ele>
        <time>2019-05-11T23:45:08.000Z</time>
      </trkpt>
      <trkpt lat="-20.85441" lon="-41.108118">
        <ele>37.8</ele>
        <time>2019-05-11T23:45:09.000Z</time>
      </trkpt>
      <trkpt lat="-20.854423" lon="-41.108081">
        <ele>38.2</ele>
        <time>2019-05-11T23:45:10.000Z</time>
      </trkpt>
      <trkpt lat="-20.854437" lon="-41.108043">
        <ele>38.5</ele>
        <time>2019-05-11T23:45:11.000Z</time>
      </trkpt>
      <trkpt lat="-20.854451" lon="-41.108006">
        <ele>38.9</ele>
        <time>2019-05-11T23:45:12.000Z</time>
      </trkpt>
      <trkpt lat="-20.854464" lon="-41.107972">
        <ele>39.2</ele>
        <time>2019-05-11T23:45:13.000Z</time>
      </trkpt>
      <trkpt lat="-20.854476" lon="-41.107943">
        <ele>39.5</ele>
        <time>2019-05-11T23:45:14.000Z</time>
      </trkpt>
      <trkpt lat="-20.854486" lon="-41.107915">
        <ele>39.7</ele>
        <time>2019-05-11T23:45:15.000Z</time>
      </trkpt>
      <trkpt lat="-20.854496" lon="-41.107888">
        <ele>40.0</ele>
        <time>2019-05-11T23:45:16.000Z</time>
      </trkpt>
      <trkpt lat="-20.854506" lon="-41.107861">
        <ele>40.2</ele>
        <time>2019-05-11T23:45:17.000Z</time>
      </trkpt>
      <trkpt lat="-20.854517" lon="-41.107832">
        <ele>40.4</ele>
        <time>2019-05-11T23:45:18.000Z</time>
      </trkpt>
      <trkpt lat="-20.854528" lon="-41.107802">
        <ele>40.6</ele>
        <time>2019-05-11T23:45:19.000Z</time>
      </trkpt>
      <trkpt lat="-20.854537" lon="-41.10777">
        <ele>40.7</ele>
        <time>2019-05-11T23:45:20.000Z</time>
      </trkpt>
      <trkpt lat="-20.854546" lon="-41.107737">
        <ele>40.8</ele>
        <time>2019-05-11T23:45:21.000Z</time>
      </trkpt>
      <trkpt lat="-20.854553" lon="-41.107704">
        <ele>40.8</ele>
        <time>2019-05-11T23:45:22.000Z</time>
      </trkpt>
      <trkpt lat="-20.854559" lon="-41.107669">
        <ele>40.7</ele>
        <time>2019-05-11T23:45:23.000Z</time>
      </trkpt>
      <trkpt lat="-20.854563" lon="-41.107633">
        <ele>40.5</ele>
        <time>2019-05-11T23:45:24.000Z</time>
      </trkpt>
      <trkpt lat="-20.854567" lon="-41.107597">
        <ele>40.3</ele>
        <time>2019-05-11T23:45:25.000Z</time>
      </trkpt>
      <trkpt lat="-20.854569" lon="-41.10756">
        <ele>40.0</ele>
        <time>2019-05-11T23:45:26.000Z</time>
      </trkpt>
      <trkpt lat="-20.85457" lon="-41.107523">
        <ele>39.7</ele>
        <time>2019-05-11T23:45:27.000Z</time>
      </trkpt>
      <trkpt lat="-20.854569" lon="-41.107486">
        <ele>39.2</ele>
        <time>2019-05-11T23:45:28.000Z</time>
      </trkpt>
      <trkpt lat="-20.854568" lon="-41.107449">
        <ele>38.7</ele>
        <time>2019-05-11T23:45:29.000Z</time>
      </trkpt>
      <trkpt lat="-20.854607" lon="-41.107188">
        <ele>36.5</ele>
        <time>2019-05-11T23:15:48.000Z</time>
      </trkpt>
      <trkpt lat="-20.8546" lon="-41.107217">
        <ele>36.7</ele>
        <time>2019-05-11T23:15:49.000Z</time>
      </trkpt>
      <trkpt lat="-20.854594" lon="-41.107246">
        <ele>36.9</ele>
        <time>2019-05-11T23:15:50.000Z</time>
      </trkpt>
      <trkpt lat="-20.854588" lon="-41.107277">
        <ele>37.1</ele>
        <time>2019-05-11T23:15:51.000Z</time>
      </trkpt>
      <trkpt lat="-20.854583" lon="-41.107309">
        <ele>37.4</ele>
        <time>2019-05-11T23:15:52.000Z</time>
      </trkpt>
      <trkpt lat="-20.854579" lon="-41.107342">
        <ele>37.7</ele>
        <time>2019-05-11T23:15:53.000Z</time>
      </trkpt>
      <trkpt lat="-20.854575" lon="-41.107377">
        <ele>38.0</ele>
        <time>2019-05-11T23:15:54.000Z</time>
      </trkpt>
      <trkpt lat="-20.854572" lon="-41.107412">
        <ele>38.3</ele>
        <time>2019-05-11T23:15:55.000Z</time>
      </trkpt>
      <trkpt lat="-20.854569" lon="-41.107448">
        <ele>38.7</ele>
        <time>2019-05-11T23:15:56.000Z</time>
      </trkpt>
      <trkpt lat="-20.854566" lon="-41.107485">
        <ele>39.1</ele>
        <time>2019-05-11T23:15:57.000Z</time>
      </trkpt>
      <trkpt lat="-20.854564" lon="-41.107522">
        <ele>39.4</ele>
        <time>2019-05-11T23:15:58.000Z</time>
      </trkpt>
      <trkpt lat="-20.854561" lon="-41.10756">
        <ele>39.7</ele>
        <time>2019-05-11T23:15:59.000Z</time>
      </trkpt>
      <trkpt lat="-20.854558" lon="-41.107598">
        <ele>39.9</ele>
        <time>2019-05-11T23:16:00.000Z</time>
      </trkpt>
      <trkpt lat="-20.854556" lon="-41.107637">
        <ele>40.2</ele>
        <time>2019-05-11T23:16:01.000Z</time>
      </trkpt>
      <trkpt lat="-20.854552" lon="-41.107675">
        <ele>40.4</ele>
        <time>2019-05-11T23:16:02.000Z</time>
      </trkpt>
      <trkpt lat="-20.854549" lon="-41.107714">
        <ele>40.7</ele>
        <time>2019-05-11T23:16:03.000Z</time>
      </trkpt>
      <trkpt lat="-20.854545" lon="-41.107753">
        <ele>40.9</ele>
        <time>2019-05-11T23:16:04.000Z</time>
      </trkpt>
      <trkpt lat="-20.85454" lon="-41.107791">
        <ele>41.0</ele>
        <time>2019-05-11T23:16:05.000Z</time>
      </trkpt>
      <trkpt lat="-20.854535" lon="-41.10783">
        <ele>41.2</ele>
        <time>2019-05-11T23:16:06.000Z</time>
      </trkpt>
      <trkpt lat="-20.854529" lon="-41.107868">
        <ele>41.3</ele>
        <time>2019-05-11T23:16:07.000Z</time>
      </trkpt>
      <trkpt lat="-20.854522" lon="-41.107905">
        <ele>41.3</ele>
        <time>2019-05-11T23:16:08.000Z</time>
      </trkpt>
      <trkpt lat="-20.854513" lon="-41.107942">
        <ele>41.2</ele>
        <time>2019-05-11T23:16:09.000Z</time>
      </trkpt>
      <trkpt lat="-20.854504" lon="-41.107979">
        <ele>41.2</ele>
        <time>2019-05-11T23:16:10.000Z</time>
      </trkpt>
      <trkpt lat="-20.854495" lon="-41.108015">
        <ele>41.1</ele>
        <time>2019-05-11T23:16:11.000Z</time>
      </trkpt>
      <trkpt lat="-20.854485" lon="-41.10805">
        <ele>40.9</ele>
        <time>2019-05-11T23:16:12.000Z</time>
      </trkpt>
      <trkpt lat="-20.854475" lon="-41.108086">
        <ele>40.7</ele>
        <time>2019-05-11T23:16:13.000Z</time>
      </trkpt>
      <trkpt lat="-20.854466" lon="-41.108121">
        <ele>40.6</ele>
        <time>2019-05-11T23:16:14.000Z</time>
      </trkpt>
      <trkpt lat="-20.854458" lon="-41.108157">
        <ele>40.5</ele>
        <time>2019-05-11T23:16:15.000Z</time>
      </trkpt>
      <trkpt lat="-20.854449" lon="-41.108192">
        <ele>40.4</ele>
        <time>2019-05-11T23:16:16.000Z</time>
      </trkpt>
      <trkpt lat="-20.85444" lon="-41.108228">
        <ele>40.2</ele>
        <time>2019-05-11T23:16:17.000Z</time>
      </trkpt>
      <trkpt lat="-20.854429" lon="-41.108263">
        <ele>40.0</ele>
        <time>2019-05-11T23:16:18.000Z</time>
      </trkpt>
      <trkpt lat="-20.854416" lon="-41.108298">
        <ele>39.6</ele>
        <time>2019-05-11T23:16:19.000Z</time>
      </trkpt>
      <trkpt lat="-20.854398" lon="-41.108332">
        <ele>38.9</ele>
        <time>2019-05-11T23:16:20.000Z</time>
      </trkpt>
      <trkpt lat="-20.854378" lon="-41.108365">
        <ele>38.3</ele>
        <time>2019-05-11T23:16:21.000Z</time>
      </trkpt>
      <trkpt lat="-20.854355" lon="-41.108398">
        <ele>37.5</ele>
        <time>2019-05-11T23:16:22.000Z</time>
      </trkpt>
      <trkpt lat="-20.854331" lon="-41.108429">
        <ele>36.7</ele>
        <time>2019-05-11T23:16:23.000Z</time>
      </trkpt>
      <trkpt lat="-20.854306" lon="-41.108459">
        <ele>35.8</ele>
        <time>2019-05-11T23:16:24.000Z</time>
      </trkpt>
      <trkpt lat="-20.854282" lon="-41.108488">
        <ele>35.0</ele>
        <time>2019-05-11T23:16:25.000Z</time>
      </trkpt>
      <trkpt lat="-20.854257" lon="-41.108516">
        <ele>34.1</ele>
        <time>2019-05-11T23:16:26.000Z</time>
      </trkpt>
      <trkpt lat="-20.854233" lon="-41.108544">
        <ele>33.3</ele>
        <time>2019-05-11T23:16:27.000Z</time>
      </trkpt>
      <trkpt lat="-20.854208" lon="-41.108572">
        <ele>32.5</ele>
        <time>2019-05-11T23:16:28.000Z</time>
      </trkpt>
      <trkpt lat="-20.854184" lon="-41.108599">
        <ele>31.7</ele>
        <time>2019-05-11T23:16:29.000Z</time>
      </trkpt>
      <trkpt lat="-20.854159" lon="-41.108628">
        <ele>31.2</ele>
        <time>2019-05-11T23:16:30.000Z</time>
      </trkpt>
      <trkpt lat="-20.854133" lon="-41.108656">
        <ele>31.3</ele>
        <time>2019-05-11T23:16:31.000Z</time>
      </trkpt>
      <trkpt lat="-20.854106" lon="-41.108684">
        <ele>31.3</ele>
        <time>2019-05-11T23:16:32.000Z</time>
      </trkpt>
      <trkpt lat="-20.854078" lon="-41.10871">
        <ele>31.3</ele>
        <time>2019-05-11T23:16:33.000Z</time>
      </trkpt>
      <trkpt lat="-20.854048" lon="-41.108733">
        <ele>31.3</ele>
        <time>2019-05-11T23:16:34.000Z</time>
      </trkpt>
      <trkpt lat="-20.854016" lon="-41.108753">
        <ele>31.1</ele>
        <time>2019-05-11T23:16:35.000Z</time>
      </trkpt>
      <trkpt lat="-20.853983" lon="-41.10877">
        <ele>30.9</ele>
        <time>2019-05-11T23:16:36.000Z</time>
      </trkpt>
      <trkpt lat="-20.853948" lon="-41.108786">
        <ele>30.7</ele>
        <time>2019-05-11T23:16:37.000Z</time>
      </trkpt>
      <trkpt lat="-20.853914" lon="-41.108802">
        <ele>30.4</ele>
        <time>2019-05-11T23:16:38.000Z</time>
      </trkpt>
      <trkpt lat="-20.853879" lon="-41.108817">
        <ele>30.1</ele>
        <time>2019-05-11T23:16:39.000Z</time>
      </trkpt>
      <trkpt lat="-20.853845" lon="-41.108834">
        <ele>29.9</ele>
        <time>2019-05-11T23:16:40.000Z</time>
      </trkpt>
      <trkpt lat="-20.853812" lon="-41.108852">
        <ele>29.6</ele>
        <time>2019-05-11T23:16:41.000Z</time>
      </trkpt>
      <trkpt lat="-20.853779" lon="-41.108871">
        <ele>29.4</ele>
        <time>2019-05-11T23:16:42.000Z</time>
      </trkpt>
      <trkpt lat="-20.853749" lon="-41.108891">
        <ele>29.2</ele>
        <time>2019-05-11T23:16:43.000Z</time>
      </trkpt>
      <trkpt lat="-20.85372" lon="-41.108913">
        <ele>29.0</ele>
        <time>2019-05-11T23:16:44.000Z</time>
      </trkpt>
      <trkpt lat="-20.853693" lon="-41.108935">
        <ele>28.8</ele>
        <time>2019-05-11T23:16:45.000Z</time>
      </trkpt>
      <trkpt lat="-20.853667" lon="-41.108959">
        <ele>28.7</ele>
        <time>2019-05-11T23:16:46.000Z</time>
      </trkpt>
      <trkpt lat="-20.853643" lon="-41.108985">
        <ele>28.5</ele>
        <time>2019-05-11T23:16:47.000Z</time>
      </trkpt>
      <trkpt lat="-20.853619" lon="-41.109012">
        <ele>28.4</ele>
        <time>2019-05-11T23:16:48.000Z</time>
      </trkpt>
      <trkpt lat="-20.853596" lon="-41.109041">
        <ele>28.3</ele>
        <time>2019-05-11T23:16:49.000Z</time>
      </trkpt>
      <trkpt lat="-20.853572" lon="-41.109072">
        <ele>28.2</ele>
        <time>2019-05-11T23:16:50.000Z</time>
      </trkpt>
      <trkpt lat="-20.853549" lon="-41.109103">
        <ele>28.1</ele>
        <time>2019-05-11T23:16:51.000Z</time>
      </trkpt>
      <trkpt lat="-20.853526" lon="-41.109133">
        <ele>28.0</ele>
        <time>2019-05-11T23:16:52.000Z</time>
      </trkpt>
      <trkpt lat="-20.853502" lon="-41.109161">
        <ele>27.8</ele>
        <time>2019-05-11T23:16:53.000Z</time>
      </trkpt>
      <trkpt lat="-20.853479" lon="-41.109185">
        <ele>27.7</ele>
        <time>2019-05-11T23:16:54.000Z</time>
      </trkpt>
      <trkpt lat="-20.853455" lon="-41.109206">
        <ele>27.5</ele>
        <time>2019-05-11T23:16:55.000Z</time>
      </trkpt>
      <trkpt lat="-20.85343" lon="-41.109224">
        <ele>27.4</ele>
        <time>2019-05-11T23:16:56.000Z</time>
      </trkpt>
      <trkpt lat="-20.853404" lon="-41.109243">
        <ele>27.2</ele>
        <time>2019-05-11T23:16:57.000Z</time>
      </trkpt>
      <trkpt lat="-20.853375" lon="-41.109265">
        <ele>27.1</ele>
        <time>2019-05-11T23:16:58.000Z</time>
      </trkpt>
      <trkpt lat="-20.853342" lon="-41.109288">
        <ele>26.9</ele>
        <time>2019-05-11T23:16:59.000Z</time>
      </trkpt>
      <trkpt lat="-20.853307" lon="-41.109309">
        <ele>26.9</ele>
        <time>2019-05-11T23:17:00.000Z</time>
      </trkpt>
      <trkpt lat="-20.85327" lon="-41.109327">
        <ele>27.0</ele>
        <time>2019-05-11T23:17:01.000Z</time>
      </trkpt>
      <trkpt lat="-20.853231" lon="-41.109345">
        <ele>27.1</ele>
        <time>2019-05-11T23:17:02.000Z</time>
      </trkpt>
      <trkpt lat="-20.853191" lon="-41.109364">
        <ele>27.2</ele>
        <time>2019-05-11T23:17:03.000Z</time>
      </trkpt>
      <trkpt lat="-20.853151" lon="-41.109383">
        <ele>27.2</ele>
        <time>2019-05-11T23:17:04.000Z</time>
      </trkpt>
      <trkpt lat="-20.853112" lon="-41.109405">
        <ele>27.4</ele>
        <time>2019-05-11T23:17:05.000Z</time>
      </trkpt>
      <trkpt lat="-20.853074" lon="-41.109428">
        <ele>27.5</ele>
        <time>2019-05-11T23:17:06.000Z</time>
      </trkpt>
      <trkpt lat="-20.853037" lon="-41.109453">
        <ele>27.7</ele>
        <time>2019-05-11T23:17:07.000Z</time>
      </trkpt>
      <trkpt lat="-20.853" lon="-41.109477">
        <ele>27.9</ele>
        <time>2019-05-11T23:17:08.000Z</time>
      </trkpt>
      <trkpt lat="-20.852964" lon="-41.109502">
        <ele>28.1</ele>
        <time>2019-05-11T23:17:09.000Z</time>
      </trkpt>
      <trkpt lat="-20.852928" lon="-41.109526">
        <ele>28.2</ele>
        <time>2019-05-11T23:17:10.000Z</time>
      </trkpt>
      <trkpt lat="-20.852892" lon="-41.109548">
        <ele>28.4</ele>
        <time>2019-05-11T23:17:11.000Z</time>
      </trkpt>
      <trkpt lat="-20.852857" lon="-41.109571">
        <ele>28.5</ele>
        <time>2019-05-11T23:17:12.000Z</time>
      </trkpt>
      <trkpt lat="-20.852822" lon="-41.109592">
        <ele>28.7</ele>
        <time>2019-05-11T23:17:13.000Z</time>
      </trkpt>
      <trkpt lat="-20.852788" lon="-41.109613">
        <ele>28.8</ele>
        <time>2019-05-11T23:17:14.000Z</time>
      </trkpt>
      <trkpt lat="-20.852754" lon="-41.109633">
        <ele>28.9</ele>
        <time>2019-05-11T23:17:15.000Z</time>
      </trkpt>
      <trkpt lat="-20.852721" lon="-41.109653">
        <ele>29.1</ele>
        <time>2019-05-11T23:17:16.000Z</time>
      </trkpt>
      <trkpt lat="-20.852689" lon="-41.109673">
        <ele>29.2</ele>
        <time>2019-05-11T23:17:17.000Z</time>
      </trkpt>
      <trkpt lat="-20.852658" lon="-41.109692">
        <ele>29.3</ele>
        <time>2019-05-11T23:17:18.000Z</time>
      </trkpt>
      <trkpt lat="-20.852628" lon="-41.109711">
        <ele>29.5</ele>
        <time>2019-05-11T23:17:19.000Z</time>
      </trkpt>
      <trkpt lat="-20.852598" lon="-41.10973">
        <ele>29.6</ele>
        <time>2019-05-11T23:17:20.000Z</time>
      </trkpt>
      <trkpt lat="-20.85257" lon="-41.109749">
        <ele>29.7</ele>
        <time>2019-05-11T23:17:21.000Z</time>
      </trkpt>
      <trkpt lat="-20.852541" lon="-41.109769">
        <ele>29.9</ele>
        <time>2019-05-11T23:17:22.000Z</time>
      </trkpt>
      <trkpt lat="-20.852512" lon="-41.109789">
        <ele>30.0</ele>
        <time>2019-05-11T23:17:23.000Z</time>
      </trkpt>
      <trkpt lat="-20.852481" lon="-41.10981">
        <ele>30.1</ele>
        <time>2019-05-11T23:17:24.000Z</time>
      </trkpt>
      <trkpt lat="-20.85245" lon="-41.109832">
        <ele>30.0</ele>
        <time>2019-05-11T23:17:25.000Z</time>
      </trkpt>
      <trkpt lat="-20.852418" lon="-41.109854">
        <ele>30.0</ele>
        <time>2019-05-11T23:17:26.000Z</time>
      </trkpt>
      <trkpt lat="-20.852385" lon="-41.109878">
        <ele>29.9</ele>
        <time>2019-05-11T23:17:27.000Z</time>
      </trkpt>
      <trkpt lat="-20.852351" lon="-41.109901">
        <ele>29.7</ele>
        <time>2019-05-11T23:17:28.000Z</time>
      </trkpt>
      <trkpt lat="-20.852318" lon="-41.109926">
        <ele>29.6</ele>
        <time>2019-05-11T23:17:29.000Z</time>
      </trkpt>
      <trkpt lat="-20.852285" lon="-41.10995">
        <ele>29.4</ele>
        <time>2019-05-11T23:17:30.000Z</time>
      </trkpt>
      <trkpt lat="-20.852253" lon="-41.109974">
        <ele>29.2</ele>
        <time>2019-05-11T23:17:31.000Z</time>
      </trkpt>
      <trkpt lat="-20.852221" lon="-41.109999">
        <ele>29.0</ele>
        <time>2019-05-11T23:17:32.000Z</time>
      </trkpt>
      <trkpt lat="-20.85219" lon="-41.110023">
        <ele>28.9</ele>
        <time>2019-05-11T23:17:33.000Z</time>
      </trkpt>
      <trkpt lat="-20.852159" lon="-41.110046">
        <ele>28.8</ele>
        <time>2019-05-11T23:17:34.000Z</time>
      </trkpt>
      <trkpt lat="-20.852129" lon="-41.11007">
        <ele>28.7</ele>
        <time>2019-05-11T23:17:35.000Z</time>
      </trkpt>
      <trkpt lat="-20.8521" lon="-41.110092">
        <ele>28.6</ele>
        <time>2019-05-11T23:17:36.000Z</time>
      </trkpt>
      <trkpt lat="-20.852071" lon="-41.110114">
        <ele>28.5</ele>
        <time>2019-05-11T23:17:37.000Z</time>
      </trkpt>
      <trkpt lat="-20.852043" lon="-41.110135">
        <ele>28.5</ele>
        <time>2019-05-11T23:17:38.000Z</time>
      </trkpt>
      <trkpt lat="-20.852016" lon="-41.110155">
        <ele>28.4</ele>
        <time>2019-05-11T23:17:39.000Z</time>
      </trkpt>
      <trkpt lat="-20.851989" lon="-41.110174">
        <ele>28.3</ele>
        <time>2019-05-11T23:17:40.000Z</time>
      </trkpt>
      <trkpt lat="-20.851962" lon="-41.110192">
        <ele>28.2</ele>
        <time>2019-05-11T23:17:41.000Z</time>
      </trkpt>
      <trkpt lat="-20.851936" lon="-41.110211">
        <ele>28.1</ele>
        <time>2019-05-11T23:17:42.000Z</time>
      </trkpt>
      <trkpt lat="-20.851909" lon="-41.11023">
        <ele>28.0</ele>
        <time>2019-05-11T23:17:43.000Z</time>
      </trkpt>
      <trkpt lat="-20.851881" lon="-41.110252">
        <ele>27.9</ele>
        <time>2019-05-11T23:17:44.000Z</time>
      </trkpt>
      <trkpt lat="-20.851852" lon="-41.110275">
        <ele>27.9</ele>
        <time>2019-05-11T23:17:45.000Z</time>
      </trkpt>
      <trkpt lat="-20.851821" lon="-41.1103">
        <ele>27.8</ele>
        <time>2019-05-11T23:17:46.000Z</time>
      </trkpt>
      <trkpt lat="-20.85179" lon="-41.110327">
        <ele>27.8</ele>
        <time>2019-05-11T23:17:47.000Z</time>
      </trkpt>
      <trkpt lat="-20.851758" lon="-41.110354">
        <ele>27.8</ele>
        <time>2019-05-11T23:17:48.000Z</time>
      </trkpt>
      <trkpt lat="-20.851725" lon="-41.110383">
        <ele>27.8</ele>
        <time>2019-05-11T23:17:49.000Z</time>
      </trkpt>
      <trkpt lat="-20.851692" lon="-41.110411">
        <ele>27.8</ele>
        <time>2019-05-11T23:17:50.000Z</time>
      </trkpt>
      <trkpt lat="-20.851658" lon="-41.110438">
        <ele>27.8</ele>
        <time>2019-05-11T23:17:51.000Z</time>
      </trkpt>
      <trkpt lat="-20.851624" lon="-41.110462">
        <ele>28.0</ele>
        <time>2019-05-11T23:17:52.000Z</time>
      </trkpt>
      <trkpt lat="-20.85159" lon="-41.110483">
        <ele>28.1</ele>
        <time>2019-05-11T23:17:53.000Z</time>
      </trkpt>
      <trkpt lat="-20.851556" lon="-41.110501">
        <ele>28.2</ele>
        <time>2019-05-11T23:17:54.000Z</time>
      </trkpt>
      <trkpt lat="-20.851523" lon="-41.110519">
        <ele>28.3</ele>
        <time>2019-05-11T23:17:55.000Z</time>
      </trkpt>
      <trkpt lat="-20.851492" lon="-41.110537">
        <ele>28.4</ele>
        <time>2019-05-11T23:17:56.000Z</time>
      </trkpt>
      <trkpt lat="-20.851461" lon="-41.110554">
        <ele>28.5</ele>
        <time>2019-05-11T23:17:57.000Z</time>
      </trkpt>
      <trkpt lat="-20.85143" lon="-41.110569">
        <ele>28.5</ele>
        <time>2019-05-11T23:17:58.000Z</time>
      </trkpt>
      <trkpt lat="-20.851398" lon="-41.110584">
        <ele>28.6</ele>
        <time>2019-05-11T23:17:59.000Z</time>
      </trkpt>
      <trkpt lat="-20.851365" lon="-41.110597">
        <ele>28.6</ele>
        <time>2019-05-11T23:18:00.000Z</time>
      </trkpt>
      <trkpt lat="-20.851332" lon="-41.110609">
        <ele>28.5</ele>
        <time>2019-05-11T23:18:01.000Z</time>
      </trkpt>
      <trkpt lat="-20.851298" lon="-41.110621">
        <ele>28.5</ele>
        <time>2019-05-11T23:18:02.000Z</time>
      </trkpt>
      <trkpt lat="-20.851264" lon="-41.110633">
        <ele>28.4</ele>
        <time>2019-05-11T23:18:03.000Z</time>
      </trkpt>
      <trkpt lat="-20.851231" lon="-41.110648">
        <ele>28.4</ele>
        <time>2019-05-11T23:18:04.000Z</time>
      </trkpt>
      <trkpt lat="-20.851198" lon="-41.110665">
        <ele>28.5</ele>
        <time>2019-05-11T23:18:05.000Z</time>
      </trkpt>
      <trkpt lat="-20.851167" lon="-41.110685">
        <ele>28.5</ele>
        <time>2019-05-11T23:18:06.000Z</time>
      </trkpt>
      <trkpt lat="-20.851137" lon="-41.110707">
        <ele>28.6</ele>
        <time>2019-05-11T23:18:07.000Z</time>
      </trkpt>
      <trkpt lat="-20.851107" lon="-41.110731">
        <ele>28.7</ele>
        <time>2019-05-11T23:18:08.000Z</time>
      </trkpt>
      <trkpt lat="-20.851079" lon="-41.110756">
        <ele>28.8</ele>
        <time>2019-05-11T23:18:09.000Z</time>
      </trkpt>
      <trkpt lat="-20.851053" lon="-41.110778">
        <ele>28.9</ele>
        <time>2019-05-11T23:18:10.000Z</time>
      </trkpt>
      <trkpt lat="-20.851028" lon="-41.110798">
        <ele>29.0</ele>
        <time>2019-05-11T23:18:11.000Z</time>
      </trkpt>
      <trkpt lat="-20.851004" lon="-41.110816">
        <ele>29.0</ele>
        <time>2019-05-11T23:18:12.000Z</time>
      </trkpt>
      <trkpt lat="-20.85098" lon="-41.110834">
        <ele>29.1</ele>
        <time>2019-05-11T23:18:13.000Z</time>
      </trkpt>
      <trkpt lat="-20.850955" lon="-41.110853">
        <ele>29.1</ele>
        <time>2019-05-11T23:18:14.000Z</time>
      </trkpt>
      <trkpt lat="-20.85093" lon="-41.110872">
        <ele>29.1</ele>
        <time>2019-05-11T23:18:15.000Z</time>
      </trkpt>
      <trkpt lat="-20.850902" lon="-41.110892">
        <ele>29.0</ele>
        <time>2019-05-11T23:18:16.000Z</time>
      </trkpt>
      <trkpt lat="-20.850874" lon="-41.110913">
        <ele>29.0</ele>
        <time>2019-05-11T23:18:17.000Z</time>
      </trkpt>
      <trkpt lat="-20.850845" lon="-41.110934">
        <ele>29.0</ele>
        <time>2019-05-11T23:18:18.000Z</time>
      </trkpt>
      <trkpt lat="-20.850815" lon="-41.110956">
        <ele>29.0</ele>
        <time>2019-05-11T23:18:19.000Z</time>
      </trkpt>
      <trkpt lat="-20.850784" lon="-41.110977">
        <ele>28.9</ele>
        <time>2019-05-11T23:18:20.000Z</time>
      </trkpt>
      <trkpt lat="-20.850752" lon="-41.110999">
        <ele>28.9</ele>
        <time>2019-05-11T23:18:21.000Z</time>
      </trkpt>
      <trkpt lat="-20.85072" lon="-41.111021">
        <ele>28.8</ele>
        <time>2019-05-11T23:18:22.000Z</time>
      </trkpt>
      <trkpt lat="-20.850687" lon="-41.111042">
        <ele>28.8</ele>
        <time>2019-05-11T23:18:23.000Z</time>
      </trkpt>
      <trkpt lat="-20.850654" lon="-41.111063">
        <ele>28.7</ele>
        <time>2019-05-11T23:18:24.000Z</time>
      </trkpt>
      <trkpt lat="-20.850621" lon="-41.111083">
        <ele>28.7</ele>
        <time>2019-05-11T23:18:25.000Z</time>
      </trkpt>
      <trkpt lat="-20.850587" lon="-41.111102">
        <ele>28.6</ele>
        <time>2019-05-11T23:18:26.000Z</time>
      </trkpt>
      <trkpt lat="-20.850554" lon="-41.111118">
        <ele>28.5</ele>
        <time>2019-05-11T23:18:27.000Z</time>
      </trkpt>
      <trkpt lat="-20.850522" lon="-41.111132">
        <ele>28.4</ele>
        <time>2019-05-11T23:18:28.000Z</time>
      </trkpt>
      <trkpt lat="-20.850491" lon="-41.111141">
        <ele>28.3</ele>
        <time>2019-05-11T23:18:29.000Z</time>
      </trkpt>
      <trkpt lat="-20.850461" lon="-41.111145">
        <ele>28.1</ele>
        <time>2019-05-11T23:18:30.000Z</time>
      </trkpt>
      <trkpt lat="-20.850434" lon="-41.111147">
        <ele>27.9</ele>
        <time>2019-05-11T23:18:31.000Z</time>
      </trkpt>
      <trkpt lat="-20.850408" lon="-41.111146">
        <ele>27.7</ele>
        <time>2019-05-11T23:18:32.000Z</time>
      </trkpt>
      <trkpt lat="-20.850384" lon="-41.111144">
        <ele>27.5</ele>
        <time>2019-05-11T23:18:33.000Z</time>
      </trkpt>
      <trkpt lat="-20.850362" lon="-41.111143">
        <ele>27.3</ele>
        <time>2019-05-11T23:18:34.000Z</time>
      </trkpt>
      <trkpt lat="-20.850342" lon="-41.111144">
        <ele>27.1</ele>
        <time>2019-05-11T23:18:35.000Z</time>
      </trkpt>
      <trkpt lat="-20.850323" lon="-41.111148">
        <ele>27.0</ele>
        <time>2019-05-11T23:18:36.000Z</time>
      </trkpt>
      <trkpt lat="-20.850303" lon="-41.111157">
        <ele>27.0</ele>
        <time>2019-05-11T23:18:37.000Z</time>
      </trkpt>
      <trkpt lat="-20.850282" lon="-41.111171">
        <ele>27.0</ele>
        <time>2019-05-11T23:18:38.000Z</time>
      </trkpt>
      <trkpt lat="-20.85026" lon="-41.111188">
        <ele>27.1</ele>
        <time>2019-05-11T23:18:39.000Z</time>
      </trkpt>
      <trkpt lat="-20.850237" lon="-41.111206">
        <ele>27.1</ele>
        <time>2019-05-11T23:18:40.000Z</time>
      </trkpt>
      <trkpt lat="-20.850213" lon="-41.111225">
        <ele>27.2</ele>
        <time>2019-05-11T23:18:41.000Z</time>
      </trkpt>
      <trkpt lat="-20.850189" lon="-41.111243">
        <ele>27.3</ele>
        <time>2019-05-11T23:18:42.000Z</time>
      </trkpt>
      <trkpt lat="-20.850163" lon="-41.111262">
        <ele>27.3</ele>
        <time>2019-05-11T23:18:43.000Z</time>
      </trkpt>
      <trkpt lat="-20.850138" lon="-41.111279">
        <ele>27.4</ele>
        <time>2019-05-11T23:18:44.000Z</time>
      </trkpt>
      <trkpt lat="-20.850111" lon="-41.111296">
        <ele>27.4</ele>
        <time>2019-05-11T23:18:45.000Z</time>
      </trkpt>
      <trkpt lat="-20.850083" lon="-41.111313">
        <ele>27.5</ele>
        <time>2019-05-11T23:18:46.000Z</time>
      </trkpt>
      <trkpt lat="-20.850052" lon="-41.111328">
        <ele>27.5</ele>
        <time>2019-05-11T23:18:47.000Z</time>
      </trkpt>
      <trkpt lat="-20.85002" lon="-41.111343">
        <ele>27.5</ele>
        <time>2019-05-11T23:18:48.000Z</time>
      </trkpt>
      <trkpt lat="-20.849984" lon="-41.111357">
        <ele>27.5</ele>
        <time>2019-05-11T23:18:49.000Z</time>
      </trkpt>
      <trkpt lat="-20.849944" lon="-41.111369">
        <ele>27.7</ele>
        <time>2019-05-11T23:18:50.000Z</time>
      </trkpt>
      <trkpt lat="-20.849902" lon="-41.111382">
        <ele>27.8</ele>
        <time>2019-05-11T23:18:51.000Z</time>
      </trkpt>
      <trkpt lat="-20.849857" lon="-41.111394">
        <ele>28.0</ele>
        <time>2019-05-11T23:18:52.000Z</time>
      </trkpt>
      <trkpt lat="-20.84981" lon="-41.111407">
        <ele>28.1</ele>
        <time>2019-05-11T23:18:53.000Z</time>
      </trkpt>
      <trkpt lat="-20.849761" lon="-41.111421">
        <ele>28.3</ele>
        <time>2019-05-11T23:18:54.000Z</time>
      </trkpt>
      <trkpt lat="-20.849711" lon="-41.111436">
        <ele>28.4</ele>
        <time>2019-05-11T23:18:55.000Z</time>
      </trkpt>
      <trkpt lat="-20.849663" lon="-41.111451">
        <ele>28.6</ele>
        <time>2019-05-11T23:18:56.000Z</time>
      </trkpt>
      <trkpt lat="-20.84962" lon="-41.111467">
        <ele>28.8</ele>
        <time>2019-05-11T23:18:57.000Z</time>
      </trkpt>
      <trkpt lat="-20.849583" lon="-41.11148">
        <ele>28.9</ele>
        <time>2019-05-11T23:18:58.000Z</time>
      </trkpt>
      <trkpt lat="-20.849548" lon="-41.111495">
        <ele>29.1</ele>
        <time>2019-05-11T23:18:59.000Z</time>
      </trkpt>
      <trkpt lat="-20.849512" lon="-41.111511">
        <ele>29.3</ele>
        <time>2019-05-11T23:19:00.000Z</time>
      </trkpt>
      <trkpt lat="-20.849474" lon="-41.11153">
        <ele>29.5</ele>
        <time>2019-05-11T23:19:01.000Z</time>
      </trkpt>
      <trkpt lat="-20.849435" lon="-41.11155">
        <ele>29.7</ele>
        <time>2019-05-11T23:19:02.000Z</time>
      </trkpt>
      <trkpt lat="-20.849396" lon="-41.111572">
        <ele>30.0</ele>
        <time>2019-05-11T23:19:03.000Z</time>
      </trkpt>
      <trkpt lat="-20.849356" lon="-41.111594">
        <ele>30.2</ele>
        <time>2019-05-11T23:19:04.000Z</time>
      </trkpt>
      <trkpt lat="-20.849317" lon="-41.111617">
        <ele>30.5</ele>
        <time>2019-05-11T23:19:05.000Z</time>
      </trkpt>
      <trkpt lat="-20.849279" lon="-41.11164">
        <ele>30.8</ele>
        <time>2019-05-11T23:19:06.000Z</time>
      </trkpt>
      <trkpt lat="-20.849242" lon="-41.111662">
        <ele>31.0</ele>
        <time>2019-05-11T23:19:07.000Z</time>
      </trkpt>
      <trkpt lat="-20.849208" lon="-41.111683">
        <ele>31.2</ele>
        <time>2019-05-11T23:19:08.000Z</time>
      </trkpt>
      <trkpt lat="-20.849176" lon="-41.111703">
        <ele>31.4</ele>
        <time>2019-05-11T23:19:09.000Z</time>
      </trkpt>
      <trkpt lat="-20.849147" lon="-41.111722">
        <ele>31.4</ele>
        <time>2019-05-11T23:19:10.000Z</time>
      </trkpt>
      <trkpt lat="-20.849121" lon="-41.111739">
        <ele>31.4</ele>
        <time>2019-05-11T23:19:11.000Z</time>
      </trkpt>
      <trkpt lat="-20.849096" lon="-41.111755">
        <ele>31.4</ele>
        <time>2019-05-11T23:19:12.000Z</time>
      </trkpt>
      <trkpt lat="-20.849072" lon="-41.11177">
        <ele>31.3</ele>
        <time>2019-05-11T23:19:13.000Z</time>
      </trkpt>
      <trkpt lat="-20.849049" lon="-41.111785">
        <ele>31.3</ele>
        <time>2019-05-11T23:19:14.000Z</time>
      </trkpt>
      <trkpt lat="-20.849025" lon="-41.1118">
        <ele>31.2</ele>
        <time>2019-05-11T23:19:15.000Z</time>
      </trkpt>
      <trkpt lat="-20.848999" lon="-41.111817">
        <ele>31.1</ele>
        <time>2019-05-11T23:19:16.000Z</time>
      </trkpt>
      <trkpt lat="-20.848969" lon="-41.111837">
        <ele>31.1</ele>
        <time>2019-05-11T23:19:17.000Z</time>
      </trkpt>
      <trkpt lat="-20.848935" lon="-41.111861">
        <ele>31.0</ele>
        <time>2019-05-11T23:19:18.000Z</time>
      </trkpt>
      <trkpt lat="-20.848899" lon="-41.111884">
        <ele>30.8</ele>
        <time>2019-05-11T23:19:19.000Z</time>
      </trkpt>
      <trkpt lat="-20.848866" lon="-41.111902">
        <ele>30.6</ele>
        <time>2019-05-11T23:19:20.000Z</time>
      </trkpt>
      <trkpt lat="-20.848834" lon="-41.111918">
        <ele>30.5</ele>
        <time>2019-05-11T23:19:21.000Z</time>
      </trkpt>
      <trkpt lat="-20.8488" lon="-41.111933">
        <ele>30.2</ele>
        <time>2019-05-11T23:19:22.000Z</time>
      </trkpt>
      <trkpt lat="-20.848763" lon="-41.111952">
        <ele>30.0</ele>
        <time>2019-05-11T23:19:23.000Z</time>
      </trkpt>
      <trkpt lat="-20.848726" lon="-41.111974">
        <ele>29.7</ele>
        <time>2019-05-11T23:19:24.000Z</time>
      </trkpt>
      <trkpt lat="-20.848693" lon="-41.112">
        <ele>29.5</ele>
        <time>2019-05-11T23:19:25.000Z</time>
      </trkpt>
      <trkpt lat="-20.848664" lon="-41.112029">
        <ele>29.4</ele>
        <time>2019-05-11T23:19:26.000Z</time>
      </trkpt>
      <trkpt lat="-20.848638" lon="-41.11206">
        <ele>29.2</ele>
        <time>2019-05-11T23:19:27.000Z</time>
      </trkpt>
      <trkpt lat="-20.848616" lon="-41.112094">
        <ele>29.1</ele>
        <time>2019-05-11T23:19:28.000Z</time>
      </trkpt>
      <trkpt lat="-20.848597" lon="-41.11213">
        <ele>29.0</ele>
        <time>2019-05-11T23:19:29.000Z</time>
      </trkpt>
      <trkpt lat="-20.848581" lon="-41.112167">
        <ele>28.9</ele>
        <time>2019-05-11T23:19:30.000Z</time>
      </trkpt>
      <trkpt lat="-20.848567" lon="-41.112206">
        <ele>28.9</ele>
        <time>2019-05-11T23:19:31.000Z</time>
      </trkpt>
      <trkpt lat="-20.848554" lon="-41.112246">
        <ele>28.8</ele>
        <time>2019-05-11T23:19:32.000Z</time>
      </trkpt>
      <trkpt lat="-20.848543" lon="-41.112285">
        <ele>28.8</ele>
        <time>2019-05-11T23:19:33.000Z</time>
      </trkpt>
      <trkpt lat="-20.848533" lon="-41.112324">
        <ele>28.7</ele>
        <time>2019-05-11T23:19:34.000Z</time>
      </trkpt>
      <trkpt lat="-20.848524" lon="-41.112363">
        <ele>28.7</ele>
        <time>2019-05-11T23:19:35.000Z</time>
      </trkpt>
      <trkpt lat="-20.848515" lon="-41.112401">
        <ele>28.6</ele>
        <time>2019-05-11T23:19:36.000Z</time>
      </trkpt>
      <trkpt lat="-20.848506" lon="-41.112438">
        <ele>28.6</ele>
        <time>2019-05-11T23:19:37.000Z</time>
      </trkpt>
      <trkpt lat="-20.848498" lon="-41.112476">
        <ele>28.5</ele>
        <time>2019-05-11T23:19:38.000Z</time>
      </trkpt>
      <trkpt lat="-20.84849" lon="-41.112514">
        <ele>28.4</ele>
        <time>2019-05-11T23:19:39.000Z</time>
      </trkpt>
      <trkpt lat="-20.848482" lon="-41.112552">
        <ele>28.3</ele>
        <time>2019-05-11T23:19:40.000Z</time>
      </trkpt>
      <trkpt lat="-20.848475" lon="-41.112591">
        <ele>28.2</ele>
        <time>2019-05-11T23:19:41.000Z</time>
      </trkpt>
      <trkpt lat="-20.848469" lon="-41.112628">
        <ele>28.2</ele>
        <time>2019-05-11T23:19:42.000Z</time>
      </trkpt>
      <trkpt lat="-20.848464" lon="-41.112664">
        <ele>28.1</ele>
        <time>2019-05-11T23:19:43.000Z</time>
      </trkpt>
      <trkpt lat="-20.84846" lon="-41.112697">
        <ele>28.1</ele>
        <time>2019-05-11T23:19:44.000Z</time>
      </trkpt>
      <trkpt lat="-20.848458" lon="-41.112727">
        <ele>28.1</ele>
        <time>2019-05-11T23:19:45.000Z</time>
      </trkpt>
      <trkpt lat="-20.848456" lon="-41.112756">
        <ele>28.0</ele>
        <time>2019-05-11T23:19:46.000Z</time>
      </trkpt>
      <trkpt lat="-20.848455" lon="-41.112784">
        <ele>28.0</ele>
        <time>2019-05-11T23:19:47.000Z</time>
      </trkpt>
      <trkpt lat="-20.848453" lon="-41.112813">
        <ele>28.0</ele>
        <time>2019-05-11T23:19:48.000Z</time>
      </trkpt>
      <trkpt lat="-20.848449" lon="-41.112845">
        <ele>28.0</ele>
        <time>2019-05-11T23:19:49.000Z</time>
      </trkpt>
      <trkpt lat="-20.848443" lon="-41.112879">
        <ele>27.9</ele>
        <time>2019-05-11T23:19:50.000Z</time>
      </trkpt>
      <trkpt lat="-20.848436" lon="-41.112917">
        <ele>27.9</ele>
        <time>2019-05-11T23:19:51.000Z</time>
      </trkpt>
      <trkpt lat="-20.848427" lon="-41.112956">
        <ele>27.8</ele>
        <time>2019-05-11T23:19:52.000Z</time>
      </trkpt>
      <trkpt lat="-20.848418" lon="-41.112997">
        <ele>27.7</ele>
        <time>2019-05-11T23:19:53.000Z</time>
      </trkpt>
      <trkpt lat="-20.848408" lon="-41.113037">
        <ele>27.6</ele>
        <time>2019-05-11T23:19:54.000Z</time>
      </trkpt>
      <trkpt lat="-20.848399" lon="-41.113076">
        <ele>27.5</ele>
        <time>2019-05-11T23:19:55.000Z</time>
      </trkpt>
      <trkpt lat="-20.848391" lon="-41.113114">
        <ele>27.4</ele>
        <time>2019-05-11T23:19:56.000Z</time>
      </trkpt>
      <trkpt lat="-20.848382" lon="-41.113153">
        <ele>27.4</ele>
        <time>2019-05-11T23:19:57.000Z</time>
      </trkpt>
      <trkpt lat="-20.848373" lon="-41.113191">
        <ele>27.3</ele>
        <time>2019-05-11T23:19:58.000Z</time>
      </trkpt>
      <trkpt lat="-20.848364" lon="-41.11323">
        <ele>27.2</ele>
        <time>2019-05-11T23:19:59.000Z</time>
      </trkpt>
      <trkpt lat="-20.848355" lon="-41.11327">
        <ele>27.2</ele>
        <time>2019-05-11T23:20:00.000Z</time>
      </trkpt>
      <trkpt lat="-20.848345" lon="-41.113311">
        <ele>27.1</ele>
        <time>2019-05-11T23:20:01.000Z</time>
      </trkpt>
      <trkpt lat="-20.848335" lon="-41.113352">
        <ele>27.1</ele>
        <time>2019-05-11T23:20:02.000Z</time>
      </trkpt>
      <trkpt lat="-20.848325" lon="-41.113393">
        <ele>27.1</ele>
        <time>2019-05-11T23:20:03.000Z</time>
      </trkpt>
      <trkpt lat="-20.848315" lon="-41.113434">
        <ele>27.1</ele>
        <time>2019-05-11T23:20:04.000Z</time>
      </trkpt>
      <trkpt lat="-20.848306" lon="-41.113474">
        <ele>27.1</ele>
        <time>2019-05-11T23:20:05.000Z</time>
      </trkpt>
      <trkpt lat="-20.848297" lon="-41.113513">
        <ele>27.1</ele>
        <time>2019-05-11T23:20:06.000Z</time>
      </trkpt>
      <trkpt lat="-20.848288" lon="-41.113551">
        <ele>27.1</ele>
        <time>2019-05-11T23:20:07.000Z</time>
      </trkpt>
      <trkpt lat="-20.848279" lon="-41.113589">
        <ele>27.2</ele>
        <time>2019-05-11T23:20:08.000Z</time>
      </trkpt>
      <trkpt lat="-20.84827" lon="-41.113625">
        <ele>27.2</ele>
        <time>2019-05-11T23:20:09.000Z</time>
      </trkpt>
      <trkpt lat="-20.84826" lon="-41.113661">
        <ele>27.2</ele>
        <time>2019-05-11T23:20:10.000Z</time>
      </trkpt>
      <trkpt lat="-20.84825" lon="-41.113697">
        <ele>27.2</ele>
        <time>2019-05-11T23:20:11.000Z</time>
      </trkpt>
      <trkpt lat="-20.848239" lon="-41.113731">
        <ele>27.2</ele>
        <time>2019-05-11T23:20:12.000Z</time>
      </trkpt>
      <trkpt lat="-20.848228" lon="-41.113765">
        <ele>27.2</ele>
        <time>2019-05-11T23:20:13.000Z</time>
      </trkpt>
      <trkpt lat="-20.848216" lon="-41.113798">
        <ele>27.2</ele>
        <time>2019-05-11T23:20:14.000Z</time>
      </trkpt>
      <trkpt lat="-20.848205" lon="-41.113831">
        <ele>27.2</ele>
        <time>2019-05-11T23:20:15.000Z</time>
      </trkpt>
      <trkpt lat="-20.848193" lon="-41.113863">
        <ele>27.2</ele>
        <time>2019-05-11T23:20:16.000Z</time>
      </trkpt>
      <trkpt lat="-20.848182" lon="-41.113894">
        <ele>27.3</ele>
        <time>2019-05-11T23:20:17.000Z</time>
      </trkpt>
      <trkpt lat="-20.84817" lon="-41.113925">
        <ele>27.3</ele>
        <time>2019-05-11T23:20:18.000Z</time>
      </trkpt>
      <trkpt lat="-20.848159" lon="-41.113955">
        <ele>27.3</ele>
        <time>2019-05-11T23:20:19.000Z</time>
      </trkpt>
      <trkpt lat="-20.848148" lon="-41.113985">
        <ele>27.3</ele>
        <time>2019-05-11T23:20:20.000Z</time>
      </trkpt>
      <trkpt lat="-20.848137" lon="-41.114015">
        <ele>27.3</ele>
        <time>2019-05-11T23:20:21.000Z</time>
      </trkpt>
      <trkpt lat="-20.848126" lon="-41.114044">
        <ele>27.4</ele>
        <time>2019-05-11T23:20:22.000Z</time>
      </trkpt>
      <trkpt lat="-20.848116" lon="-41.114074">
        <ele>27.4</ele>
        <time>2019-05-11T23:20:23.000Z</time>
      </trkpt>
      <trkpt lat="-20.848107" lon="-41.114104">
        <ele>27.4</ele>
        <time>2019-05-11T23:20:24.000Z</time>
      </trkpt>
      <trkpt lat="-20.848098" lon="-41.114134">
        <ele>27.5</ele>
        <time>2019-05-11T23:20:25.000Z</time>
      </trkpt>
      <trkpt lat="-20.84809" lon="-41.114166">
        <ele>27.5</ele>
        <time>2019-05-11T23:20:26.000Z</time>
      </trkpt>
      <trkpt lat="-20.848082" lon="-41.114199">
        <ele>27.7</ele>
        <time>2019-05-11T23:20:27.000Z</time>
      </trkpt>
      <trkpt lat="-20.848075" lon="-41.114233">
        <ele>27.8</ele>
        <time>2019-05-11T23:20:28.000Z</time>
      </trkpt>
      <trkpt lat="-20.848069" lon="-41.114268">
        <ele>28.0</ele>
        <time>2019-05-11T23:20:29.000Z</time>
      </trkpt>
      <trkpt lat="-20.848064" lon="-41.114306">
        <ele>28.2</ele>
        <time>2019-05-11T23:20:30.000Z</time>
      </trkpt>
      <trkpt lat="-20.84806" lon="-41.114344">
        <ele>28.4</ele>
        <time>2019-05-11T23:20:31.000Z</time>
      </trkpt>
      <trkpt lat="-20.848056" lon="-41.114382">
        <ele>28.5</ele>
        <time>2019-05-11T23:20:32.000Z</time>
      </trkpt>
      <trkpt lat="-20.848051" lon="-41.114418">
        <ele>28.7</ele>
        <time>2019-05-11T23:20:33.000Z</time>
      </trkpt>
      <trkpt lat="-20.848047" lon="-41.114453">
        <ele>28.9</ele>
        <time>2019-05-11T23:20:34.000Z</time>
      </trkpt>
      <trkpt lat="-20.848042" lon="-41.114485">
        <ele>29.0</ele>
        <time>2019-05-11T23:20:35.000Z</time>
      </trkpt>
      <trkpt lat="-20.848037" lon="-41.114516">
        <ele>29.1</ele>
        <time>2019-05-11T23:20:36.000Z</time>
      </trkpt>
      <trkpt lat="-20.84803" lon="-41.114545">
        <ele>29.2</ele>
        <time>2019-05-11T23:20:37.000Z</time>
      </trkpt>
      <trkpt lat="-20.848021" lon="-41.114575">
        <ele>29.3</ele>
        <time>2019-05-11T23:20:38.000Z</time>
      </trkpt>
      <trkpt lat="-20.848011" lon="-41.114606">
        <ele>29.3</ele>
        <time>2019-05-11T23:20:39.000Z</time>
      </trkpt>
      <trkpt lat="-20.847999" lon="-41.114638">
        <ele>29.4</ele>
        <time>2019-05-11T23:20:40.000Z</time>
      </trkpt>
      <trkpt lat="-20.847986" lon="-41.114671">
        <ele>29.4</ele>
        <time>2019-05-11T23:20:41.000Z</time>
      </trkpt>
      <trkpt lat="-20.847975" lon="-41.1147">
        <ele>29.4</ele>
        <time>2019-05-11T23:20:42.000Z</time>
      </trkpt>
      <trkpt lat="-20.847966" lon="-41.114725">
        <ele>29.4</ele>
        <time>2019-05-11T23:20:43.000Z</time>
      </trkpt>
      <trkpt lat="-20.847956" lon="-41.11475">
        <ele>29.4</ele>
        <time>2019-05-11T23:20:44.000Z</time>
      </trkpt>
      <trkpt lat="-20.847944" lon="-41.114779">
        <ele>29.4</ele>
        <time>2019-05-11T23:20:45.000Z</time>
      </trkpt>
      <trkpt lat="-20.847928" lon="-41.11481">
        <ele>29.3</ele>
        <time>2019-05-11T23:20:46.000Z</time>
      </trkpt>
      <trkpt lat="-20.847908" lon="-41.114839">
        <ele>29.2</ele>
        <time>2019-05-11T23:20:47.000Z</time>
      </trkpt>
      <trkpt lat="-20.847885" lon="-41.114862">
        <ele>29.0</ele>
        <time>2019-05-11T23:20:48.000Z</time>
      </trkpt>
      <trkpt lat="-20.847862" lon="-41.114885">
        <ele>28.8</ele>
        <time>2019-05-11T23:20:49.000Z</time>
      </trkpt>
      <trkpt lat="-20.847839" lon="-41.114912">
        <ele>28.6</ele>
        <time>2019-05-11T23:20:50.000Z</time>
      </trkpt>
      <trkpt lat="-20.847819" lon="-41.114942">
        <ele>28.4</ele>
        <time>2019-05-11T23:20:51.000Z</time>
      </trkpt>
      <trkpt lat="-20.8478" lon="-41.114975">
        <ele>28.2</ele>
        <time>2019-05-11T23:20:52.000Z</time>
      </trkpt>
      <trkpt lat="-20.847783" lon="-41.11501">
        <ele>28.1</ele>
        <time>2019-05-11T23:20:53.000Z</time>
      </trkpt>
      <trkpt lat="-20.847767" lon="-41.115047">
        <ele>27.9</ele>
        <time>2019-05-11T23:20:54.000Z</time>
      </trkpt>
      <trkpt lat="-20.847752" lon="-41.115083">
        <ele>27.7</ele>
        <time>2019-05-11T23:20:55.000Z</time>
      </trkpt>
      <trkpt lat="-20.84774" lon="-41.11512">
        <ele>27.5</ele>
        <time>2019-05-11T23:20:56.000Z</time>
      </trkpt>
      <trkpt lat="-20.847728" lon="-41.115156">
        <ele>27.4</ele>
        <time>2019-05-11T23:20:57.000Z</time>
      </trkpt>
      <trkpt lat="-20.847716" lon="-41.115192">
        <ele>27.2</ele>
        <time>2019-05-11T23:20:58.000Z</time>
      </trkpt>
      <trkpt lat="-20.847706" lon="-41.115228">
        <ele>27.1</ele>
        <time>2019-05-11T23:20:59.000Z</time>
      </trkpt>
      <trkpt lat="-20.847696" lon="-41.115263">
        <ele>27.0</ele>
        <time>2019-05-11T23:21:00.000Z</time>
      </trkpt>
      <trkpt lat="-20.847686" lon="-41.115297">
        <ele>26.8</ele>
        <time>2019-05-11T23:21:01.000Z</time>
      </trkpt>
      <trkpt lat="-20.847676" lon="-41.115332">
        <ele>26.7</ele>
        <time>2019-05-11T23:21:02.000Z</time>
      </trkpt>
      <trkpt lat="-20.847667" lon="-41.115367">
        <ele>26.6</ele>
        <time>2019-05-11T23:21:03.000Z</time>
      </trkpt>
      <trkpt lat="-20.847658" lon="-41.115403">
        <ele>26.5</ele>
        <time>2019-05-11T23:21:04.000Z</time>
      </trkpt>
      <trkpt lat="-20.847649" lon="-41.115439">
        <ele>26.3</ele>
        <time>2019-05-11T23:21:05.000Z</time>
      </trkpt>
      <trkpt lat="-20.847641" lon="-41.115476">
        <ele>26.2</ele>
        <time>2019-05-11T23:21:06.000Z</time>
      </trkpt>
      <trkpt lat="-20.847633" lon="-41.115513">
        <ele>26.1</ele>
        <time>2019-05-11T23:21:07.000Z</time>
      </trkpt>
      <trkpt lat="-20.847626" lon="-41.115549">
        <ele>26.0</ele>
        <time>2019-05-11T23:21:08.000Z</time>
      </trkpt>
      <trkpt lat="-20.847619" lon="-41.115585">
        <ele>25.9</ele>
        <time>2019-05-11T23:21:09.000Z</time>
      </trkpt>
      <trkpt lat="-20.847611" lon="-41.115621">
        <ele>25.8</ele>
        <time>2019-05-11T23:21:10.000Z</time>
      </trkpt>
      <trkpt lat="-20.847603" lon="-41.115659">
        <ele>25.7</ele>
        <time>2019-05-11T23:21:11.000Z</time>
      </trkpt>
      <trkpt lat="-20.847595" lon="-41.115696">
        <ele>25.6</ele>
        <time>2019-05-11T23:21:12.000Z</time>
      </trkpt>
      <trkpt lat="-20.847587" lon="-41.115734">
        <ele>25.4</ele>
        <time>2019-05-11T23:21:13.000Z</time>
      </trkpt>
      <trkpt lat="-20.84758" lon="-41.115771">
        <ele>25.3</ele>
        <time>2019-05-11T23:21:14.000Z</time>
      </trkpt>
      <trkpt lat="-20.847574" lon="-41.115807">
        <ele>25.2</ele>
        <time>2019-05-11T23:21:15.000Z</time>
      </trkpt>
      <trkpt lat="-20.847569" lon="-41.115843">
        <ele>25.2</ele>
        <time>2019-05-11T23:21:16.000Z</time>
      </trkpt>
      <trkpt lat="-20.847564" lon="-41.11588">
        <ele>25.1</ele>
        <time>2019-05-11T23:21:17.000Z</time>
      </trkpt>
      <trkpt lat="-20.847557" lon="-41.115919">
        <ele>24.9</ele>
        <time>2019-05-11T23:21:18.000Z</time>
      </trkpt>
      <trkpt lat="-20.847551" lon="-41.115959">
        <ele>24.8</ele>
        <time>2019-05-11T23:21:19.000Z</time>
      </trkpt>
      <trkpt lat="-20.847545" lon="-41.115998">
        <ele>24.7</ele>
        <time>2019-05-11T23:21:20.000Z</time>
      </trkpt>
      <trkpt lat="-20.847539" lon="-41.116037">
        <ele>24.6</ele>
        <time>2019-05-11T23:21:21.000Z</time>
      </trkpt>
      <trkpt lat="-20.847535" lon="-41.116076">
        <ele>24.5</ele>
        <time>2019-05-11T23:21:22.000Z</time>
      </trkpt>
      <trkpt lat="-20.847532" lon="-41.116115">
        <ele>24.5</ele>
        <time>2019-05-11T23:21:23.000Z</time>
      </trkpt>
      <trkpt lat="-20.84753" lon="-41.116153">
        <ele>24.4</ele>
        <time>2019-05-11T23:21:24.000Z</time>
      </trkpt>
      <trkpt lat="-20.84753" lon="-41.116191">
        <ele>24.4</ele>
        <time>2019-05-11T23:21:25.000Z</time>
      </trkpt>
      <trkpt lat="-20.84753" lon="-41.11623">
        <ele>24.4</ele>
        <time>2019-05-11T23:21:26.000Z</time>
      </trkpt>
      <trkpt lat="-20.847531" lon="-41.116268">
        <ele>24.4</ele>
        <time>2019-05-11T23:21:27.000Z</time>
      </trkpt>
      <trkpt lat="-20.847533" lon="-41.116307">
        <ele>24.4</ele>
        <time>2019-05-11T23:21:28.000Z</time>
      </trkpt>
      <trkpt lat="-20.847535" lon="-41.116346">
        <ele>24.5</ele>
        <time>2019-05-11T23:21:29.000Z</time>
      </trkpt>
      <trkpt lat="-20.847536" lon="-41.116385">
        <ele>24.5</ele>
        <time>2019-05-11T23:21:30.000Z</time>
      </trkpt>
      <trkpt lat="-20.847538" lon="-41.116423">
        <ele>24.5</ele>
        <time>2019-05-11T23:21:31.000Z</time>
      </trkpt>
      <trkpt lat="-20.84754" lon="-41.116462">
        <ele>24.5</ele>
        <time>2019-05-11T23:21:32.000Z</time>
      </trkpt>
      <trkpt lat="-20.847542" lon="-41.116501">
        <ele>24.5</ele>
        <time>2019-05-11T23:21:33.000Z</time>
      </trkpt>
      <trkpt lat="-20.847544" lon="-41.11654">
        <ele>24.5</ele>
        <time>2019-05-11T23:21:34.000Z</time>
      </trkpt>
      <trkpt lat="-20.847546" lon="-41.116578">
        <ele>24.5</ele>
        <time>2019-05-11T23:21:35.000Z</time>
      </trkpt>
      <trkpt lat="-20.847549" lon="-41.116616">
        <ele>24.5</ele>
        <time>2019-05-11T23:21:36.000Z</time>
      </trkpt>
      <trkpt lat="-20.847551" lon="-41.116654">
        <ele>24.6</ele>
        <time>2019-05-11T23:21:37.000Z</time>
      </trkpt>
      <trkpt lat="-20.847555" lon="-41.116691">
        <ele>24.6</ele>
        <time>2019-05-11T23:21:38.000Z</time>
      </trkpt>
      <trkpt lat="-20.847558" lon="-41.116728">
        <ele>24.5</ele>
        <time>2019-05-11T23:21:39.000Z</time>
      </trkpt>
      <trkpt lat="-20.847562" lon="-41.116765">
        <ele>24.5</ele>
        <time>2019-05-11T23:21:40.000Z</time>
      </trkpt>
      <trkpt lat="-20.847566" lon="-41.116801">
        <ele>24.5</ele>
        <time>2019-05-11T23:21:41.000Z</time>
      </trkpt>
      <trkpt lat="-20.84757" lon="-41.116837">
        <ele>24.5</ele>
        <time>2019-05-11T23:21:42.000Z</time>
      </trkpt>
      <trkpt lat="-20.847574" lon="-41.116873">
        <ele>24.5</ele>
        <time>2019-05-11T23:21:43.000Z</time>
      </trkpt>
      <trkpt lat="-20.847576" lon="-41.116909">
        <ele>24.5</ele>
        <time>2019-05-11T23:21:44.000Z</time>
      </trkpt>
      <trkpt lat="-20.847577" lon="-41.116946">
        <ele>24.4</ele>
        <time>2019-05-11T23:21:45.000Z</time>
      </trkpt>
      <trkpt lat="-20.847576" lon="-41.116984">
        <ele>24.4</ele>
        <time>2019-05-11T23:21:46.000Z</time>
      </trkpt>
      <trkpt lat="-20.847575" lon="-41.117022">
        <ele>24.3</ele>
        <time>2019-05-11T23:21:47.000Z</time>
      </trkpt>
      <trkpt lat="-20.847574" lon="-41.11706">
        <ele>24.2</ele>
        <time>2019-05-11T23:21:48.000Z</time>
      </trkpt>
      <trkpt lat="-20.847573" lon="-41.117098">
        <ele>24.2</ele>
        <time>2019-05-11T23:21:49.000Z</time>
      </trkpt>
      <trkpt lat="-20.847571" lon="-41.117136">
        <ele>24.1</ele>
        <time>2019-05-11T23:21:50.000Z</time>
      </trkpt>
      <trkpt lat="-20.847571" lon="-41.117174">
        <ele>24.1</ele>
        <time>2019-05-11T23:21:51.000Z</time>
      </trkpt>
      <trkpt lat="-20.84757" lon="-41.117212">
        <ele>24.0</ele>
        <time>2019-05-11T23:21:52.000Z</time>
      </trkpt>
      <trkpt lat="-20.847569" lon="-41.117249">
        <ele>23.9</ele>
        <time>2019-05-11T23:21:53.000Z</time>
      </trkpt>
      <trkpt lat="-20.847568" lon="-41.117287">
        <ele>23.9</ele>
        <time>2019-05-11T23:21:54.000Z</time>
      </trkpt>
      <trkpt lat="-20.847567" lon="-41.117324">
        <ele>23.8</ele>
        <time>2019-05-11T23:21:55.000Z</time>
      </trkpt>
      <trkpt lat="-20.847565" lon="-41.117361">
        <ele>23.7</ele>
        <time>2019-05-11T23:21:56.000Z</time>
      </trkpt>
      <trkpt lat="-20.847563" lon="-41.117397">
        <ele>23.7</ele>
        <time>2019-05-11T23:21:57.000Z</time>
      </trkpt>
      <trkpt lat="-20.84756" lon="-41.117433">
        <ele>23.6</ele>
        <time>2019-05-11T23:21:58.000Z</time>
      </trkpt>
      <trkpt lat="-20.847557" lon="-41.117469">
        <ele>23.5</ele>
        <time>2019-05-11T23:21:59.000Z</time>
      </trkpt>
      <trkpt lat="-20.847552" lon="-41.117504">
        <ele>23.5</ele>
        <time>2019-05-11T23:22:00.000Z</time>
      </trkpt>
      <trkpt lat="-20.847547" lon="-41.117539">
        <ele>23.8</ele>
        <time>2019-05-11T23:22:01.000Z</time>
      </trkpt>
      <trkpt lat="-20.847541" lon="-41.117573">
        <ele>24.0</ele>
        <time>2019-05-11T23:22:02.000Z</time>
      </trkpt>
      <trkpt lat="-20.847533" lon="-41.117606">
        <ele>24.3</ele>
        <time>2019-05-11T23:22:03.000Z</time>
      </trkpt>
      <trkpt lat="-20.847525" lon="-41.11764">
        <ele>24.5</ele>
        <time>2019-05-11T23:22:04.000Z</time>
      </trkpt>
      <trkpt lat="-20.847515" lon="-41.117673">
        <ele>24.8</ele>
        <time>2019-05-11T23:22:05.000Z</time>
      </trkpt>
      <trkpt lat="-20.847504" lon="-41.117706">
        <ele>25.0</ele>
        <time>2019-05-11T23:22:06.000Z</time>
      </trkpt>
      <trkpt lat="-20.847492" lon="-41.117738">
        <ele>25.3</ele>
        <time>2019-05-11T23:22:07.000Z</time>
      </trkpt>
      <trkpt lat="-20.847478" lon="-41.117771">
        <ele>25.6</ele>
        <time>2019-05-11T23:22:08.000Z</time>
      </trkpt>
      <trkpt lat="-20.847463" lon="-41.117804">
        <ele>25.8</ele>
        <time>2019-05-11T23:22:09.000Z</time>
      </trkpt>
      <trkpt lat="-20.847446" lon="-41.117836">
        <ele>26.1</ele>
        <time>2019-05-11T23:22:10.000Z</time>
      </trkpt>
      <trkpt lat="-20.847429" lon="-41.117869">
        <ele>26.4</ele>
        <time>2019-05-11T23:22:11.000Z</time>
      </trkpt>
      <trkpt lat="-20.84741" lon="-41.117902">
        <ele>26.6</ele>
        <time>2019-05-11T23:22:12.000Z</time>
      </trkpt>
      <trkpt lat="-20.847391" lon="-41.117936">
        <ele>26.8</ele>
        <time>2019-05-11T23:22:13.000Z</time>
      </trkpt>
      <trkpt lat="-20.847373" lon="-41.11797">
        <ele>27.1</ele>
        <time>2019-05-11T23:22:14.000Z</time>
      </trkpt>
      <trkpt lat="-20.847355" lon="-41.118005">
        <ele>27.3</ele>
        <time>2019-05-11T23:22:15.000Z</time>
      </trkpt>
      <trkpt lat="-20.847337" lon="-41.118041">
        <ele>27.5</ele>
        <time>2019-05-11T23:22:16.000Z</time>
      </trkpt>
      <trkpt lat="-20.847319" lon="-41.118077">
        <ele>27.7</ele>
        <time>2019-05-11T23:22:17.000Z</time>
      </trkpt>
      <trkpt lat="-20.847301" lon="-41.118114">
        <ele>27.9</ele>
        <time>2019-05-11T23:22:18.000Z</time>
      </trkpt>
      <trkpt lat="-20.847282" lon="-41.118152">
        <ele>28.1</ele>
        <time>2019-05-11T23:22:19.000Z</time>
      </trkpt>
      <trkpt lat="-20.847263" lon="-41.11819">
        <ele>28.3</ele>
        <time>2019-05-11T23:22:20.000Z</time>
      </trkpt>
      <trkpt lat="-20.847244" lon="-41.118229">
        <ele>28.4</ele>
        <time>2019-05-11T23:22:21.000Z</time>
      </trkpt>
      <trkpt lat="-20.847224" lon="-41.118267">
        <ele>28.6</ele>
        <time>2019-05-11T23:22:22.000Z</time>
      </trkpt>
      <trkpt lat="-20.847204" lon="-41.118304">
        <ele>28.7</ele>
        <time>2019-05-11T23:22:23.000Z</time>
      </trkpt>
      <trkpt lat="-20.847183" lon="-41.118339">
        <ele>28.7</ele>
        <time>2019-05-11T23:22:24.000Z</time>
      </trkpt>
      <trkpt lat="-20.847161" lon="-41.118373">
        <ele>28.5</ele>
        <time>2019-05-11T23:22:25.000Z</time>
      </trkpt>
      <trkpt lat="-20.84714" lon="-41.118406">
        <ele>28.3</ele>
        <time>2019-05-11T23:22:26.000Z</time>
      </trkpt>
      <trkpt lat="-20.847118" lon="-41.118438">
        <ele>28.2</ele>
        <time>2019-05-11T23:22:27.000Z</time>
      </trkpt>
      <trkpt lat="-20.847095" lon="-41.11847">
        <ele>28.0</ele>
        <time>2019-05-11T23:22:28.000Z</time>
      </trkpt>
      <trkpt lat="-20.847073" lon="-41.118502">
        <ele>27.8</ele>
        <time>2019-05-11T23:22:29.000Z</time>
      </trkpt>
      <trkpt lat="-20.84705" lon="-41.118534">
        <ele>27.7</ele>
        <time>2019-05-11T23:22:30.000Z</time>
      </trkpt>
      <trkpt lat="-20.847027" lon="-41.118567">
        <ele>27.5</ele>
        <time>2019-05-11T23:22:31.000Z</time>
      </trkpt>
      <trkpt lat="-20.847003" lon="-41.118599">
        <ele>27.4</ele>
        <time>2019-05-11T23:22:32.000Z</time>
      </trkpt>
      <trkpt lat="-20.846979" lon="-41.11863">
        <ele>27.2</ele>
        <time>2019-05-11T23:22:33.000Z</time>
      </trkpt>
      <trkpt lat="-20.846953" lon="-41.118658">
        <ele>27.0</ele>
        <time>2019-05-11T23:22:34.000Z</time>
      </trkpt>
      <trkpt lat="-20.846927" lon="-41.118684">
        <ele>26.9</ele>
        <time>2019-05-11T23:22:35.000Z</time>
      </trkpt>
      <trkpt lat="-20.846901" lon="-41.118708">
        <ele>26.8</ele>
        <time>2019-05-11T23:22:36.000Z</time>
      </trkpt>
      <trkpt lat="-20.846874" lon="-41.118731">
        <ele>26.6</ele>
        <time>2019-05-11T23:22:37.000Z</time>
      </trkpt>
      <trkpt lat="-20.846847" lon="-41.118753">
        <ele>26.5</ele>
        <time>2019-05-11T23:22:38.000Z</time>
      </trkpt>
      <trkpt lat="-20.846822" lon="-41.118776">
        <ele>26.4</ele>
        <time>2019-05-11T23:22:39.000Z</time>
      </trkpt>
      <trkpt lat="-20.846797" lon="-41.118799">
        <ele>26.2</ele>
        <time>2019-05-11T23:22:40.000Z</time>
      </trkpt>
      <trkpt lat="-20.846773" lon="-41.118824">
        <ele>26.1</ele>
        <time>2019-05-11T23:22:41.000Z</time>
      </trkpt>
      <trkpt lat="-20.84675" lon="-41.11885">
        <ele>26.0</ele>
        <time>2019-05-11T23:22:42.000Z</time>
      </trkpt>
      <trkpt lat="-20.846727" lon="-41.118876">
        <ele>25.9</ele>
        <time>2019-05-11T23:22:43.000Z</time>
      </trkpt>
      <trkpt lat="-20.846705" lon="-41.118903">
        <ele>25.9</ele>
        <time>2019-05-11T23:22:44.000Z</time>
      </trkpt>
      <trkpt lat="-20.846683" lon="-41.118931">
        <ele>25.8</ele>
        <time>2019-05-11T23:22:45.000Z</time>
      </trkpt>
      <trkpt lat="-20.846662" lon="-41.118959">
        <ele>25.8</ele>
        <time>2019-05-11T23:22:46.000Z</time>
      </trkpt>
      <trkpt lat="-20.846641" lon="-41.118987">
        <ele>25.8</ele>
        <time>2019-05-11T23:22:47.000Z</time>
      </trkpt>
      <trkpt lat="-20.846619" lon="-41.119016">
        <ele>25.8</ele>
        <time>2019-05-11T23:22:48.000Z</time>
      </trkpt>
      <trkpt lat="-20.846597" lon="-41.119044">
        <ele>25.9</ele>
        <time>2019-05-11T23:22:49.000Z</time>
      </trkpt>
      <trkpt lat="-20.846575" lon="-41.119072">
        <ele>25.9</ele>
        <time>2019-05-11T23:22:50.000Z</time>
      </trkpt>
      <trkpt lat="-20.846553" lon="-41.119099">
        <ele>25.9</ele>
        <time>2019-05-11T23:22:51.000Z</time>
      </trkpt>
      <trkpt lat="-20.84653" lon="-41.119127">
        <ele>26.0</ele>
        <time>2019-05-11T23:22:52.000Z</time>
      </trkpt>
      <trkpt lat="-20.846508" lon="-41.119155">
        <ele>26.0</ele>
        <time>2019-05-11T23:22:53.000Z</time>
      </trkpt>
      <trkpt lat="-20.846485" lon="-41.119182">
        <ele>26.1</ele>
        <time>2019-05-11T23:22:54.000Z</time>
      </trkpt>
      <trkpt lat="-20.846461" lon="-41.11921">
        <ele>26.2</ele>
        <time>2019-05-11T23:22:55.000Z</time>
      </trkpt>
      <trkpt lat="-20.846438" lon="-41.119237">
        <ele>26.3</ele>
        <time>2019-05-11T23:22:56.000Z</time>
      </trkpt>
      <trkpt lat="-20.846415" lon="-41.119264">
        <ele>26.4</ele>
        <time>2019-05-11T23:22:57.000Z</time>
      </trkpt>
      <trkpt lat="-20.846392" lon="-41.119292">
        <ele>26.5</ele>
        <time>2019-05-11T23:22:58.000Z</time>
      </trkpt>
      <trkpt lat="-20.846369" lon="-41.11932">
        <ele>26.5</ele>
        <time>2019-05-11T23:22:59.000Z</time>
      </trkpt>
      <trkpt lat="-20.846347" lon="-41.119348">
        <ele>26.6</ele>
        <time>2019-05-11T23:23:00.000Z</time>
      </trkpt>
      <trkpt lat="-20.846324" lon="-41.119376">
        <ele>26.7</ele>
        <time>2019-05-11T23:23:01.000Z</time>
      </trkpt>
      <trkpt lat="-20.846303" lon="-41.119404">
        <ele>26.8</ele>
        <time>2019-05-11T23:23:02.000Z</time>
      </trkpt>
      <trkpt lat="-20.846281" lon="-41.119434">
        <ele>26.8</ele>
        <time>2019-05-11T23:23:03.000Z</time>
      </trkpt>
      <trkpt lat="-20.846261" lon="-41.119463">
        <ele>26.9</ele>
        <time>2019-05-11T23:23:04.000Z</time>
      </trkpt>
      <trkpt lat="-20.846241" lon="-41.119494">
        <ele>27.0</ele>
        <time>2019-05-11T23:23:05.000Z</time>
      </trkpt>
      <trkpt lat="-20.846223" lon="-41.119525">
        <ele>27.0</ele>
        <time>2019-05-11T23:23:06.000Z</time>
      </trkpt>
      <trkpt lat="-20.846205" lon="-41.119558">
        <ele>27.1</ele>
        <time>2019-05-11T23:23:07.000Z</time>
      </trkpt>
      <trkpt lat="-20.846189" lon="-41.119591">
        <ele>27.2</ele>
        <time>2019-05-11T23:23:08.000Z</time>
      </trkpt>
      <trkpt lat="-20.846174" lon="-41.119626">
        <ele>27.2</ele>
        <time>2019-05-11T23:23:09.000Z</time>
      </trkpt>
      <trkpt lat="-20.846161" lon="-41.119662">
        <ele>27.3</ele>
        <time>2019-05-11T23:23:10.000Z</time>
      </trkpt>
      <trkpt lat="-20.84615" lon="-41.119699">
        <ele>27.4</ele>
        <time>2019-05-11T23:23:11.000Z</time>
      </trkpt>
      <trkpt lat="-20.84614" lon="-41.119737">
        <ele>27.4</ele>
        <time>2019-05-11T23:23:12.000Z</time>
      </trkpt>
      <trkpt lat="-20.846133" lon="-41.119775">
        <ele>27.5</ele>
        <time>2019-05-11T23:23:13.000Z</time>
      </trkpt>
      <trkpt lat="-20.846128" lon="-41.119813">
        <ele>27.6</ele>
        <time>2019-05-11T23:23:14.000Z</time>
      </trkpt>
      <trkpt lat="-20.846125" lon="-41.11985">
        <ele>27.7</ele>
        <time>2019-05-11T23:23:15.000Z</time>
      </trkpt>
      <trkpt lat="-20.846122" lon="-41.119886">
        <ele>27.8</ele>
        <time>2019-05-11T23:23:16.000Z</time>
      </trkpt>
      <trkpt lat="-20.846117" lon="-41.119922">
        <ele>27.8</ele>
        <time>2019-05-11T23:23:17.000Z</time>
      </trkpt>
      <trkpt lat="-20.846107" lon="-41.119956">
        <ele>27.9</ele>
        <time>2019-05-11T23:23:18.000Z</time>
      </trkpt>
      <trkpt lat="-20.846097" lon="-41.119991">
        <ele>27.9</ele>
        <time>2019-05-11T23:23:19.000Z</time>
      </trkpt>
      <trkpt lat="-20.846088" lon="-41.120028">
        <ele>27.9</ele>
        <time>2019-05-11T23:23:20.000Z</time>
      </trkpt>
      <trkpt lat="-20.846081" lon="-41.120065">
        <ele>27.9</ele>
        <time>2019-05-11T23:23:21.000Z</time>
      </trkpt>
      <trkpt lat="-20.846073" lon="-41.120099">
        <ele>27.8</ele>
        <time>2019-05-11T23:23:22.000Z</time>
      </trkpt>
      <trkpt lat="-20.846064" lon="-41.12013">
        <ele>27.8</ele>
        <time>2019-05-11T23:23:23.000Z</time>
      </trkpt>
      <trkpt lat="-20.846054" lon="-41.120159">
        <ele>27.8</ele>
        <time>2019-05-11T23:23:24.000Z</time>
      </trkpt>
      <trkpt lat="-20.846046" lon="-41.12019">
        <ele>27.7</ele>
        <time>2019-05-11T23:23:25.000Z</time>
      </trkpt>
      <trkpt lat="-20.846038" lon="-41.120222">
        <ele>27.7</ele>
        <time>2019-05-11T23:23:26.000Z</time>
      </trkpt>
      <trkpt lat="-20.84603" lon="-41.120256">
        <ele>27.6</ele>
        <time>2019-05-11T23:23:27.000Z</time>
      </trkpt>
      <trkpt lat="-20.846023" lon="-41.120291">
        <ele>27.6</ele>
        <time>2019-05-11T23:23:28.000Z</time>
      </trkpt>
      <trkpt lat="-20.846015" lon="-41.120326">
        <ele>27.5</ele>
        <time>2019-05-11T23:23:29.000Z</time>
      </trkpt>
      <trkpt lat="-20.846005" lon="-41.120362">
        <ele>27.5</ele>
        <time>2019-05-11T23:23:30.000Z</time>
      </trkpt>
      <trkpt lat="-20.845995" lon="-41.120398">
        <ele>27.4</ele>
        <time>2019-05-11T23:23:31.000Z</time>
      </trkpt>
      <trkpt lat="-20.845984" lon="-41.120434">
        <ele>27.3</ele>
        <time>2019-05-11T23:23:32.000Z</time>
      </trkpt>
      <trkpt lat="-20.845972" lon="-41.12047">
        <ele>27.2</ele>
        <time>2019-05-11T23:23:33.000Z</time>
      </trkpt>
      <trkpt lat="-20.845959" lon="-41.120505">
        <ele>27.1</ele>
        <time>2019-05-11T23:23:34.000Z</time>
      </trkpt>
      <trkpt lat="-20.845945" lon="-41.120541">
        <ele>27.0</ele>
        <time>2019-05-11T23:23:35.000Z</time>
      </trkpt>
      <trkpt lat="-20.84593" lon="-41.120577">
        <ele>26.9</ele>
        <time>2019-05-11T23:23:36.000Z</time>
      </trkpt>
      <trkpt lat="-20.845914" lon="-41.120612">
        <ele>26.8</ele>
        <time>2019-05-11T23:23:37.000Z</time>
      </trkpt>
      <trkpt lat="-20.845897" lon="-41.120646">
        <ele>26.6</ele>
        <time>2019-05-11T23:23:38.000Z</time>
      </trkpt>
      <trkpt lat="-20.845879" lon="-41.120681">
        <ele>26.5</ele>
        <time>2019-05-11T23:23:39.000Z</time>
      </trkpt>
      <trkpt lat="-20.84586" lon="-41.120714">
        <ele>26.3</ele>
        <time>2019-05-11T23:23:40.000Z</time>
      </trkpt>
      <trkpt lat="-20.84584" lon="-41.120747">
        <ele>26.1</ele>
        <time>2019-05-11T23:23:41.000Z</time>
      </trkpt>
      <trkpt lat="-20.845819" lon="-41.12078">
        <ele>26.0</ele>
        <time>2019-05-11T23:23:42.000Z</time>
      </trkpt>
      <trkpt lat="-20.845798" lon="-41.120812">
        <ele>25.9</ele>
        <time>2019-05-11T23:23:43.000Z</time>
      </trkpt>
      <trkpt lat="-20.845776" lon="-41.120844">
        <ele>25.8</ele>
        <time>2019-05-11T23:23:44.000Z</time>
      </trkpt>
      <trkpt lat="-20.845753" lon="-41.120876">
        <ele>25.8</ele>
        <time>2019-05-11T23:23:45.000Z</time>
      </trkpt>
      <trkpt lat="-20.845729" lon="-41.120907">
        <ele>25.8</ele>
        <time>2019-05-11T23:23:46.000Z</time>
      </trkpt>
      <trkpt lat="-20.845706" lon="-41.120938">
        <ele>25.8</ele>
        <time>2019-05-11T23:23:47.000Z</time>
      </trkpt>
      <trkpt lat="-20.845682" lon="-41.120971">
        <ele>25.8</ele>
        <time>2019-05-11T23:23:48.000Z</time>
      </trkpt>
      <trkpt lat="-20.845658" lon="-41.121004">
        <ele>25.7</ele>
        <time>2019-05-11T23:23:49.000Z</time>
      </trkpt>
      <trkpt lat="-20.845635" lon="-41.121038">
        <ele>25.7</ele>
        <time>2019-05-11T23:23:50.000Z</time>
      </trkpt>
      <trkpt lat="-20.845612" lon="-41.121074">
        <ele>25.7</ele>
        <time>2019-05-11T23:23:51.000Z</time>
      </trkpt>
      <trkpt lat="-20.845589" lon="-41.121109">
        <ele>25.7</ele>
        <time>2019-05-11T23:23:52.000Z</time>
      </trkpt>
      <trkpt lat="-20.845565" lon="-41.121144">
        <ele>25.7</ele>
        <time>2019-05-11T23:23:53.000Z</time>
      </trkpt>
      <trkpt lat="-20.845541" lon="-41.121178">
        <ele>25.6</ele>
        <time>2019-05-11T23:23:54.000Z</time>
      </trkpt>
      <trkpt lat="-20.845516" lon="-41.121211">
        <ele>25.6</ele>
        <time>2019-05-11T23:23:55.000Z</time>
      </trkpt>
      <trkpt lat="-20.84549" lon="-41.121242">
        <ele>25.5</ele>
        <time>2019-05-11T23:23:56.000Z</time>
      </trkpt>
      <trkpt lat="-20.845464" lon="-41.121272">
        <ele>25.5</ele>
        <time>2019-05-11T23:23:57.000Z</time>
      </trkpt>
      <trkpt lat="-20.845439" lon="-41.121301">
        <ele>25.4</ele>
        <time>2019-05-11T23:23:58.000Z</time>
      </trkpt>
      <trkpt lat="-20.845415" lon="-41.12133">
        <ele>25.4</ele>
        <time>2019-05-11T23:23:59.000Z</time>
      </trkpt>
      <trkpt lat="-20.845393" lon="-41.121358">
        <ele>25.3</ele>
        <time>2019-05-11T23:24:00.000Z</time>
      </trkpt>
      <trkpt lat="-20.845372" lon="-41.121387">
        <ele>25.3</ele>
        <time>2019-05-11T23:24:01.000Z</time>
      </trkpt>
      <trkpt lat="-20.845351" lon="-41.121414">
        <ele>25.3</ele>
        <time>2019-05-11T23:24:02.000Z</time>
      </trkpt>
      <trkpt lat="-20.84533" lon="-41.121442">
        <ele>25.2</ele>
        <time>2019-05-11T23:24:03.000Z</time>
      </trkpt>
      <trkpt lat="-20.845308" lon="-41.121469">
        <ele>25.2</ele>
        <time>2019-05-11T23:24:04.000Z</time>
      </trkpt>
      <trkpt lat="-20.845285" lon="-41.121496">
        <ele>25.1</ele>
        <time>2019-05-11T23:24:05.000Z</time>
      </trkpt>
      <trkpt lat="-20.84526" lon="-41.121522">
        <ele>25.0</ele>
        <time>2019-05-11T23:24:06.000Z</time>
      </trkpt>
      <trkpt lat="-20.845234" lon="-41.121547">
        <ele>24.9</ele>
        <time>2019-05-11T23:24:07.000Z</time>
      </trkpt>
      <trkpt lat="-20.845208" lon="-41.121572">
        <ele>24.9</ele>
        <time>2019-05-11T23:24:08.000Z</time>
      </trkpt>
      <trkpt lat="-20.845182" lon="-41.121595">
        <ele>24.8</ele>
        <time>2019-05-11T23:24:09.000Z</time>
      </trkpt>
      <trkpt lat="-20.845156" lon="-41.121618">
        <ele>24.7</ele>
        <time>2019-05-11T23:24:10.000Z</time>
      </trkpt>
      <trkpt lat="-20.84513" lon="-41.12164">
        <ele>24.6</ele>
        <time>2019-05-11T23:24:11.000Z</time>
      </trkpt>
      <trkpt lat="-20.845105" lon="-41.121661">
        <ele>24.5</ele>
        <time>2019-05-11T23:24:12.000Z</time>
      </trkpt>
      <trkpt lat="-20.845081" lon="-41.121681">
        <ele>24.5</ele>
        <time>2019-05-11T23:24:13.000Z</time>
      </trkpt>
      <trkpt lat="-20.845057" lon="-41.1217">
        <ele>24.5</ele>
        <time>2019-05-11T23:24:14.000Z</time>
      </trkpt>
      <trkpt lat="-20.845035" lon="-41.121719">
        <ele>24.6</ele>
        <time>2019-05-11T23:24:15.000Z</time>
      </trkpt>
      <trkpt lat="-20.845013" lon="-41.121737">
        <ele>24.6</ele>
        <time>2019-05-11T23:24:16.000Z</time>
      </trkpt>
      <trkpt lat="-20.84499" lon="-41.121755">
        <ele>24.7</ele>
        <time>2019-05-11T23:24:17.000Z</time>
      </trkpt>
      <trkpt lat="-20.844966" lon="-41.121775">
        <ele>24.9</ele>
        <time>2019-05-11T23:24:18.000Z</time>
      </trkpt>
      <trkpt lat="-20.84494" lon="-41.121795">
        <ele>25.0</ele>
        <time>2019-05-11T23:24:19.000Z</time>
      </trkpt>
      <trkpt lat="-20.844911" lon="-41.121816">
        <ele>25.2</ele>
        <time>2019-05-11T23:24:20.000Z</time>
      </trkpt>
      <trkpt lat="-20.84488" lon="-41.121839">
        <ele>25.3</ele>
        <time>2019-05-11T23:24:21.000Z</time>
      </trkpt>
      <trkpt lat="-20.844847" lon="-41.121862">
        <ele>25.5</ele>
        <time>2019-05-11T23:24:22.000Z</time>
      </trkpt>
      <trkpt lat="-20.844815" lon="-41.121887">
        <ele>25.7</ele>
        <time>2019-05-11T23:24:23.000Z</time>
      </trkpt>
      <trkpt lat="-20.844782" lon="-41.121913">
        <ele>25.9</ele>
        <time>2019-05-11T23:24:24.000Z</time>
      </trkpt>
      <trkpt lat="-20.844751" lon="-41.121939">
        <ele>26.1</ele>
        <time>2019-05-11T23:24:25.000Z</time>
      </trkpt>
      <trkpt lat="-20.844722" lon="-41.121964">
        <ele>26.3</ele>
        <time>2019-05-11T23:24:26.000Z</time>
      </trkpt>
      <trkpt lat="-20.844693" lon="-41.121989">
        <ele>26.5</ele>
        <time>2019-05-11T23:24:27.000Z</time>
      </trkpt>
      <trkpt lat="-20.844666" lon="-41.122011">
        <ele>26.7</ele>
        <time>2019-05-11T23:24:28.000Z</time>
      </trkpt>
      <trkpt lat="-20.844639" lon="-41.122034">
        <ele>26.8</ele>
        <time>2019-05-11T23:24:29.000Z</time>
      </trkpt>
      <trkpt lat="-20.844611" lon="-41.122059">
        <ele>27.0</ele>
        <time>2019-05-11T23:24:30.000Z</time>
      </trkpt>
      <trkpt lat="-20.844583" lon="-41.122086">
        <ele>27.3</ele>
        <time>2019-05-11T23:24:31.000Z</time>
      </trkpt>
      <trkpt lat="-20.844554" lon="-41.122113">
        <ele>27.5</ele>
        <time>2019-05-11T23:24:32.000Z</time>
      </trkpt>
      <trkpt lat="-20.844525" lon="-41.122138">
        <ele>27.7</ele>
        <time>2019-05-11T23:24:33.000Z</time>
      </trkpt>
      <trkpt lat="-20.844497" lon="-41.122161">
        <ele>27.9</ele>
        <time>2019-05-11T23:24:34.000Z</time>
      </trkpt>
      <trkpt lat="-20.844471" lon="-41.122179">
        <ele>28.1</ele>
        <time>2019-05-11T23:24:35.000Z</time>
      </trkpt>
      <trkpt lat="-20.844445" lon="-41.122194">
        <ele>28.2</ele>
        <time>2019-05-11T23:24:36.000Z</time>
      </trkpt>
      <trkpt lat="-20.84442" lon="-41.122208">
        <ele>28.3</ele>
        <time>2019-05-11T23:24:37.000Z</time>
      </trkpt>
      <trkpt lat="-20.844394" lon="-41.122222">
        <ele>28.4</ele>
        <time>2019-05-11T23:24:38.000Z</time>
      </trkpt>
      <trkpt lat="-20.844369" lon="-41.122238">
        <ele>28.6</ele>
        <time>2019-05-11T23:24:39.000Z</time>
      </trkpt>
      <trkpt lat="-20.844342" lon="-41.122255">
        <ele>28.7</ele>
        <time>2019-05-11T23:24:40.000Z</time>
      </trkpt>
      <trkpt lat="-20.844314" lon="-41.122275">
        <ele>28.9</ele>
        <time>2019-05-11T23:24:41.000Z</time>
      </trkpt>
      <trkpt lat="-20.844286" lon="-41.122295">
        <ele>29.1</ele>
        <time>2019-05-11T23:24:42.000Z</time>
      </trkpt>
      <trkpt lat="-20.844256" lon="-41.122315">
        <ele>29.2</ele>
        <time>2019-05-11T23:24:43.000Z</time>
      </trkpt>
      <trkpt lat="-20.844226" lon="-41.122333">
        <ele>29.4</ele>
        <time>2019-05-11T23:24:44.000Z</time>
      </trkpt>
      <trkpt lat="-20.844195" lon="-41.122348">
        <ele>29.5</ele>
        <time>2019-05-11T23:24:45.000Z</time>
      </trkpt>
      <trkpt lat="-20.844163" lon="-41.122361">
        <ele>29.6</ele>
        <time>2019-05-11T23:24:46.000Z</time>
      </trkpt>
      <trkpt lat="-20.844131" lon="-41.122371">
        <ele>29.5</ele>
        <time>2019-05-11T23:24:47.000Z</time>
      </trkpt>
      <trkpt lat="-20.844098" lon="-41.122381">
        <ele>29.4</ele>
        <time>2019-05-11T23:24:48.000Z</time>
      </trkpt>
      <trkpt lat="-20.844066" lon="-41.12239">
        <ele>29.2</ele>
        <time>2019-05-11T23:24:49.000Z</time>
      </trkpt>
      <trkpt lat="-20.844033" lon="-41.122398">
        <ele>29.1</ele>
        <time>2019-05-11T23:24:50.000Z</time>
      </trkpt>
      <trkpt lat="-20.844" lon="-41.122408">
        <ele>28.9</ele>
        <time>2019-05-11T23:24:51.000Z</time>
      </trkpt>
      <trkpt lat="-20.843967" lon="-41.12242">
        <ele>28.7</ele>
        <time>2019-05-11T23:24:52.000Z</time>
      </trkpt>
      <trkpt lat="-20.843934" lon="-41.122435">
        <ele>28.6</ele>
        <time>2019-05-11T23:24:53.000Z</time>
      </trkpt>
      <trkpt lat="-20.843903" lon="-41.122452">
        <ele>28.5</ele>
        <time>2019-05-11T23:24:54.000Z</time>
      </trkpt>
      <trkpt lat="-20.843875" lon="-41.122469">
        <ele>28.4</ele>
        <time>2019-05-11T23:24:55.000Z</time>
      </trkpt>
      <trkpt lat="-20.843853" lon="-41.122483">
        <ele>28.3</ele>
        <time>2019-05-11T23:24:56.000Z</time>
      </trkpt>
      <trkpt lat="-20.843838" lon="-41.122493">
        <ele>28.2</ele>
        <time>2019-05-11T23:24:57.000Z</time>
      </trkpt>
      <trkpt lat="-20.843833" lon="-41.122497">
        <ele>28.2</ele>
        <time>2019-05-11T23:24:58.000Z</time>
      </trkpt>
      <trkpt lat="-20.843832" lon="-41.122497">
        <ele>28.2</ele>
        <time>2019-05-11T23:24:59.000Z</time>
      </trkpt>
      <trkpt lat="-20.843832" lon="-41.122497">
        <ele>28.2</ele>
        <time>2019-05-11T23:25:00.000Z</time>
      </trkpt>
      <trkpt lat="-20.843832" lon="-41.122497">
        <ele>28.2</ele>
        <time>2019-05-11T23:25:01.000Z</time>
      </trkpt>
      <trkpt lat="-20.843832" lon="-41.122497">
        <ele>28.2</ele>
        <time>2019-05-11T23:25:02.000Z</time>
      </trkpt>
      <trkpt lat="-20.843832" lon="-41.122497">
        <ele>28.2</ele>
        <time>2019-05-11T23:25:03.000Z</time>
      </trkpt>
      <trkpt lat="-20.843832" lon="-41.122497">
        <ele>28.2</ele>
        <time>2019-05-11T23:25:04.000Z</time>
      </trkpt>
      <trkpt lat="-20.843832" lon="-41.122498">
        <ele>28.2</ele>
        <time>2019-05-11T23:25:05.000Z</time>
      </trkpt>
      <trkpt lat="-20.843832" lon="-41.122498">
        <ele>28.2</ele>
        <time>2019-05-11T23:25:06.000Z</time>
      </trkpt>
      <trkpt lat="-20.843832" lon="-41.122498">
        <ele>28.2</ele>
        <time>2019-05-11T23:25:07.000Z</time>
      </trkpt>
      <trkpt lat="-20.843832" lon="-41.122498">
        <ele>28.2</ele>
        <time>2019-05-11T23:25:08.000Z</time>
      </trkpt>
      <trkpt lat="-20.843832" lon="-41.122498">
        <ele>28.2</ele>
        <time>2019-05-11T23:25:09.000Z</time>
      </trkpt>
      <trkpt lat="-20.843832" lon="-41.122498">
        <ele>28.2</ele>
        <time>2019-05-11T23:25:10.000Z</time>
      </trkpt>
      <trkpt lat="-20.843832" lon="-41.122498">
        <ele>28.2</ele>
        <time>2019-05-11T23:25:11.000Z</time>
      </trkpt>
      <trkpt lat="-20.843831" lon="-41.122498">
        <ele>28.2</ele>
        <time>2019-05-11T23:25:12.000Z</time>
      </trkpt>
      <trkpt lat="-20.843831" lon="-41.122498">
        <ele>28.2</ele>
        <time>2019-05-11T23:25:13.000Z</time>
      </trkpt>
      <trkpt lat="-20.843831" lon="-41.122498">
        <ele>28.2</ele>
        <time>2019-05-11T23:25:14.000Z</time>
      </trkpt>
      <trkpt lat="-20.843831" lon="-41.122498">
        <ele>28.2</ele>
        <time>2019-05-11T23:25:15.000Z</time>
      </trkpt>
      <trkpt lat="-20.843831" lon="-41.122498">
        <ele>28.2</ele>
        <time>2019-05-11T23:25:16.000Z</time>
      </trkpt>
      <trkpt lat="-20.843831" lon="-41.122498">
        <ele>28.2</ele>
        <time>2019-05-11T23:25:17.000Z</time>
      </trkpt>
      <trkpt lat="-20.843831" lon="-41.122498">
        <ele>28.2</ele>
        <time>2019-05-11T23:25:18.000Z</time>
      </trkpt>
      <trkpt lat="-20.843831" lon="-41.122498">
        <ele>28.2</ele>
        <time>2019-05-11T23:25:19.000Z</time>
      </trkpt>
      <trkpt lat="-20.843831" lon="-41.122498">
        <ele>28.2</ele>
        <time>2019-05-11T23:25:20.000Z</time>
      </trkpt>
      <trkpt lat="-20.843831" lon="-41.122498">
        <ele>28.2</ele>
        <time>2019-05-11T23:25:21.000Z</time>
      </trkpt>
      <trkpt lat="-20.843831" lon="-41.122498">
        <ele>28.2</ele>
        <time>2019-05-11T23:25:22.000Z</time>
      </trkpt>
      <trkpt lat="-20.843828" lon="-41.122501">
        <ele>28.2</ele>
        <time>2019-05-11T23:25:23.000Z</time>
      </trkpt>
      <trkpt lat="-20.843824" lon="-41.122508">
        <ele>28.2</ele>
        <time>2019-05-11T23:25:24.000Z</time>
      </trkpt>
      <trkpt lat="-20.843825" lon="-41.122513">
        <ele>28.3</ele>
        <time>2019-05-11T23:25:25.000Z</time>
      </trkpt>
      <trkpt lat="-20.843828" lon="-41.122516">
        <ele>28.4</ele>
        <time>2019-05-11T23:25:26.000Z</time>
      </trkpt>
      <trkpt lat="-20.843833" lon="-41.122516">
        <ele>28.4</ele>
        <time>2019-05-11T23:25:27.000Z</time>
      </trkpt>
      <trkpt lat="-20.843836" lon="-41.122515">
        <ele>28.4</ele>
        <time>2019-05-11T23:25:28.000Z</time>
      </trkpt>
      <trkpt lat="-20.843837" lon="-41.122512">
        <ele>28.4</ele>
        <time>2019-05-11T23:25:29.000Z</time>
      </trkpt>
      <trkpt lat="-20.843833" lon="-41.12251">
        <ele>28.3</ele>
        <time>2019-05-11T23:25:30.000Z</time>
      </trkpt>
      <trkpt lat="-20.843823" lon="-41.122513">
        <ele>28.3</ele>
        <time>2019-05-11T23:25:31.000Z</time>
      </trkpt>
      <trkpt lat="-20.843805" lon="-41.122524">
        <ele>28.3</ele>
        <time>2019-05-11T23:25:32.000Z</time>
      </trkpt>
      <trkpt lat="-20.843781" lon="-41.122547">
        <ele>28.4</ele>
        <time>2019-05-11T23:25:33.000Z</time>
      </trkpt>
      <trkpt lat="-20.843752" lon="-41.122576">
        <ele>28.6</ele>
        <time>2019-05-11T23:25:34.000Z</time>
      </trkpt>
      <trkpt lat="-20.843721" lon="-41.122604">
        <ele>28.7</ele>
        <time>2019-05-11T23:25:35.000Z</time>
      </trkpt>
      <trkpt lat="-20.84369" lon="-41.122629">
        <ele>28.8</ele>
        <time>2019-05-11T23:25:36.000Z</time>
      </trkpt>
      <trkpt lat="-20.843659" lon="-41.122653">
        <ele>28.8</ele>
        <time>2019-05-11T23:25:37.000Z</time>
      </trkpt>
      <trkpt lat="-20.843627" lon="-41.122675">
        <ele>28.8</ele>
        <time>2019-05-11T23:25:38.000Z</time>
      </trkpt>
      <trkpt lat="-20.843594" lon="-41.122695">
        <ele>28.7</ele>
        <time>2019-05-11T23:25:39.000Z</time>
      </trkpt>
      <trkpt lat="-20.84356" lon="-41.122714">
        <ele>28.6</ele>
        <time>2019-05-11T23:25:40.000Z</time>
      </trkpt>
      <trkpt lat="-20.843526" lon="-41.122732">
        <ele>28.5</ele>
        <time>2019-05-11T23:25:41.000Z</time>
      </trkpt>
      <trkpt lat="-20.843491" lon="-41.12275">
        <ele>28.4</ele>
        <time>2019-05-11T23:25:42.000Z</time>
      </trkpt>
      <trkpt lat="-20.843456" lon="-41.122767">
        <ele>28.2</ele>
        <time>2019-05-11T23:25:43.000Z</time>
      </trkpt>
      <trkpt lat="-20.843419" lon="-41.122785">
        <ele>28.0</ele>
        <time>2019-05-11T23:25:44.000Z</time>
      </trkpt>
      <trkpt lat="-20.843381" lon="-41.122803">
        <ele>27.8</ele>
        <time>2019-05-11T23:25:45.000Z</time>
      </trkpt>
      <trkpt lat="-20.843345" lon="-41.12282">
        <ele>27.6</ele>
        <time>2019-05-11T23:25:46.000Z</time>
      </trkpt>
      <trkpt lat="-20.84331" lon="-41.122833">
        <ele>27.6</ele>
        <time>2019-05-11T23:25:47.000Z</time>
      </trkpt>
      <trkpt lat="-20.843279" lon="-41.122842">
        <ele>27.6</ele>
        <time>2019-05-11T23:25:48.000Z</time>
      </trkpt>
      <trkpt lat="-20.84325" lon="-41.122851">
        <ele>27.7</ele>
        <time>2019-05-11T23:25:49.000Z</time>
      </trkpt>
      <trkpt lat="-20.843221" lon="-41.122866">
        <ele>27.7</ele>
        <time>2019-05-11T23:25:50.000Z</time>
      </trkpt>
      <trkpt lat="-20.843193" lon="-41.122885">
        <ele>27.9</ele>
        <time>2019-05-11T23:25:51.000Z</time>
      </trkpt>
      <trkpt lat="-20.843164" lon="-41.122908">
        <ele>28.0</ele>
        <time>2019-05-11T23:25:52.000Z</time>
      </trkpt>
      <trkpt lat="-20.843134" lon="-41.122931">
        <ele>28.1</ele>
        <time>2019-05-11T23:25:53.000Z</time>
      </trkpt>
      <trkpt lat="-20.843103" lon="-41.122953">
        <ele>28.2</ele>
        <time>2019-05-11T23:25:54.000Z</time>
      </trkpt>
      <trkpt lat="-20.84307" lon="-41.122973">
        <ele>28.3</ele>
        <time>2019-05-11T23:25:55.000Z</time>
      </trkpt>
      <trkpt lat="-20.843036" lon="-41.122991">
        <ele>28.3</ele>
        <time>2019-05-11T23:25:56.000Z</time>
      </trkpt>
      <trkpt lat="-20.843001" lon="-41.123007">
        <ele>28.3</ele>
        <time>2019-05-11T23:25:57.000Z</time>
      </trkpt>
      <trkpt lat="-20.842965" lon="-41.123023">
        <ele>28.3</ele>
        <time>2019-05-11T23:25:58.000Z</time>
      </trkpt>
      <trkpt lat="-20.842929" lon="-41.123038">
        <ele>28.3</ele>
        <time>2019-05-11T23:25:59.000Z</time>
      </trkpt>
      <trkpt lat="-20.842893" lon="-41.123054">
        <ele>28.2</ele>
        <time>2019-05-11T23:26:00.000Z</time>
      </trkpt>
      <trkpt lat="-20.842857" lon="-41.12307">
        <ele>28.2</ele>
        <time>2019-05-11T23:26:01.000Z</time>
      </trkpt>
      <trkpt lat="-20.842821" lon="-41.123086">
        <ele>28.1</ele>
        <time>2019-05-11T23:26:02.000Z</time>
      </trkpt>
      <trkpt lat="-20.842785" lon="-41.123102">
        <ele>28.0</ele>
        <time>2019-05-11T23:26:03.000Z</time>
      </trkpt>
      <trkpt lat="-20.842749" lon="-41.123118">
        <ele>27.9</ele>
        <time>2019-05-11T23:26:04.000Z</time>
      </trkpt>
      <trkpt lat="-20.842713" lon="-41.123133">
        <ele>27.8</ele>
        <time>2019-05-11T23:26:05.000Z</time>
      </trkpt>
      <trkpt lat="-20.842677" lon="-41.123148">
        <ele>27.7</ele>
        <time>2019-05-11T23:26:06.000Z</time>
      </trkpt>
      <trkpt lat="-20.842641" lon="-41.123161">
        <ele>27.5</ele>
        <time>2019-05-11T23:26:07.000Z</time>
      </trkpt>
      <trkpt lat="-20.842605" lon="-41.123173">
        <ele>27.4</ele>
        <time>2019-05-11T23:26:08.000Z</time>
      </trkpt>
      <trkpt lat="-20.842569" lon="-41.123184">
        <ele>27.2</ele>
        <time>2019-05-11T23:26:09.000Z</time>
      </trkpt>
      <trkpt lat="-20.842533" lon="-41.123193">
        <ele>27.0</ele>
        <time>2019-05-11T23:26:10.000Z</time>
      </trkpt>
      <trkpt lat="-20.842497" lon="-41.123202">
        <ele>26.8</ele>
        <time>2019-05-11T23:26:11.000Z</time>
      </trkpt>
      <trkpt lat="-20.842461" lon="-41.123209">
        <ele>26.9</ele>
        <time>2019-05-11T23:26:12.000Z</time>
      </trkpt>
      <trkpt lat="-20.842425" lon="-41.123216">
        <ele>27.0</ele>
        <time>2019-05-11T23:26:13.000Z</time>
      </trkpt>
      <trkpt lat="-20.842389" lon="-41.123223">
        <ele>27.1</ele>
        <time>2019-05-11T23:26:14.000Z</time>
      </trkpt>
      <trkpt lat="-20.842353" lon="-41.123231">
        <ele>27.2</ele>
        <time>2019-05-11T23:26:15.000Z</time>
      </trkpt>
      <trkpt lat="-20.842318" lon="-41.123239">
        <ele>27.3</ele>
        <time>2019-05-11T23:26:16.000Z</time>
      </trkpt>
      <trkpt lat="-20.842282" lon="-41.123245">
        <ele>27.4</ele>
        <time>2019-05-11T23:26:17.000Z</time>
      </trkpt>
      <trkpt lat="-20.842247" lon="-41.12325">
        <ele>27.4</ele>
        <time>2019-05-11T23:26:18.000Z</time>
      </trkpt>
      <trkpt lat="-20.842212" lon="-41.123252">
        <ele>27.5</ele>
        <time>2019-05-11T23:26:19.000Z</time>
      </trkpt>
      <trkpt lat="-20.842178" lon="-41.12325">
        <ele>27.6</ele>
        <time>2019-05-11T23:26:20.000Z</time>
      </trkpt>
      <trkpt lat="-20.842144" lon="-41.123246">
        <ele>27.7</ele>
        <time>2019-05-11T23:26:21.000Z</time>
      </trkpt>
      <trkpt lat="-20.842111" lon="-41.123241">
        <ele>27.7</ele>
        <time>2019-05-11T23:26:22.000Z</time>
      </trkpt>
      <trkpt lat="-20.842079" lon="-41.123234">
        <ele>27.8</ele>
        <time>2019-05-11T23:26:23.000Z</time>
      </trkpt>
      <trkpt lat="-20.842048" lon="-41.123226">
        <ele>27.8</ele>
        <time>2019-05-11T23:26:24.000Z</time>
      </trkpt>
      <trkpt lat="-20.842019" lon="-41.12322">
        <ele>27.9</ele>
        <time>2019-05-11T23:26:25.000Z</time>
      </trkpt>
      <trkpt lat="-20.841992" lon="-41.123213">
        <ele>27.9</ele>
        <time>2019-05-11T23:26:26.000Z</time>
      </trkpt>
      <trkpt lat="-20.841965" lon="-41.123206">
        <ele>27.9</ele>
        <time>2019-05-11T23:26:27.000Z</time>
      </trkpt>
      <trkpt lat="-20.841939" lon="-41.123199">
        <ele>28.0</ele>
        <time>2019-05-11T23:26:28.000Z</time>
      </trkpt>
      <trkpt lat="-20.841913" lon="-41.123191">
        <ele>28.0</ele>
        <time>2019-05-11T23:26:29.000Z</time>
      </trkpt>
      <trkpt lat="-20.841887" lon="-41.123183">
        <ele>28.0</ele>
        <time>2019-05-11T23:26:30.000Z</time>
      </trkpt>
      <trkpt lat="-20.841862" lon="-41.123173">
        <ele>28.0</ele>
        <time>2019-05-11T23:26:31.000Z</time>
      </trkpt>
      <trkpt lat="-20.841837" lon="-41.123163">
        <ele>28.1</ele>
        <time>2019-05-11T23:26:32.000Z</time>
      </trkpt>
      <trkpt lat="-20.841812" lon="-41.123153">
        <ele>28.1</ele>
        <time>2019-05-11T23:26:33.000Z</time>
      </trkpt>
      <trkpt lat="-20.841787" lon="-41.123142">
        <ele>28.1</ele>
        <time>2019-05-11T23:26:34.000Z</time>
      </trkpt>
      <trkpt lat="-20.841763" lon="-41.123131">
        <ele>28.1</ele>
        <time>2019-05-11T23:26:35.000Z</time>
      </trkpt>
      <trkpt lat="-20.841738" lon="-41.12312">
        <ele>28.1</ele>
        <time>2019-05-11T23:26:36.000Z</time>
      </trkpt>
      <trkpt lat="-20.841714" lon="-41.12311">
        <ele>28.1</ele>
        <time>2019-05-11T23:26:37.000Z</time>
      </trkpt>
      <trkpt lat="-20.841691" lon="-41.1231">
        <ele>28.1</ele>
        <time>2019-05-11T23:26:38.000Z</time>
      </trkpt>
      <trkpt lat="-20.841667" lon="-41.12309">
        <ele>28.1</ele>
        <time>2019-05-11T23:26:39.000Z</time>
      </trkpt>
      <trkpt lat="-20.841644" lon="-41.123082">
        <ele>28.3</ele>
        <time>2019-05-11T23:26:40.000Z</time>
      </trkpt>
      <trkpt lat="-20.841621" lon="-41.123074">
        <ele>28.4</ele>
        <time>2019-05-11T23:26:41.000Z</time>
      </trkpt>
      <trkpt lat="-20.841599" lon="-41.123067">
        <ele>28.5</ele>
        <time>2019-05-11T23:26:42.000Z</time>
      </trkpt>
      <trkpt lat="-20.841576" lon="-41.123059">
        <ele>28.7</ele>
        <time>2019-05-11T23:26:43.000Z</time>
      </trkpt>
      <trkpt lat="-20.841552" lon="-41.123051">
        <ele>28.8</ele>
        <time>2019-05-11T23:26:44.000Z</time>
      </trkpt>
      <trkpt lat="-20.841527" lon="-41.123042">
        <ele>28.9</ele>
        <time>2019-05-11T23:26:45.000Z</time>
      </trkpt>
      <trkpt lat="-20.841501" lon="-41.123032">
        <ele>29.1</ele>
        <time>2019-05-11T23:26:46.000Z</time>
      </trkpt>
      <trkpt lat="-20.841475" lon="-41.12302">
        <ele>29.2</ele>
        <time>2019-05-11T23:26:47.000Z</time>
      </trkpt>
      <trkpt lat="-20.841447" lon="-41.123007">
        <ele>29.3</ele>
        <time>2019-05-11T23:26:48.000Z</time>
      </trkpt>
      <trkpt lat="-20.84142" lon="-41.122993">
        <ele>29.4</ele>
        <time>2019-05-11T23:26:49.000Z</time>
      </trkpt>
      <trkpt lat="-20.841394" lon="-41.122979">
        <ele>29.5</ele>
        <time>2019-05-11T23:26:50.000Z</time>
      </trkpt>
      <trkpt lat="-20.841369" lon="-41.122965">
        <ele>29.6</ele>
        <time>2019-05-11T23:26:51.000Z</time>
      </trkpt>
      <trkpt lat="-20.841345" lon="-41.12295">
        <ele>29.6</ele>
        <time>2019-05-11T23:26:52.000Z</time>
      </trkpt>
      <trkpt lat="-20.841321" lon="-41.122936">
        <ele>29.7</ele>
        <time>2019-05-11T23:26:53.000Z</time>
      </trkpt>
      <trkpt lat="-20.841299" lon="-41.122922">
        <ele>29.7</ele>
        <time>2019-05-11T23:26:54.000Z</time>
      </trkpt>
      <trkpt lat="-20.841277" lon="-41.122908">
        <ele>29.8</ele>
        <time>2019-05-11T23:26:55.000Z</time>
      </trkpt>
      <trkpt lat="-20.841255" lon="-41.122894">
        <ele>29.8</ele>
        <time>2019-05-11T23:26:56.000Z</time>
      </trkpt>
      <trkpt lat="-20.841233" lon="-41.122881">
        <ele>29.8</ele>
        <time>2019-05-11T23:26:57.000Z</time>
      </trkpt>
      <trkpt lat="-20.841211" lon="-41.122867">
        <ele>29.9</ele>
        <time>2019-05-11T23:26:58.000Z</time>
      </trkpt>
      <trkpt lat="-20.841188" lon="-41.122855">
        <ele>29.9</ele>
        <time>2019-05-11T23:26:59.000Z</time>
      </trkpt>
      <trkpt lat="-20.841166" lon="-41.122843">
        <ele>29.9</ele>
        <time>2019-05-11T23:27:00.000Z</time>
      </trkpt>
      <trkpt lat="-20.841142" lon="-41.122831">
        <ele>30.0</ele>
        <time>2019-05-11T23:27:01.000Z</time>
      </trkpt>
      <trkpt lat="-20.841118" lon="-41.12282">
        <ele>30.0</ele>
        <time>2019-05-11T23:27:02.000Z</time>
      </trkpt>
      <trkpt lat="-20.841093" lon="-41.122809">
        <ele>30.0</ele>
        <time>2019-05-11T23:27:03.000Z</time>
      </trkpt>
      <trkpt lat="-20.841067" lon="-41.122799">
        <ele>30.1</ele>
        <time>2019-05-11T23:27:04.000Z</time>
      </trkpt>
      <trkpt lat="-20.841042" lon="-41.122789">
        <ele>30.1</ele>
        <time>2019-05-11T23:27:05.000Z</time>
      </trkpt>
      <trkpt lat="-20.841016" lon="-41.122779">
        <ele>30.1</ele>
        <time>2019-05-11T23:27:06.000Z</time>
      </trkpt>
      <trkpt lat="-20.84099" lon="-41.122769">
        <ele>30.2</ele>
        <time>2019-05-11T23:27:07.000Z</time>
      </trkpt>
      <trkpt lat="-20.840964" lon="-41.122759">
        <ele>30.2</ele>
        <time>2019-05-11T23:27:08.000Z</time>
      </trkpt>
      <trkpt lat="-20.840938" lon="-41.122749">
        <ele>30.2</ele>
        <time>2019-05-11T23:27:09.000Z</time>
      </trkpt>
      <trkpt lat="-20.840912" lon="-41.122739">
        <ele>30.2</ele>
        <time>2019-05-11T23:27:10.000Z</time>
      </trkpt>
      <trkpt lat="-20.840886" lon="-41.122729">
        <ele>30.2</ele>
        <time>2019-05-11T23:27:11.000Z</time>
      </trkpt>
      <trkpt lat="-20.840861" lon="-41.122719">
        <ele>30.2</ele>
        <time>2019-05-11T23:27:12.000Z</time>
      </trkpt>
      <trkpt lat="-20.840836" lon="-41.122709">
        <ele>30.2</ele>
        <time>2019-05-11T23:27:13.000Z</time>
      </trkpt>
      <trkpt lat="-20.840812" lon="-41.122699">
        <ele>30.1</ele>
        <time>2019-05-11T23:27:14.000Z</time>
      </trkpt>
      <trkpt lat="-20.840788" lon="-41.12269">
        <ele>30.0</ele>
        <time>2019-05-11T23:27:15.000Z</time>
      </trkpt>
      <trkpt lat="-20.840765" lon="-41.122682">
        <ele>29.9</ele>
        <time>2019-05-11T23:27:16.000Z</time>
      </trkpt>
      <trkpt lat="-20.840744" lon="-41.122674">
        <ele>29.8</ele>
        <time>2019-05-11T23:27:17.000Z</time>
      </trkpt>
      <trkpt lat="-20.840723" lon="-41.122667">
        <ele>29.8</ele>
        <time>2019-05-11T23:27:18.000Z</time>
      </trkpt>
      <trkpt lat="-20.840705" lon="-41.122661">
        <ele>29.7</ele>
        <time>2019-05-11T23:27:19.000Z</time>
      </trkpt>
      <trkpt lat="-20.84069" lon="-41.122656">
        <ele>29.6</ele>
        <time>2019-05-11T23:27:20.000Z</time>
      </trkpt>
      <trkpt lat="-20.840678" lon="-41.122651">
        <ele>29.5</ele>
        <time>2019-05-11T23:27:21.000Z</time>
      </trkpt>
      <trkpt lat="-20.840667" lon="-41.122647">
        <ele>29.5</ele>
        <time>2019-05-11T23:27:22.000Z</time>
      </trkpt>
      <trkpt lat="-20.840657" lon="-41.122642">
        <ele>29.4</ele>
        <time>2019-05-11T23:27:23.000Z</time>
      </trkpt>
      <trkpt lat="-20.84065" lon="-41.122637">
        <ele>29.3</ele>
        <time>2019-05-11T23:27:24.000Z</time>
      </trkpt>
      <trkpt lat="-20.840652" lon="-41.122628">
        <ele>29.2</ele>
        <time>2019-05-11T23:29:52.000Z</time>
      </trkpt>
      <trkpt lat="-20.840657" lon="-41.122614">
        <ele>29.0</ele>
        <time>2019-05-11T23:29:53.000Z</time>
      </trkpt>
      <trkpt lat="-20.840659" lon="-41.12261">
        <ele>29.0</ele>
        <time>2019-05-11T23:29:54.000Z</time>
      </trkpt>
      <trkpt lat="-20.840668" lon="-41.122607">
        <ele>29.0</ele>
        <time>2019-05-11T23:29:55.000Z</time>
      </trkpt>
      <trkpt lat="-20.840681" lon="-41.122608">
        <ele>29.0</ele>
        <time>2019-05-11T23:29:56.000Z</time>
      </trkpt>
      <trkpt lat="-20.840697" lon="-41.122612">
        <ele>29.1</ele>
        <time>2019-05-11T23:29:57.000Z</time>
      </trkpt>
      <trkpt lat="-20.840714" lon="-41.12262">
        <ele>29.2</ele>
        <time>2019-05-11T23:29:58.000Z</time>
      </trkpt>
      <trkpt lat="-20.840734" lon="-41.122629">
        <ele>29.3</ele>
        <time>2019-05-11T23:29:59.000Z</time>
      </trkpt>
      <trkpt lat="-20.840757" lon="-41.12264">
        <ele>29.5</ele>
        <time>2019-05-11T23:30:00.000Z</time>
      </trkpt>
      <trkpt lat="-20.840785" lon="-41.122652">
        <ele>29.6</ele>
        <time>2019-05-11T23:30:01.000Z</time>
      </trkpt>
      <trkpt lat="-20.840818" lon="-41.122665">
        <ele>29.8</ele>
        <time>2019-05-11T23:30:02.000Z</time>
      </trkpt>
      <trkpt lat="-20.840858" lon="-41.122677">
        <ele>29.8</ele>
        <time>2019-05-11T23:30:03.000Z</time>
      </trkpt>
      <trkpt lat="-20.840903" lon="-41.122689">
        <ele>29.8</ele>
        <time>2019-05-11T23:30:04.000Z</time>
      </trkpt>
      <trkpt lat="-20.840951" lon="-41.122701">
        <ele>29.7</ele>
        <time>2019-05-11T23:30:05.000Z</time>
      </trkpt>
      <trkpt lat="-20.841" lon="-41.122713">
        <ele>29.6</ele>
        <time>2019-05-11T23:30:06.000Z</time>
      </trkpt>
      <trkpt lat="-20.841048" lon="-41.122725">
        <ele>29.5</ele>
        <time>2019-05-11T23:30:07.000Z</time>
      </trkpt>
      <trkpt lat="-20.841094" lon="-41.122737">
        <ele>29.4</ele>
        <time>2019-05-11T23:30:08.000Z</time>
      </trkpt>
      <trkpt lat="-20.841138" lon="-41.12275">
        <ele>29.3</ele>
        <time>2019-05-11T23:30:09.000Z</time>
      </trkpt>
      <trkpt lat="-20.841179" lon="-41.122763">
        <ele>29.2</ele>
        <time>2019-05-11T23:30:10.000Z</time>
      </trkpt>
      <trkpt lat="-20.84122" lon="-41.122776">
        <ele>29.1</ele>
        <time>2019-05-11T23:30:11.000Z</time>
      </trkpt>
      <trkpt lat="-20.841259" lon="-41.12279">
        <ele>29.0</ele>
        <time>2019-05-11T23:30:12.000Z</time>
      </trkpt>
      <trkpt lat="-20.841297" lon="-41.122805">
        <ele>29.0</ele>
        <time>2019-05-11T23:30:13.000Z</time>
      </trkpt>
      <trkpt lat="-20.841335" lon="-41.122819">
        <ele>28.9</ele>
        <time>2019-05-11T23:30:14.000Z</time>
      </trkpt>
      <trkpt lat="-20.841371" lon="-41.122834">
        <ele>28.8</ele>
        <time>2019-05-11T23:30:15.000Z</time>
      </trkpt>
      <trkpt lat="-20.841407" lon="-41.12285">
        <ele>28.7</ele>
        <time>2019-05-11T23:30:16.000Z</time>
      </trkpt>
      <trkpt lat="-20.841441" lon="-41.122866">
        <ele>28.6</ele>
        <time>2019-05-11T23:30:17.000Z</time>
      </trkpt>
      <trkpt lat="-20.841475" lon="-41.122882">
        <ele>28.5</ele>
        <time>2019-05-11T23:30:18.000Z</time>
      </trkpt>
      <trkpt lat="-20.841507" lon="-41.122899">
        <ele>28.4</ele>
        <time>2019-05-11T23:30:19.000Z</time>
      </trkpt>
      <trkpt lat="-20.84154" lon="-41.122915">
        <ele>28.3</ele>
        <time>2019-05-11T23:30:20.000Z</time>
      </trkpt>
      <trkpt lat="-20.841573" lon="-41.122932">
        <ele>28.1</ele>
        <time>2019-05-11T23:30:21.000Z</time>
      </trkpt>
      <trkpt lat="-20.841607" lon="-41.122949">
        <ele>28.0</ele>
        <time>2019-05-11T23:30:22.000Z</time>
      </trkpt>
      <trkpt lat="-20.841642" lon="-41.122966">
        <ele>27.8</ele>
        <time>2019-05-11T23:30:23.000Z</time>
      </trkpt>
      <trkpt lat="-20.841678" lon="-41.122982">
        <ele>27.7</ele>
        <time>2019-05-11T23:30:24.000Z</time>
      </trkpt>
      <trkpt lat="-20.841715" lon="-41.122998">
        <ele>27.7</ele>
        <time>2019-05-11T23:30:25.000Z</time>
      </trkpt>
      <trkpt lat="-20.841753" lon="-41.123014">
        <ele>27.7</ele>
        <time>2019-05-11T23:30:26.000Z</time>
      </trkpt>
      <trkpt lat="-20.84179" lon="-41.123029">
        <ele>27.7</ele>
        <time>2019-05-11T23:30:27.000Z</time>
      </trkpt>
      <trkpt lat="-20.841827" lon="-41.123044">
        <ele>27.7</ele>
        <time>2019-05-11T23:30:28.000Z</time>
      </trkpt>
      <trkpt lat="-20.841864" lon="-41.123058">
        <ele>27.7</ele>
        <time>2019-05-11T23:30:29.000Z</time>
      </trkpt>
      <trkpt lat="-20.841901" lon="-41.123072">
        <ele>27.7</ele>
        <time>2019-05-11T23:30:30.000Z</time>
      </trkpt>
      <trkpt lat="-20.841936" lon="-41.123085">
        <ele>27.7</ele>
        <time>2019-05-11T23:30:31.000Z</time>
      </trkpt>
      <trkpt lat="-20.841971" lon="-41.123097">
        <ele>27.6</ele>
        <time>2019-05-11T23:30:32.000Z</time>
      </trkpt>
      <trkpt lat="-20.842005" lon="-41.123108">
        <ele>27.6</ele>
        <time>2019-05-11T23:30:33.000Z</time>
      </trkpt>
      <trkpt lat="-20.842038" lon="-41.123118">
        <ele>27.6</ele>
        <time>2019-05-11T23:30:34.000Z</time>
      </trkpt>
      <trkpt lat="-20.84207" lon="-41.123127">
        <ele>27.5</ele>
        <time>2019-05-11T23:30:35.000Z</time>
      </trkpt>
      <trkpt lat="-20.842101" lon="-41.123135">
        <ele>27.5</ele>
        <time>2019-05-11T23:30:36.000Z</time>
      </trkpt>
      <trkpt lat="-20.84213" lon="-41.123142">
        <ele>27.5</ele>
        <time>2019-05-11T23:30:37.000Z</time>
      </trkpt>
      <trkpt lat="-20.842158" lon="-41.123149">
        <ele>27.4</ele>
        <time>2019-05-11T23:30:38.000Z</time>
      </trkpt>
      <trkpt lat="-20.842185" lon="-41.123154">
        <ele>27.4</ele>
        <time>2019-05-11T23:30:39.000Z</time>
      </trkpt>
      <trkpt lat="-20.84221" lon="-41.123158">
        <ele>27.3</ele>
        <time>2019-05-11T23:30:40.000Z</time>
      </trkpt>
      <trkpt lat="-20.842235" lon="-41.123161">
        <ele>27.3</ele>
        <time>2019-05-11T23:30:41.000Z</time>
      </trkpt>
      <trkpt lat="-20.842258" lon="-41.123163">
        <ele>27.3</ele>
        <time>2019-05-11T23:30:42.000Z</time>
      </trkpt>
      <trkpt lat="-20.842281" lon="-41.123164">
        <ele>27.2</ele>
        <time>2019-05-11T23:30:43.000Z</time>
      </trkpt>
      <trkpt lat="-20.842304" lon="-41.123165">
        <ele>27.2</ele>
        <time>2019-05-11T23:30:44.000Z</time>
      </trkpt>
      <trkpt lat="-20.842326" lon="-41.123164">
        <ele>27.1</ele>
        <time>2019-05-11T23:30:45.000Z</time>
      </trkpt>
      <trkpt lat="-20.842348" lon="-41.123164">
        <ele>27.1</ele>
        <time>2019-05-11T23:30:46.000Z</time>
      </trkpt>
      <trkpt lat="-20.84237" lon="-41.123162">
        <ele>27.0</ele>
        <time>2019-05-11T23:30:47.000Z</time>
      </trkpt>
      <trkpt lat="-20.842393" lon="-41.12316">
        <ele>27.0</ele>
        <time>2019-05-11T23:30:48.000Z</time>
      </trkpt>
      <trkpt lat="-20.842415" lon="-41.123158">
        <ele>27.0</ele>
        <time>2019-05-11T23:30:49.000Z</time>
      </trkpt>
      <trkpt lat="-20.842438" lon="-41.123155">
        <ele>26.9</ele>
        <time>2019-05-11T23:30:50.000Z</time>
      </trkpt>
      <trkpt lat="-20.84246" lon="-41.123151">
        <ele>26.9</ele>
        <time>2019-05-11T23:30:51.000Z</time>
      </trkpt>
      <trkpt lat="-20.842482" lon="-41.123147">
        <ele>26.8</ele>
        <time>2019-05-11T23:30:52.000Z</time>
      </trkpt>
      <trkpt lat="-20.842504" lon="-41.123142">
        <ele>26.8</ele>
        <time>2019-05-11T23:30:53.000Z</time>
      </trkpt>
      <trkpt lat="-20.842526" lon="-41.123136">
        <ele>26.9</ele>
        <time>2019-05-11T23:30:54.000Z</time>
      </trkpt>
      <trkpt lat="-20.842547" lon="-41.123129">
        <ele>27.0</ele>
        <time>2019-05-11T23:30:55.000Z</time>
      </trkpt>
      <trkpt lat="-20.842568" lon="-41.123122">
        <ele>27.1</ele>
        <time>2019-05-11T23:30:56.000Z</time>
      </trkpt>
      <trkpt lat="-20.842589" lon="-41.123114">
        <ele>27.2</ele>
        <time>2019-05-11T23:30:57.000Z</time>
      </trkpt>
      <trkpt lat="-20.842609" lon="-41.123105">
        <ele>27.2</ele>
        <time>2019-05-11T23:30:58.000Z</time>
      </trkpt>
      <trkpt lat="-20.842629" lon="-41.123095">
        <ele>27.3</ele>
        <time>2019-05-11T23:30:59.000Z</time>
      </trkpt>
      <trkpt lat="-20.842652" lon="-41.123085">
        <ele>27.4</ele>
        <time>2019-05-11T23:31:00.000Z</time>
      </trkpt>
      <trkpt lat="-20.842678" lon="-41.123075">
        <ele>27.4</ele>
        <time>2019-05-11T23:31:01.000Z</time>
      </trkpt>
      <trkpt lat="-20.842706" lon="-41.123063">
        <ele>27.5</ele>
        <time>2019-05-11T23:31:02.000Z</time>
      </trkpt>
      <trkpt lat="-20.842739" lon="-41.12305">
        <ele>27.6</ele>
        <time>2019-05-11T23:31:03.000Z</time>
      </trkpt>
      <trkpt lat="-20.842774" lon="-41.123034">
        <ele>27.7</ele>
        <time>2019-05-11T23:31:04.000Z</time>
      </trkpt>
      <trkpt lat="-20.842811" lon="-41.123018">
        <ele>27.7</ele>
        <time>2019-05-11T23:31:05.000Z</time>
      </trkpt>
      <trkpt lat="-20.842851" lon="-41.123002">
        <ele>27.8</ele>
        <time>2019-05-11T23:31:06.000Z</time>
      </trkpt>
      <trkpt lat="-20.842891" lon="-41.122985">
        <ele>27.8</ele>
        <time>2019-05-11T23:31:07.000Z</time>
      </trkpt>
      <trkpt lat="-20.84293" lon="-41.122969">
        <ele>27.9</ele>
        <time>2019-05-11T23:31:08.000Z</time>
      </trkpt>
      <trkpt lat="-20.842969" lon="-41.122953">
        <ele>27.9</ele>
        <time>2019-05-11T23:31:09.000Z</time>
      </trkpt>
      <trkpt lat="-20.843008" lon="-41.122936">
        <ele>27.9</ele>
        <time>2019-05-11T23:31:10.000Z</time>
      </trkpt>
      <trkpt lat="-20.843046" lon="-41.122919">
        <ele>27.8</ele>
        <time>2019-05-11T23:31:11.000Z</time>
      </trkpt>
      <trkpt lat="-20.843084" lon="-41.122902">
        <ele>27.8</ele>
        <time>2019-05-11T23:31:12.000Z</time>
      </trkpt>
      <trkpt lat="-20.843122" lon="-41.122884">
        <ele>27.7</ele>
        <time>2019-05-11T23:31:13.000Z</time>
      </trkpt>
      <trkpt lat="-20.843161" lon="-41.122865">
        <ele>27.6</ele>
        <time>2019-05-11T23:31:14.000Z</time>
      </trkpt>
      <trkpt lat="-20.843199" lon="-41.122846">
        <ele>27.5</ele>
        <time>2019-05-11T23:31:15.000Z</time>
      </trkpt>
      <trkpt lat="-20.843237" lon="-41.122826">
        <ele>27.4</ele>
        <time>2019-05-11T23:31:16.000Z</time>
      </trkpt>
      <trkpt lat="-20.843275" lon="-41.122806">
        <ele>27.2</ele>
        <time>2019-05-11T23:31:17.000Z</time>
      </trkpt>
      <trkpt lat="-20.843313" lon="-41.122786">
        <ele>27.1</ele>
        <time>2019-05-11T23:31:18.000Z</time>
      </trkpt>
      <trkpt lat="-20.84335" lon="-41.122765">
        <ele>27.0</ele>
        <time>2019-05-11T23:31:19.000Z</time>
      </trkpt>
      <trkpt lat="-20.843387" lon="-41.122744">
        <ele>27.2</ele>
        <time>2019-05-11T23:31:20.000Z</time>
      </trkpt>
      <trkpt lat="-20.843424" lon="-41.122722">
        <ele>27.3</ele>
        <time>2019-05-11T23:31:21.000Z</time>
      </trkpt>
      <trkpt lat="-20.84346" lon="-41.122701">
        <ele>27.5</ele>
        <time>2019-05-11T23:31:22.000Z</time>
      </trkpt>
      <trkpt lat="-20.843496" lon="-41.122679">
        <ele>27.6</ele>
        <time>2019-05-11T23:31:23.000Z</time>
      </trkpt>
      <trkpt lat="-20.843532" lon="-41.122657">
        <ele>27.6</ele>
        <time>2019-05-11T23:31:24.000Z</time>
      </trkpt>
      <trkpt lat="-20.843568" lon="-41.122635">
        <ele>27.7</ele>
        <time>2019-05-11T23:31:25.000Z</time>
      </trkpt>
      <trkpt lat="-20.843604" lon="-41.122613">
        <ele>27.8</ele>
        <time>2019-05-11T23:31:26.000Z</time>
      </trkpt>
      <trkpt lat="-20.843639" lon="-41.122591">
        <ele>27.8</ele>
        <time>2019-05-11T23:31:27.000Z</time>
      </trkpt>
      <trkpt lat="-20.843675" lon="-41.122569">
        <ele>27.8</ele>
        <time>2019-05-11T23:31:28.000Z</time>
      </trkpt>
      <trkpt lat="-20.84371" lon="-41.122547">
        <ele>27.8</ele>
        <time>2019-05-11T23:31:29.000Z</time>
      </trkpt>
      <trkpt lat="-20.843746" lon="-41.122525">
        <ele>27.8</ele>
        <time>2019-05-11T23:31:30.000Z</time>
      </trkpt>
      <trkpt lat="-20.843781" lon="-41.122503">
        <ele>27.8</ele>
        <time>2019-05-11T23:31:31.000Z</time>
      </trkpt>
      <trkpt lat="-20.843815" lon="-41.12248">
        <ele>27.9</ele>
        <time>2019-05-11T23:31:32.000Z</time>
      </trkpt>
      <trkpt lat="-20.84385" lon="-41.122458">
        <ele>28.1</ele>
        <time>2019-05-11T23:31:33.000Z</time>
      </trkpt>
      <trkpt lat="-20.843884" lon="-41.122435">
        <ele>28.2</ele>
        <time>2019-05-11T23:31:34.000Z</time>
      </trkpt>
      <trkpt lat="-20.843917" lon="-41.122412">
        <ele>28.3</ele>
        <time>2019-05-11T23:31:35.000Z</time>
      </trkpt>
      <trkpt lat="-20.84395" lon="-41.122389">
        <ele>28.4</ele>
        <time>2019-05-11T23:31:36.000Z</time>
      </trkpt>
      <trkpt lat="-20.843983" lon="-41.122365">
        <ele>28.4</ele>
        <time>2019-05-11T23:31:37.000Z</time>
      </trkpt>
      <trkpt lat="-20.844014" lon="-41.12234">
        <ele>28.5</ele>
        <time>2019-05-11T23:31:38.000Z</time>
      </trkpt>
      <trkpt lat="-20.844045" lon="-41.122316">
        <ele>28.5</ele>
        <time>2019-05-11T23:31:39.000Z</time>
      </trkpt>
      <trkpt lat="-20.844074" lon="-41.122293">
        <ele>28.5</ele>
        <time>2019-05-11T23:31:40.000Z</time>
      </trkpt>
      <trkpt lat="-20.8441" lon="-41.122271">
        <ele>28.4</ele>
        <time>2019-05-11T23:31:41.000Z</time>
      </trkpt>
      <trkpt lat="-20.844124" lon="-41.122251">
        <ele>28.4</ele>
        <time>2019-05-11T23:31:42.000Z</time>
      </trkpt>
      <trkpt lat="-20.844145" lon="-41.122234">
        <ele>28.3</ele>
        <time>2019-05-11T23:31:43.000Z</time>
      </trkpt>
      <trkpt lat="-20.844163" lon="-41.122219">
        <ele>28.3</ele>
        <time>2019-05-11T23:31:44.000Z</time>
      </trkpt>
      <trkpt lat="-20.84418" lon="-41.122205">
        <ele>28.2</ele>
        <time>2019-05-11T23:31:45.000Z</time>
      </trkpt>
      <trkpt lat="-20.844196" lon="-41.122193">
        <ele>28.1</ele>
        <time>2019-05-11T23:31:46.000Z</time>
      </trkpt>
      <trkpt lat="-20.844212" lon="-41.122182">
        <ele>28.0</ele>
        <time>2019-05-11T23:31:47.000Z</time>
      </trkpt>
      <trkpt lat="-20.844228" lon="-41.12217">
        <ele>27.9</ele>
        <time>2019-05-11T23:31:48.000Z</time>
      </trkpt>
      <trkpt lat="-20.844244" lon="-41.122159">
        <ele>27.8</ele>
        <time>2019-05-11T23:31:49.000Z</time>
      </trkpt>
      <trkpt lat="-20.844261" lon="-41.122148">
        <ele>27.7</ele>
        <time>2019-05-11T23:31:50.000Z</time>
      </trkpt>
      <trkpt lat="-20.844277" lon="-41.122137">
        <ele>27.6</ele>
        <time>2019-05-11T23:31:51.000Z</time>
      </trkpt>
      <trkpt lat="-20.844293" lon="-41.122126">
        <ele>27.5</ele>
        <time>2019-05-11T23:31:52.000Z</time>
      </trkpt>
      <trkpt lat="-20.844309" lon="-41.122115">
        <ele>27.4</ele>
        <time>2019-05-11T23:31:53.000Z</time>
      </trkpt>
      <trkpt lat="-20.844324" lon="-41.122103">
        <ele>27.3</ele>
        <time>2019-05-11T23:31:54.000Z</time>
      </trkpt>
      <trkpt lat="-20.84434" lon="-41.122092">
        <ele>27.2</ele>
        <time>2019-05-11T23:31:55.000Z</time>
      </trkpt>
      <trkpt lat="-20.844356" lon="-41.122082">
        <ele>27.1</ele>
        <time>2019-05-11T23:31:56.000Z</time>
      </trkpt>
      <trkpt lat="-20.844375" lon="-41.122073">
        <ele>27.0</ele>
        <time>2019-05-11T23:31:57.000Z</time>
      </trkpt>
      <trkpt lat="-20.844395" lon="-41.122065">
        <ele>27.0</ele>
        <time>2019-05-11T23:31:58.000Z</time>
      </trkpt>
      <trkpt lat="-20.844417" lon="-41.122058">
        <ele>26.9</ele>
        <time>2019-05-11T23:31:59.000Z</time>
      </trkpt>
      <trkpt lat="-20.844439" lon="-41.122051">
        <ele>26.9</ele>
        <time>2019-05-11T23:32:00.000Z</time>
      </trkpt>
      <trkpt lat="-20.844461" lon="-41.122043">
        <ele>26.8</ele>
        <time>2019-05-11T23:32:01.000Z</time>
      </trkpt>
      <trkpt lat="-20.844482" lon="-41.122033">
        <ele>26.7</ele>
        <time>2019-05-11T23:32:02.000Z</time>
      </trkpt>
      <trkpt lat="-20.844501" lon="-41.122022">
        <ele>26.6</ele>
        <time>2019-05-11T23:32:03.000Z</time>
      </trkpt>
      <trkpt lat="-20.844519" lon="-41.122009">
        <ele>26.5</ele>
        <time>2019-05-11T23:32:04.000Z</time>
      </trkpt>
      <trkpt lat="-20.844537" lon="-41.121995">
        <ele>26.4</ele>
        <time>2019-05-11T23:32:05.000Z</time>
      </trkpt>
      <trkpt lat="-20.844554" lon="-41.12198">
        <ele>26.3</ele>
        <time>2019-05-11T23:32:06.000Z</time>
      </trkpt>
      <trkpt lat="-20.844571" lon="-41.121965">
        <ele>26.2</ele>
        <time>2019-05-11T23:32:07.000Z</time>
      </trkpt>
      <trkpt lat="-20.844589" lon="-41.12195">
        <ele>26.1</ele>
        <time>2019-05-11T23:32:08.000Z</time>
      </trkpt>
      <trkpt lat="-20.844608" lon="-41.121935">
        <ele>25.9</ele>
        <time>2019-05-11T23:32:09.000Z</time>
      </trkpt>
      <trkpt lat="-20.844627" lon="-41.12192">
        <ele>25.8</ele>
        <time>2019-05-11T23:32:10.000Z</time>
      </trkpt>
      <trkpt lat="-20.844647" lon="-41.121906">
        <ele>25.7</ele>
        <time>2019-05-11T23:32:11.000Z</time>
      </trkpt>
      <trkpt lat="-20.844667" lon="-41.121891">
        <ele>25.6</ele>
        <time>2019-05-11T23:32:12.000Z</time>
      </trkpt>
      <trkpt lat="-20.844686" lon="-41.121877">
        <ele>25.5</ele>
        <time>2019-05-11T23:32:13.000Z</time>
      </trkpt>
      <trkpt lat="-20.844705" lon="-41.121862">
        <ele>25.4</ele>
        <time>2019-05-11T23:32:14.000Z</time>
      </trkpt>
      <trkpt lat="-20.844724" lon="-41.121847">
        <ele>25.3</ele>
        <time>2019-05-11T23:32:15.000Z</time>
      </trkpt>
      <trkpt lat="-20.844743" lon="-41.121832">
        <ele>25.1</ele>
        <time>2019-05-11T23:32:16.000Z</time>
      </trkpt>
      <trkpt lat="-20.84476" lon="-41.121816">
        <ele>25.0</ele>
        <time>2019-05-11T23:32:17.000Z</time>
      </trkpt>
      <trkpt lat="-20.844777" lon="-41.1218">
        <ele>24.9</ele>
        <time>2019-05-11T23:32:18.000Z</time>
      </trkpt>
      <trkpt lat="-20.844793" lon="-41.121783">
        <ele>24.8</ele>
        <time>2019-05-11T23:32:19.000Z</time>
      </trkpt>
      <trkpt lat="-20.844809" lon="-41.121766">
        <ele>24.6</ele>
        <time>2019-05-11T23:32:20.000Z</time>
      </trkpt>
      <trkpt lat="-20.844827" lon="-41.121748">
        <ele>24.5</ele>
        <time>2019-05-11T23:32:21.000Z</time>
      </trkpt>
      <trkpt lat="-20.844846" lon="-41.12173">
        <ele>24.4</ele>
        <time>2019-05-11T23:32:22.000Z</time>
      </trkpt>
      <trkpt lat="-20.844867" lon="-41.121712">
        <ele>24.2</ele>
        <time>2019-05-11T23:32:23.000Z</time>
      </trkpt>
      <trkpt lat="-20.84489" lon="-41.121692">
        <ele>24.1</ele>
        <time>2019-05-11T23:32:24.000Z</time>
      </trkpt>
      <trkpt lat="-20.844914" lon="-41.121672">
        <ele>23.9</ele>
        <time>2019-05-11T23:32:25.000Z</time>
      </trkpt>
      <trkpt lat="-20.844939" lon="-41.12165">
        <ele>23.9</ele>
        <time>2019-05-11T23:32:26.000Z</time>
      </trkpt>
      <trkpt lat="-20.844965" lon="-41.121627">
        <ele>23.9</ele>
        <time>2019-05-11T23:32:27.000Z</time>
      </trkpt>
      <trkpt lat="-20.844991" lon="-41.121602">
        <ele>23.9</ele>
        <time>2019-05-11T23:32:28.000Z</time>
      </trkpt>
      <trkpt lat="-20.845018" lon="-41.121576">
        <ele>24.0</ele>
        <time>2019-05-11T23:32:29.000Z</time>
      </trkpt>
      <trkpt lat="-20.845045" lon="-41.121548">
        <ele>24.1</ele>
        <time>2019-05-11T23:32:30.000Z</time>
      </trkpt>
      <trkpt lat="-20.845072" lon="-41.121521">
        <ele>24.2</ele>
        <time>2019-05-11T23:32:31.000Z</time>
      </trkpt>
      <trkpt lat="-20.8451" lon="-41.121493">
        <ele>24.2</ele>
        <time>2019-05-11T23:32:32.000Z</time>
      </trkpt>
      <trkpt lat="-20.845127" lon="-41.121465">
        <ele>24.3</ele>
        <time>2019-05-11T23:32:33.000Z</time>
      </trkpt>
      <trkpt lat="-20.845154" lon="-41.121437">
        <ele>24.4</ele>
        <time>2019-05-11T23:32:34.000Z</time>
      </trkpt>
      <trkpt lat="-20.845182" lon="-41.12141">
        <ele>24.5</ele>
        <time>2019-05-11T23:32:35.000Z</time>
      </trkpt>
      <trkpt lat="-20.845209" lon="-41.121381">
        <ele>24.6</ele>
        <time>2019-05-11T23:32:36.000Z</time>
      </trkpt>
      <trkpt lat="-20.845235" lon="-41.121352">
        <ele>24.6</ele>
        <time>2019-05-11T23:32:37.000Z</time>
      </trkpt>
      <trkpt lat="-20.845261" lon="-41.121323">
        <ele>24.7</ele>
        <time>2019-05-11T23:32:38.000Z</time>
      </trkpt>
      <trkpt lat="-20.845286" lon="-41.121292">
        <ele>24.8</ele>
        <time>2019-05-11T23:32:39.000Z</time>
      </trkpt>
      <trkpt lat="-20.845311" lon="-41.121261">
        <ele>24.8</ele>
        <time>2019-05-11T23:32:40.000Z</time>
      </trkpt>
      <trkpt lat="-20.845337" lon="-41.121229">
        <ele>24.9</ele>
        <time>2019-05-11T23:32:41.000Z</time>
      </trkpt>
      <trkpt lat="-20.845364" lon="-41.121196">
        <ele>24.9</ele>
        <time>2019-05-11T23:32:42.000Z</time>
      </trkpt>
      <trkpt lat="-20.845392" lon="-41.121162">
        <ele>25.0</ele>
        <time>2019-05-11T23:32:43.000Z</time>
      </trkpt>
      <trkpt lat="-20.845421" lon="-41.121129">
        <ele>25.0</ele>
        <time>2019-05-11T23:32:44.000Z</time>
      </trkpt>
      <trkpt lat="-20.84545" lon="-41.121096">
        <ele>25.1</ele>
        <time>2019-05-11T23:32:45.000Z</time>
      </trkpt>
      <trkpt lat="-20.845478" lon="-41.121063">
        <ele>25.2</ele>
        <time>2019-05-11T23:32:46.000Z</time>
      </trkpt>
      <trkpt lat="-20.845505" lon="-41.121032">
        <ele>25.2</ele>
        <time>2019-05-11T23:32:47.000Z</time>
      </trkpt>
      <trkpt lat="-20.845529" lon="-41.121002">
        <ele>25.2</ele>
        <time>2019-05-11T23:32:48.000Z</time>
      </trkpt>
      <trkpt lat="-20.845552" lon="-41.120974">
        <ele>25.3</ele>
        <time>2019-05-11T23:32:49.000Z</time>
      </trkpt>
      <trkpt lat="-20.845574" lon="-41.120947">
        <ele>25.3</ele>
        <time>2019-05-11T23:32:50.000Z</time>
      </trkpt>
      <trkpt lat="-20.845594" lon="-41.120921">
        <ele>25.3</ele>
        <time>2019-05-11T23:32:51.000Z</time>
      </trkpt>
      <trkpt lat="-20.845613" lon="-41.120895">
        <ele>25.3</ele>
        <time>2019-05-11T23:32:52.000Z</time>
      </trkpt>
      <trkpt lat="-20.845632" lon="-41.120869">
        <ele>25.4</ele>
        <time>2019-05-11T23:32:53.000Z</time>
      </trkpt>
      <trkpt lat="-20.84565" lon="-41.120843">
        <ele>25.4</ele>
        <time>2019-05-11T23:32:54.000Z</time>
      </trkpt>
      <trkpt lat="-20.845668" lon="-41.120817">
        <ele>25.4</ele>
        <time>2019-05-11T23:32:55.000Z</time>
      </trkpt>
      <trkpt lat="-20.845686" lon="-41.12079">
        <ele>25.5</ele>
        <time>2019-05-11T23:32:56.000Z</time>
      </trkpt>
      <trkpt lat="-20.845705" lon="-41.120761">
        <ele>25.7</ele>
        <time>2019-05-11T23:32:57.000Z</time>
      </trkpt>
      <trkpt lat="-20.845724" lon="-41.120732">
        <ele>25.8</ele>
        <time>2019-05-11T23:32:58.000Z</time>
      </trkpt>
      <trkpt lat="-20.845744" lon="-41.120701">
        <ele>25.9</ele>
        <time>2019-05-11T23:32:59.000Z</time>
      </trkpt>
      <trkpt lat="-20.845765" lon="-41.12067">
        <ele>26.0</ele>
        <time>2019-05-11T23:33:00.000Z</time>
      </trkpt>
      <trkpt lat="-20.845786" lon="-41.120637">
        <ele>26.1</ele>
        <time>2019-05-11T23:33:01.000Z</time>
      </trkpt>
      <trkpt lat="-20.845806" lon="-41.120603">
        <ele>26.2</ele>
        <time>2019-05-11T23:33:02.000Z</time>
      </trkpt>
      <trkpt lat="-20.845827" lon="-41.120569">
        <ele>26.3</ele>
        <time>2019-05-11T23:33:03.000Z</time>
      </trkpt>
      <trkpt lat="-20.845847" lon="-41.120535">
        <ele>26.4</ele>
        <time>2019-05-11T23:33:04.000Z</time>
      </trkpt>
      <trkpt lat="-20.845867" lon="-41.1205">
        <ele>26.6</ele>
        <time>2019-05-11T23:33:05.000Z</time>
      </trkpt>
      <trkpt lat="-20.845886" lon="-41.120464">
        <ele>26.7</ele>
        <time>2019-05-11T23:33:06.000Z</time>
      </trkpt>
      <trkpt lat="-20.845905" lon="-41.120429">
        <ele>26.9</ele>
        <time>2019-05-11T23:33:07.000Z</time>
      </trkpt>
      <trkpt lat="-20.845922" lon="-41.120394">
        <ele>27.0</ele>
        <time>2019-05-11T23:33:08.000Z</time>
      </trkpt>
      <trkpt lat="-20.845938" lon="-41.120358">
        <ele>27.1</ele>
        <time>2019-05-11T23:33:09.000Z</time>
      </trkpt>
      <trkpt lat="-20.845952" lon="-41.120323">
        <ele>27.2</ele>
        <time>2019-05-11T23:33:10.000Z</time>
      </trkpt>
      <trkpt lat="-20.845965" lon="-41.120287">
        <ele>27.3</ele>
        <time>2019-05-11T23:33:11.000Z</time>
      </trkpt>
      <trkpt lat="-20.845974" lon="-41.12025">
        <ele>27.4</ele>
        <time>2019-05-11T23:33:12.000Z</time>
      </trkpt>
      <trkpt lat="-20.845982" lon="-41.120213">
        <ele>27.4</ele>
        <time>2019-05-11T23:33:13.000Z</time>
      </trkpt>
      <trkpt lat="-20.845987" lon="-41.120175">
        <ele>27.5</ele>
        <time>2019-05-11T23:33:14.000Z</time>
      </trkpt>
      <trkpt lat="-20.845992" lon="-41.120137">
        <ele>27.5</ele>
        <time>2019-05-11T23:33:15.000Z</time>
      </trkpt>
      <trkpt lat="-20.845997" lon="-41.120097">
        <ele>27.5</ele>
        <time>2019-05-11T23:33:16.000Z</time>
      </trkpt>
      <trkpt lat="-20.846003" lon="-41.120056">
        <ele>27.6</ele>
        <time>2019-05-11T23:33:17.000Z</time>
      </trkpt>
      <trkpt lat="-20.846011" lon="-41.120015">
        <ele>27.6</ele>
        <time>2019-05-11T23:33:18.000Z</time>
      </trkpt>
      <trkpt lat="-20.846021" lon="-41.119973">
        <ele>27.6</ele>
        <time>2019-05-11T23:33:19.000Z</time>
      </trkpt>
      <trkpt lat="-20.846032" lon="-41.119933">
        <ele>27.6</ele>
        <time>2019-05-11T23:33:20.000Z</time>
      </trkpt>
      <trkpt lat="-20.846043" lon="-41.119895">
        <ele>27.5</ele>
        <time>2019-05-11T23:33:21.000Z</time>
      </trkpt>
      <trkpt lat="-20.846053" lon="-41.119861">
        <ele>27.5</ele>
        <time>2019-05-11T23:33:22.000Z</time>
      </trkpt>
      <trkpt lat="-20.846064" lon="-41.11983">
        <ele>27.5</ele>
        <time>2019-05-11T23:33:23.000Z</time>
      </trkpt>
      <trkpt lat="-20.846073" lon="-41.119796">
        <ele>27.4</ele>
        <time>2019-05-11T23:33:24.000Z</time>
      </trkpt>
      <trkpt lat="-20.846084" lon="-41.119755">
        <ele>27.3</ele>
        <time>2019-05-11T23:33:25.000Z</time>
      </trkpt>
      <trkpt lat="-20.846096" lon="-41.119719">
        <ele>27.3</ele>
        <time>2019-05-11T23:33:26.000Z</time>
      </trkpt>
      <trkpt lat="-20.846108" lon="-41.119688">
        <ele>27.2</ele>
        <time>2019-05-11T23:33:27.000Z</time>
      </trkpt>
      <trkpt lat="-20.84612" lon="-41.119659">
        <ele>27.2</ele>
        <time>2019-05-11T23:33:28.000Z</time>
      </trkpt>
      <trkpt lat="-20.846132" lon="-41.119632">
        <ele>27.2</ele>
        <time>2019-05-11T23:33:29.000Z</time>
      </trkpt>
      <trkpt lat="-20.846143" lon="-41.119607">
        <ele>27.1</ele>
        <time>2019-05-11T23:33:30.000Z</time>
      </trkpt>
      <trkpt lat="-20.846154" lon="-41.119583">
        <ele>27.1</ele>
        <time>2019-05-11T23:33:31.000Z</time>
      </trkpt>
      <trkpt lat="-20.846165" lon="-41.11956">
        <ele>27.0</ele>
        <time>2019-05-11T23:33:32.000Z</time>
      </trkpt>
      <trkpt lat="-20.846176" lon="-41.119538">
        <ele>27.0</ele>
        <time>2019-05-11T23:33:33.000Z</time>
      </trkpt>
      <trkpt lat="-20.846187" lon="-41.119517">
        <ele>27.0</ele>
        <time>2019-05-11T23:33:34.000Z</time>
      </trkpt>
      <trkpt lat="-20.846198" lon="-41.119497">
        <ele>26.9</ele>
        <time>2019-05-11T23:33:35.000Z</time>
      </trkpt>
      <trkpt lat="-20.846209" lon="-41.119478">
        <ele>26.9</ele>
        <time>2019-05-11T23:33:36.000Z</time>
      </trkpt>
      <trkpt lat="-20.846221" lon="-41.119458">
        <ele>26.8</ele>
        <time>2019-05-11T23:33:37.000Z</time>
      </trkpt>
      <trkpt lat="-20.846233" lon="-41.119439">
        <ele>26.8</ele>
        <time>2019-05-11T23:33:38.000Z</time>
      </trkpt>
      <trkpt lat="-20.846245" lon="-41.119421">
        <ele>26.8</ele>
        <time>2019-05-11T23:33:39.000Z</time>
      </trkpt>
      <trkpt lat="-20.846258" lon="-41.119402">
        <ele>26.7</ele>
        <time>2019-05-11T23:33:40.000Z</time>
      </trkpt>
      <trkpt lat="-20.846271" lon="-41.119384">
        <ele>26.7</ele>
        <time>2019-05-11T23:33:41.000Z</time>
      </trkpt>
      <trkpt lat="-20.846284" lon="-41.119366">
        <ele>26.6</ele>
        <time>2019-05-11T23:33:42.000Z</time>
      </trkpt>
      <trkpt lat="-20.846298" lon="-41.119349">
        <ele>26.6</ele>
        <time>2019-05-11T23:33:43.000Z</time>
      </trkpt>
      <trkpt lat="-20.846312" lon="-41.119332">
        <ele>26.5</ele>
        <time>2019-05-11T23:33:44.000Z</time>
      </trkpt>
      <trkpt lat="-20.846327" lon="-41.119315">
        <ele>26.5</ele>
        <time>2019-05-11T23:33:45.000Z</time>
      </trkpt>
      <trkpt lat="-20.846342" lon="-41.119299">
        <ele>26.4</ele>
        <time>2019-05-11T23:33:46.000Z</time>
      </trkpt>
      <trkpt lat="-20.846357" lon="-41.119283">
        <ele>26.4</ele>
        <time>2019-05-11T23:33:47.000Z</time>
      </trkpt>
      <trkpt lat="-20.846373" lon="-41.119267">
        <ele>26.4</ele>
        <time>2019-05-11T23:33:48.000Z</time>
      </trkpt>
      <trkpt lat="-20.846388" lon="-41.119252">
        <ele>26.3</ele>
        <time>2019-05-11T23:33:49.000Z</time>
      </trkpt>
      <trkpt lat="-20.846404" lon="-41.119236">
        <ele>26.3</ele>
        <time>2019-05-11T23:33:50.000Z</time>
      </trkpt>
      <trkpt lat="-20.84642" lon="-41.119221">
        <ele>26.2</ele>
        <time>2019-05-11T23:33:51.000Z</time>
      </trkpt>
      <trkpt lat="-20.846436" lon="-41.119206">
        <ele>26.1</ele>
        <time>2019-05-11T23:33:52.000Z</time>
      </trkpt>
      <trkpt lat="-20.846452" lon="-41.11919">
        <ele>26.1</ele>
        <time>2019-05-11T23:33:53.000Z</time>
      </trkpt>
      <trkpt lat="-20.846467" lon="-41.119174">
        <ele>26.0</ele>
        <time>2019-05-11T23:33:54.000Z</time>
      </trkpt>
      <trkpt lat="-20.846481" lon="-41.119158">
        <ele>26.0</ele>
        <time>2019-05-11T23:33:55.000Z</time>
      </trkpt>
      <trkpt lat="-20.846495" lon="-41.119141">
        <ele>26.0</ele>
        <time>2019-05-11T23:33:56.000Z</time>
      </trkpt>
      <trkpt lat="-20.846509" lon="-41.119123">
        <ele>25.9</ele>
        <time>2019-05-11T23:33:57.000Z</time>
      </trkpt>
      <trkpt lat="-20.846521" lon="-41.119104">
        <ele>25.9</ele>
        <time>2019-05-11T23:33:58.000Z</time>
      </trkpt>
      <trkpt lat="-20.846533" lon="-41.119085">
        <ele>25.9</ele>
        <time>2019-05-11T23:33:59.000Z</time>
      </trkpt>
      <trkpt lat="-20.846545" lon="-41.119066">
        <ele>25.9</ele>
        <time>2019-05-11T23:34:00.000Z</time>
      </trkpt>
      <trkpt lat="-20.846558" lon="-41.119047">
        <ele>25.9</ele>
        <time>2019-05-11T23:34:01.000Z</time>
      </trkpt>
      <trkpt lat="-20.846572" lon="-41.11903">
        <ele>25.8</ele>
        <time>2019-05-11T23:34:02.000Z</time>
      </trkpt>
      <trkpt lat="-20.846587" lon="-41.119013">
        <ele>25.8</ele>
        <time>2019-05-11T23:34:03.000Z</time>
      </trkpt>
      <trkpt lat="-20.846603" lon="-41.118995">
        <ele>25.8</ele>
        <time>2019-05-11T23:34:04.000Z</time>
      </trkpt>
      <trkpt lat="-20.846619" lon="-41.118974">
        <ele>25.8</ele>
        <time>2019-05-11T23:34:05.000Z</time>
      </trkpt>
      <trkpt lat="-20.846633" lon="-41.118948">
        <ele>25.7</ele>
        <time>2019-05-11T23:34:06.000Z</time>
      </trkpt>
      <trkpt lat="-20.846648" lon="-41.118919">
        <ele>25.7</ele>
        <time>2019-05-11T23:34:07.000Z</time>
      </trkpt>
      <trkpt lat="-20.846663" lon="-41.11889">
        <ele>25.7</ele>
        <time>2019-05-11T23:34:08.000Z</time>
      </trkpt>
      <trkpt lat="-20.84668" lon="-41.118863">
        <ele>25.7</ele>
        <time>2019-05-11T23:34:09.000Z</time>
      </trkpt>
      <trkpt lat="-20.846698" lon="-41.118836">
        <ele>25.8</ele>
        <time>2019-05-11T23:34:10.000Z</time>
      </trkpt>
      <trkpt lat="-20.846718" lon="-41.11881">
        <ele>25.8</ele>
        <time>2019-05-11T23:34:11.000Z</time>
      </trkpt>
      <trkpt lat="-20.84674" lon="-41.118785">
        <ele>25.9</ele>
        <time>2019-05-11T23:34:12.000Z</time>
      </trkpt>
      <trkpt lat="-20.846764" lon="-41.118759">
        <ele>26.0</ele>
        <time>2019-05-11T23:34:13.000Z</time>
      </trkpt>
      <trkpt lat="-20.84679" lon="-41.118734">
        <ele>26.2</ele>
        <time>2019-05-11T23:34:14.000Z</time>
      </trkpt>
      <trkpt lat="-20.846817" lon="-41.118709">
        <ele>26.3</ele>
        <time>2019-05-11T23:34:15.000Z</time>
      </trkpt>
      <trkpt lat="-20.846845" lon="-41.118683">
        <ele>26.4</ele>
        <time>2019-05-11T23:34:16.000Z</time>
      </trkpt>
      <trkpt lat="-20.846873" lon="-41.118658">
        <ele>26.6</ele>
        <time>2019-05-11T23:34:17.000Z</time>
      </trkpt>
      <trkpt lat="-20.8469" lon="-41.118632">
        <ele>26.7</ele>
        <time>2019-05-11T23:34:18.000Z</time>
      </trkpt>
      <trkpt lat="-20.846927" lon="-41.118605">
        <ele>26.9</ele>
        <time>2019-05-11T23:34:19.000Z</time>
      </trkpt>
      <trkpt lat="-20.846954" lon="-41.118578">
        <ele>27.1</ele>
        <time>2019-05-11T23:34:20.000Z</time>
      </trkpt>
      <trkpt lat="-20.846979" lon="-41.11855">
        <ele>27.2</ele>
        <time>2019-05-11T23:34:21.000Z</time>
      </trkpt>
      <trkpt lat="-20.847005" lon="-41.118521">
        <ele>27.4</ele>
        <time>2019-05-11T23:34:22.000Z</time>
      </trkpt>
      <trkpt lat="-20.847029" lon="-41.118492">
        <ele>27.6</ele>
        <time>2019-05-11T23:34:23.000Z</time>
      </trkpt>
      <trkpt lat="-20.847053" lon="-41.118462">
        <ele>27.7</ele>
        <time>2019-05-11T23:34:24.000Z</time>
      </trkpt>
      <trkpt lat="-20.847077" lon="-41.118431">
        <ele>27.9</ele>
        <time>2019-05-11T23:34:25.000Z</time>
      </trkpt>
      <trkpt lat="-20.847099" lon="-41.118399">
        <ele>28.1</ele>
        <time>2019-05-11T23:34:26.000Z</time>
      </trkpt>
      <trkpt lat="-20.847121" lon="-41.118367">
        <ele>28.2</ele>
        <time>2019-05-11T23:34:27.000Z</time>
      </trkpt>
      <trkpt lat="-20.847143" lon="-41.118333">
        <ele>28.4</ele>
        <time>2019-05-11T23:34:28.000Z</time>
      </trkpt>
      <trkpt lat="-20.847164" lon="-41.118298">
        <ele>28.4</ele>
        <time>2019-05-11T23:34:29.000Z</time>
      </trkpt>
      <trkpt lat="-20.847184" lon="-41.118263">
        <ele>28.3</ele>
        <time>2019-05-11T23:34:30.000Z</time>
      </trkpt>
      <trkpt lat="-20.847203" lon="-41.118227">
        <ele>28.2</ele>
        <time>2019-05-11T23:34:31.000Z</time>
      </trkpt>
      <trkpt lat="-20.847222" lon="-41.118191">
        <ele>28.0</ele>
        <time>2019-05-11T23:34:32.000Z</time>
      </trkpt>
      <trkpt lat="-20.847241" lon="-41.118154">
        <ele>27.9</ele>
        <time>2019-05-11T23:34:33.000Z</time>
      </trkpt>
      <trkpt lat="-20.847259" lon="-41.118118">
        <ele>27.7</ele>
        <time>2019-05-11T23:34:34.000Z</time>
      </trkpt>
      <trkpt lat="-20.847277" lon="-41.118081">
        <ele>27.5</ele>
        <time>2019-05-11T23:34:35.000Z</time>
      </trkpt>
      <trkpt lat="-20.847294" lon="-41.118045">
        <ele>27.3</ele>
        <time>2019-05-11T23:34:36.000Z</time>
      </trkpt>
      <trkpt lat="-20.847311" lon="-41.118008">
        <ele>27.1</ele>
        <time>2019-05-11T23:34:37.000Z</time>
      </trkpt>
      <trkpt lat="-20.847327" lon="-41.117973">
        <ele>26.9</ele>
        <time>2019-05-11T23:34:38.000Z</time>
      </trkpt>
      <trkpt lat="-20.847343" lon="-41.117938">
        <ele>26.7</ele>
        <time>2019-05-11T23:34:39.000Z</time>
      </trkpt>
      <trkpt lat="-20.847359" lon="-41.117903">
        <ele>26.5</ele>
        <time>2019-05-11T23:34:40.000Z</time>
      </trkpt>
      <trkpt lat="-20.847374" lon="-41.117869">
        <ele>26.2</ele>
        <time>2019-05-11T23:34:41.000Z</time>
      </trkpt>
      <trkpt lat="-20.847389" lon="-41.117835">
        <ele>26.0</ele>
        <time>2019-05-11T23:34:42.000Z</time>
      </trkpt>
      <trkpt lat="-20.847404" lon="-41.117801">
        <ele>25.7</ele>
        <time>2019-05-11T23:34:43.000Z</time>
      </trkpt>
      <trkpt lat="-20.847418" lon="-41.117768">
        <ele>25.4</ele>
        <time>2019-05-11T23:34:44.000Z</time>
      </trkpt>
      <trkpt lat="-20.847432" lon="-41.117735">
        <ele>25.2</ele>
        <time>2019-05-11T23:34:45.000Z</time>
      </trkpt>
      <trkpt lat="-20.847445" lon="-41.117702">
        <ele>24.9</ele>
        <time>2019-05-11T23:34:46.000Z</time>
      </trkpt>
      <trkpt lat="-20.847458" lon="-41.11767">
        <ele>24.6</ele>
        <time>2019-05-11T23:34:47.000Z</time>
      </trkpt>
      <trkpt lat="-20.84747" lon="-41.117637">
        <ele>24.3</ele>
        <time>2019-05-11T23:34:48.000Z</time>
      </trkpt>
      <trkpt lat="-20.847482" lon="-41.117605">
        <ele>24.0</ele>
        <time>2019-05-11T23:34:49.000Z</time>
      </trkpt>
      <trkpt lat="-20.847494" lon="-41.117573">
        <ele>23.7</ele>
        <time>2019-05-11T23:34:50.000Z</time>
      </trkpt>
      <trkpt lat="-20.847504" lon="-41.117541">
        <ele>23.4</ele>
        <time>2019-05-11T23:34:51.000Z</time>
      </trkpt>
      <trkpt lat="-20.847514" lon="-41.117508">
        <ele>23.2</ele>
        <time>2019-05-11T23:34:52.000Z</time>
      </trkpt>
      <trkpt lat="-20.847523" lon="-41.117476">
        <ele>23.2</ele>
        <time>2019-05-11T23:34:53.000Z</time>
      </trkpt>
      <trkpt lat="-20.847531" lon="-41.117443">
        <ele>23.3</ele>
        <time>2019-05-11T23:34:54.000Z</time>
      </trkpt>
      <trkpt lat="-20.847538" lon="-41.11741">
        <ele>23.4</ele>
        <time>2019-05-11T23:34:55.000Z</time>
      </trkpt>
      <trkpt lat="-20.847544" lon="-41.117377">
        <ele>23.5</ele>
        <time>2019-05-11T23:34:56.000Z</time>
      </trkpt>
      <trkpt lat="-20.847549" lon="-41.117343">
        <ele>23.6</ele>
        <time>2019-05-11T23:34:57.000Z</time>
      </trkpt>
      <trkpt lat="-20.847552" lon="-41.117309">
        <ele>23.7</ele>
        <time>2019-05-11T23:34:58.000Z</time>
      </trkpt>
      <trkpt lat="-20.847555" lon="-41.117275">
        <ele>23.8</ele>
        <time>2019-05-11T23:34:59.000Z</time>
      </trkpt>
      <trkpt lat="-20.847556" lon="-41.117243">
        <ele>23.8</ele>
        <time>2019-05-11T23:35:00.000Z</time>
      </trkpt>
      <trkpt lat="-20.847557" lon="-41.117213">
        <ele>23.9</ele>
        <time>2019-05-11T23:35:01.000Z</time>
      </trkpt>
      <trkpt lat="-20.847557" lon="-41.117187">
        <ele>23.9</ele>
        <time>2019-05-11T23:35:02.000Z</time>
      </trkpt>
      <trkpt lat="-20.847556" lon="-41.117165">
        <ele>23.9</ele>
        <time>2019-05-11T23:35:03.000Z</time>
      </trkpt>
      <trkpt lat="-20.847555" lon="-41.117146">
        <ele>23.9</ele>
        <time>2019-05-11T23:35:04.000Z</time>
      </trkpt>
      <trkpt lat="-20.847553" lon="-41.11713">
        <ele>23.9</ele>
        <time>2019-05-11T23:35:05.000Z</time>
      </trkpt>
      <trkpt lat="-20.847551" lon="-41.117116">
        <ele>23.9</ele>
        <time>2019-05-11T23:35:06.000Z</time>
      </trkpt>
      <trkpt lat="-20.847548" lon="-41.117104">
        <ele>23.9</ele>
        <time>2019-05-11T23:35:07.000Z</time>
      </trkpt>
      <trkpt lat="-20.847545" lon="-41.117092">
        <ele>23.9</ele>
        <time>2019-05-11T23:35:08.000Z</time>
      </trkpt>
      <trkpt lat="-20.847541" lon="-41.117082">
        <ele>23.9</ele>
        <time>2019-05-11T23:35:09.000Z</time>
      </trkpt>
      <trkpt lat="-20.847538" lon="-41.117072">
        <ele>23.9</ele>
        <time>2019-05-11T23:35:10.000Z</time>
      </trkpt>
      <trkpt lat="-20.847535" lon="-41.117064">
        <ele>23.9</ele>
        <time>2019-05-11T23:35:11.000Z</time>
      </trkpt>
      <trkpt lat="-20.847533" lon="-41.117058">
        <ele>23.8</ele>
        <time>2019-05-11T23:35:12.000Z</time>
      </trkpt>
      <trkpt lat="-20.847532" lon="-41.117054">
        <ele>23.8</ele>
        <time>2019-05-11T23:35:13.000Z</time>
      </trkpt>
      <trkpt lat="-20.847531" lon="-41.117052">
        <ele>23.8</ele>
        <time>2019-05-11T23:35:14.000Z</time>
      </trkpt>
      <trkpt lat="-20.847532" lon="-41.117051">
        <ele>23.8</ele>
        <time>2019-05-11T23:35:15.000Z</time>
      </trkpt>
      <trkpt lat="-20.847532" lon="-41.117051">
        <ele>23.8</ele>
        <time>2019-05-11T23:35:16.000Z</time>
      </trkpt>
      <trkpt lat="-20.847531" lon="-41.117052">
        <ele>23.8</ele>
        <time>2019-05-11T23:35:17.000Z</time>
      </trkpt>
      <trkpt lat="-20.84753" lon="-41.117052">
        <ele>23.8</ele>
        <time>2019-05-11T23:35:47.000Z</time>
      </trkpt>
      <trkpt lat="-20.847528" lon="-41.117051">
        <ele>23.8</ele>
        <time>2019-05-11T23:35:48.000Z</time>
      </trkpt>
      <trkpt lat="-20.847525" lon="-41.117046">
        <ele>23.8</ele>
        <time>2019-05-11T23:35:49.000Z</time>
      </trkpt>
      <trkpt lat="-20.847523" lon="-41.117037">
        <ele>23.8</ele>
        <time>2019-05-11T23:35:50.000Z</time>
      </trkpt>
      <trkpt lat="-20.84752" lon="-41.117022">
        <ele>23.8</ele>
        <time>2019-05-11T23:35:51.000Z</time>
      </trkpt>
      <trkpt lat="-20.847517" lon="-41.117">
        <ele>23.8</ele>
        <time>2019-05-11T23:35:52.000Z</time>
      </trkpt>
      <trkpt lat="-20.847514" lon="-41.116971">
        <ele>23.8</ele>
        <time>2019-05-11T23:35:53.000Z</time>
      </trkpt>
      <trkpt lat="-20.847511" lon="-41.116938">
        <ele>23.8</ele>
        <time>2019-05-11T23:35:54.000Z</time>
      </trkpt>
      <trkpt lat="-20.847509" lon="-41.116901">
        <ele>23.8</ele>
        <time>2019-05-11T23:35:55.000Z</time>
      </trkpt>
      <trkpt lat="-20.847508" lon="-41.116862">
        <ele>23.8</ele>
        <time>2019-05-11T23:35:56.000Z</time>
      </trkpt>
      <trkpt lat="-20.847507" lon="-41.116822">
        <ele>23.9</ele>
        <time>2019-05-11T23:35:57.000Z</time>
      </trkpt>
      <trkpt lat="-20.847507" lon="-41.116782">
        <ele>23.9</ele>
        <time>2019-05-11T23:35:58.000Z</time>
      </trkpt>
      <trkpt lat="-20.847506" lon="-41.116741">
        <ele>24.0</ele>
        <time>2019-05-11T23:35:59.000Z</time>
      </trkpt>
      <trkpt lat="-20.847505" lon="-41.116699">
        <ele>24.0</ele>
        <time>2019-05-11T23:36:00.000Z</time>
      </trkpt>
      <trkpt lat="-20.847503" lon="-41.116658">
        <ele>24.0</ele>
        <time>2019-05-11T23:36:01.000Z</time>
      </trkpt>
      <trkpt lat="-20.8475" lon="-41.116616">
        <ele>24.0</ele>
        <time>2019-05-11T23:36:02.000Z</time>
      </trkpt>
      <trkpt lat="-20.847495" lon="-41.116575">
        <ele>24.0</ele>
        <time>2019-05-11T23:36:03.000Z</time>
      </trkpt>
      <trkpt lat="-20.84749" lon="-41.116533">
        <ele>24.0</ele>
        <time>2019-05-11T23:36:04.000Z</time>
      </trkpt>
      <trkpt lat="-20.847485" lon="-41.116492">
        <ele>24.0</ele>
        <time>2019-05-11T23:36:05.000Z</time>
      </trkpt>
      <trkpt lat="-20.84748" lon="-41.116451">
        <ele>24.0</ele>
        <time>2019-05-11T23:36:06.000Z</time>
      </trkpt>
      <trkpt lat="-20.847475" lon="-41.11641">
        <ele>24.0</ele>
        <time>2019-05-11T23:36:07.000Z</time>
      </trkpt>
      <trkpt lat="-20.847471" lon="-41.116369">
        <ele>24.0</ele>
        <time>2019-05-11T23:36:08.000Z</time>
      </trkpt>
      <trkpt lat="-20.847467" lon="-41.116328">
        <ele>24.0</ele>
        <time>2019-05-11T23:36:09.000Z</time>
      </trkpt>
      <trkpt lat="-20.847465" lon="-41.116287">
        <ele>24.0</ele>
        <time>2019-05-11T23:36:10.000Z</time>
      </trkpt>
      <trkpt lat="-20.847463" lon="-41.116246">
        <ele>24.0</ele>
        <time>2019-05-11T23:36:11.000Z</time>
      </trkpt>
      <trkpt lat="-20.847462" lon="-41.116206">
        <ele>24.0</ele>
        <time>2019-05-11T23:36:12.000Z</time>
      </trkpt>
      <trkpt lat="-20.847461" lon="-41.116165">
        <ele>24.0</ele>
        <time>2019-05-11T23:36:13.000Z</time>
      </trkpt>
      <trkpt lat="-20.847461" lon="-41.116125">
        <ele>24.0</ele>
        <time>2019-05-11T23:36:14.000Z</time>
      </trkpt>
      <trkpt lat="-20.847463" lon="-41.116085">
        <ele>24.0</ele>
        <time>2019-05-11T23:36:15.000Z</time>
      </trkpt>
      <trkpt lat="-20.847465" lon="-41.116044">
        <ele>24.0</ele>
        <time>2019-05-11T23:36:16.000Z</time>
      </trkpt>
      <trkpt lat="-20.847468" lon="-41.116004">
        <ele>24.0</ele>
        <time>2019-05-11T23:36:17.000Z</time>
      </trkpt>
      <trkpt lat="-20.847472" lon="-41.115964">
        <ele>24.0</ele>
        <time>2019-05-11T23:36:18.000Z</time>
      </trkpt>
      <trkpt lat="-20.847476" lon="-41.115924">
        <ele>24.0</ele>
        <time>2019-05-11T23:36:19.000Z</time>
      </trkpt>
      <trkpt lat="-20.84748" lon="-41.115884">
        <ele>24.0</ele>
        <time>2019-05-11T23:36:20.000Z</time>
      </trkpt>
      <trkpt lat="-20.847485" lon="-41.115845">
        <ele>24.0</ele>
        <time>2019-05-11T23:36:21.000Z</time>
      </trkpt>
      <trkpt lat="-20.84749" lon="-41.115806">
        <ele>24.0</ele>
        <time>2019-05-11T23:36:22.000Z</time>
      </trkpt>
      <trkpt lat="-20.847495" lon="-41.115768">
        <ele>24.0</ele>
        <time>2019-05-11T23:36:23.000Z</time>
      </trkpt>
      <trkpt lat="-20.8475" lon="-41.11573">
        <ele>24.0</ele>
        <time>2019-05-11T23:36:24.000Z</time>
      </trkpt>
      <trkpt lat="-20.847504" lon="-41.115692">
        <ele>24.1</ele>
        <time>2019-05-11T23:36:25.000Z</time>
      </trkpt>
      <trkpt lat="-20.847507" lon="-41.115655">
        <ele>24.1</ele>
        <time>2019-05-11T23:36:26.000Z</time>
      </trkpt>
      <trkpt lat="-20.84751" lon="-41.115619">
        <ele>24.2</ele>
        <time>2019-05-11T23:36:27.000Z</time>
      </trkpt>
      <trkpt lat="-20.847512" lon="-41.115583">
        <ele>24.2</ele>
        <time>2019-05-11T23:36:28.000Z</time>
      </trkpt>
      <trkpt lat="-20.847514" lon="-41.115548">
        <ele>24.2</ele>
        <time>2019-05-11T23:36:29.000Z</time>
      </trkpt>
      <trkpt lat="-20.847516" lon="-41.115512">
        <ele>24.3</ele>
        <time>2019-05-11T23:36:30.000Z</time>
      </trkpt>
      <trkpt lat="-20.847519" lon="-41.115476">
        <ele>24.3</ele>
        <time>2019-05-11T23:36:31.000Z</time>
      </trkpt>
      <trkpt lat="-20.847521" lon="-41.11544">
        <ele>24.3</ele>
        <time>2019-05-11T23:36:32.000Z</time>
      </trkpt>
      <trkpt lat="-20.847525" lon="-41.115403">
        <ele>24.4</ele>
        <time>2019-05-11T23:36:33.000Z</time>
      </trkpt>
      <trkpt lat="-20.847528" lon="-41.115365">
        <ele>24.4</ele>
        <time>2019-05-11T23:36:34.000Z</time>
      </trkpt>
      <trkpt lat="-20.847531" lon="-41.115328">
        <ele>24.5</ele>
        <time>2019-05-11T23:36:35.000Z</time>
      </trkpt>
      <trkpt lat="-20.847533" lon="-41.115291">
        <ele>24.5</ele>
        <time>2019-05-11T23:36:36.000Z</time>
      </trkpt>
      <trkpt lat="-20.847535" lon="-41.115255">
        <ele>24.5</ele>
        <time>2019-05-11T23:36:37.000Z</time>
      </trkpt>
      <trkpt lat="-20.847536" lon="-41.11522">
        <ele>24.5</ele>
        <time>2019-05-11T23:36:38.000Z</time>
      </trkpt>
      <trkpt lat="-20.847538" lon="-41.115187">
        <ele>24.6</ele>
        <time>2019-05-11T23:36:39.000Z</time>
      </trkpt>
      <trkpt lat="-20.847542" lon="-41.115158">
        <ele>24.6</ele>
        <time>2019-05-11T23:36:40.000Z</time>
      </trkpt>
      <trkpt lat="-20.847547" lon="-41.115133">
        <ele>24.7</ele>
        <time>2019-05-11T23:36:41.000Z</time>
      </trkpt>
      <trkpt lat="-20.847554" lon="-41.115114">
        <ele>24.8</ele>
        <time>2019-05-11T23:36:42.000Z</time>
      </trkpt>
      <trkpt lat="-20.847564" lon="-41.115098">
        <ele>24.9</ele>
        <time>2019-05-11T23:36:43.000Z</time>
      </trkpt>
      <trkpt lat="-20.847578" lon="-41.115086">
        <ele>25.1</ele>
        <time>2019-05-11T23:36:44.000Z</time>
      </trkpt>
      <trkpt lat="-20.847595" lon="-41.115075">
        <ele>25.4</ele>
        <time>2019-05-11T23:36:45.000Z</time>
      </trkpt>
      <trkpt lat="-20.847616" lon="-41.115065">
        <ele>25.7</ele>
        <time>2019-05-11T23:36:46.000Z</time>
      </trkpt>
      <trkpt lat="-20.847641" lon="-41.115053">
        <ele>26.1</ele>
        <time>2019-05-11T23:36:47.000Z</time>
      </trkpt>
      <trkpt lat="-20.847668" lon="-41.115041">
        <ele>26.4</ele>
        <time>2019-05-11T23:36:48.000Z</time>
      </trkpt>
      <trkpt lat="-20.847697" lon="-41.115028">
        <ele>26.9</ele>
        <time>2019-05-11T23:36:49.000Z</time>
      </trkpt>
      <trkpt lat="-20.847724" lon="-41.115013">
        <ele>27.2</ele>
        <time>2019-05-11T23:36:50.000Z</time>
      </trkpt>
      <trkpt lat="-20.847747" lon="-41.114997">
        <ele>27.5</ele>
        <time>2019-05-11T23:36:51.000Z</time>
      </trkpt>
      <trkpt lat="-20.847766" lon="-41.11498">
        <ele>27.8</ele>
        <time>2019-05-11T23:36:52.000Z</time>
      </trkpt>
      <trkpt lat="-20.84778" lon="-41.114963">
        <ele>27.9</ele>
        <time>2019-05-11T23:36:53.000Z</time>
      </trkpt>
      <trkpt lat="-20.84779" lon="-41.114949">
        <ele>28.0</ele>
        <time>2019-05-11T23:36:54.000Z</time>
      </trkpt>
      <trkpt lat="-20.847796" lon="-41.11494">
        <ele>28.1</ele>
        <time>2019-05-11T23:36:55.000Z</time>
      </trkpt>
      <trkpt lat="-20.847801" lon="-41.114932">
        <ele>28.1</ele>
        <time>2019-05-11T23:36:56.000Z</time>
      </trkpt>
      <trkpt lat="-20.847807" lon="-41.114921">
        <ele>28.2</ele>
        <time>2019-05-11T23:36:57.000Z</time>
      </trkpt>
      <trkpt lat="-20.847816" lon="-41.114906">
        <ele>28.3</ele>
        <time>2019-05-11T23:36:58.000Z</time>
      </trkpt>
      <trkpt lat="-20.847829" lon="-41.114887">
        <ele>28.4</ele>
        <time>2019-05-11T23:36:59.000Z</time>
      </trkpt>
      <trkpt lat="-20.847844" lon="-41.114865">
        <ele>28.5</ele>
        <time>2019-05-11T23:37:00.000Z</time>
      </trkpt>
      <trkpt lat="-20.847861" lon="-41.114844">
        <ele>28.6</ele>
        <time>2019-05-11T23:37:01.000Z</time>
      </trkpt>
      <trkpt lat="-20.847877" lon="-41.114825">
        <ele>28.8</ele>
        <time>2019-05-11T23:37:02.000Z</time>
      </trkpt>
      <trkpt lat="-20.847892" lon="-41.11481">
        <ele>28.9</ele>
        <time>2019-05-11T23:37:03.000Z</time>
      </trkpt>
      <trkpt lat="-20.847905" lon="-41.114795">
        <ele>29.0</ele>
        <time>2019-05-11T23:37:04.000Z</time>
      </trkpt>
      <trkpt lat="-20.847918" lon="-41.114781">
        <ele>29.1</ele>
        <time>2019-05-11T23:37:05.000Z</time>
      </trkpt>
      <trkpt lat="-20.847931" lon="-41.114766">
        <ele>29.2</ele>
        <time>2019-05-11T23:37:06.000Z</time>
      </trkpt>
      <trkpt lat="-20.847943" lon="-41.11475">
        <ele>29.3</ele>
        <time>2019-05-11T23:37:07.000Z</time>
      </trkpt>
      <trkpt lat="-20.847956" lon="-41.114731">
        <ele>29.3</ele>
        <time>2019-05-11T23:37:08.000Z</time>
      </trkpt>
      <trkpt lat="-20.847969" lon="-41.11471">
        <ele>29.4</ele>
        <time>2019-05-11T23:37:09.000Z</time>
      </trkpt>
      <trkpt lat="-20.847981" lon="-41.114688">
        <ele>29.4</ele>
        <time>2019-05-11T23:37:10.000Z</time>
      </trkpt>
      <trkpt lat="-20.847994" lon="-41.114664">
        <ele>29.4</ele>
        <time>2019-05-11T23:37:11.000Z</time>
      </trkpt>
      <trkpt lat="-20.848006" lon="-41.114639">
        <ele>29.4</ele>
        <time>2019-05-11T23:37:12.000Z</time>
      </trkpt>
      <trkpt lat="-20.848019" lon="-41.114614">
        <ele>29.5</ele>
        <time>2019-05-11T23:37:13.000Z</time>
      </trkpt>
      <trkpt lat="-20.848031" lon="-41.114587">
        <ele>29.4</ele>
        <time>2019-05-11T23:37:14.000Z</time>
      </trkpt>
      <trkpt lat="-20.848043" lon="-41.114559">
        <ele>29.4</ele>
        <time>2019-05-11T23:37:15.000Z</time>
      </trkpt>
      <trkpt lat="-20.848054" lon="-41.114531">
        <ele>29.4</ele>
        <time>2019-05-11T23:37:16.000Z</time>
      </trkpt>
      <trkpt lat="-20.848066" lon="-41.114503">
        <ele>29.3</ele>
        <time>2019-05-11T23:37:17.000Z</time>
      </trkpt>
      <trkpt lat="-20.848077" lon="-41.114474">
        <ele>29.2</ele>
        <time>2019-05-11T23:37:18.000Z</time>
      </trkpt>
      <trkpt lat="-20.848087" lon="-41.114447">
        <ele>29.2</ele>
        <time>2019-05-11T23:37:19.000Z</time>
      </trkpt>
      <trkpt lat="-20.848098" lon="-41.11442">
        <ele>29.1</ele>
        <time>2019-05-11T23:37:20.000Z</time>
      </trkpt>
      <trkpt lat="-20.848107" lon="-41.114395">
        <ele>29.0</ele>
        <time>2019-05-11T23:37:21.000Z</time>
      </trkpt>
      <trkpt lat="-20.848117" lon="-41.114372">
        <ele>29.0</ele>
        <time>2019-05-11T23:37:22.000Z</time>
      </trkpt>
      <trkpt lat="-20.848126" lon="-41.114351">
        <ele>28.9</ele>
        <time>2019-05-11T23:37:23.000Z</time>
      </trkpt>
      <trkpt lat="-20.848135" lon="-41.11433">
        <ele>28.9</ele>
        <time>2019-05-11T23:37:24.000Z</time>
      </trkpt>
      <trkpt lat="-20.848142" lon="-41.11431">
        <ele>28.8</ele>
        <time>2019-05-11T23:37:25.000Z</time>
      </trkpt>
      <trkpt lat="-20.848149" lon="-41.114289">
        <ele>28.7</ele>
        <time>2019-05-11T23:37:26.000Z</time>
      </trkpt>
      <trkpt lat="-20.848155" lon="-41.114268">
        <ele>28.6</ele>
        <time>2019-05-11T23:37:27.000Z</time>
      </trkpt>
      <trkpt lat="-20.84816" lon="-41.114245">
        <ele>28.5</ele>
        <time>2019-05-11T23:37:28.000Z</time>
      </trkpt>
      <trkpt lat="-20.848164" lon="-41.114222">
        <ele>28.4</ele>
        <time>2019-05-11T23:37:29.000Z</time>
      </trkpt>
      <trkpt lat="-20.848168" lon="-41.114198">
        <ele>28.2</ele>
        <time>2019-05-11T23:37:30.000Z</time>
      </trkpt>
      <trkpt lat="-20.848172" lon="-41.114172">
        <ele>28.1</ele>
        <time>2019-05-11T23:37:31.000Z</time>
      </trkpt>
      <trkpt lat="-20.848176" lon="-41.114146">
        <ele>28.0</ele>
        <time>2019-05-11T23:37:32.000Z</time>
      </trkpt>
      <trkpt lat="-20.84818" lon="-41.114119">
        <ele>27.9</ele>
        <time>2019-05-11T23:37:33.000Z</time>
      </trkpt>
      <trkpt lat="-20.848184" lon="-41.11409">
        <ele>27.9</ele>
        <time>2019-05-11T23:37:34.000Z</time>
      </trkpt>
      <trkpt lat="-20.848188" lon="-41.11406">
        <ele>27.8</ele>
        <time>2019-05-11T23:37:35.000Z</time>
      </trkpt>
      <trkpt lat="-20.848194" lon="-41.114029">
        <ele>27.8</ele>
        <time>2019-05-11T23:37:36.000Z</time>
      </trkpt>
      <trkpt lat="-20.8482" lon="-41.113997">
        <ele>27.7</ele>
        <time>2019-05-11T23:37:37.000Z</time>
      </trkpt>
      <trkpt lat="-20.848207" lon="-41.113964">
        <ele>27.6</ele>
        <time>2019-05-11T23:37:38.000Z</time>
      </trkpt>
      <trkpt lat="-20.848215" lon="-41.11393">
        <ele>27.6</ele>
        <time>2019-05-11T23:37:39.000Z</time>
      </trkpt>
      <trkpt lat="-20.848222" lon="-41.113895">
        <ele>27.5</ele>
        <time>2019-05-11T23:37:40.000Z</time>
      </trkpt>
      <trkpt lat="-20.84823" lon="-41.113859">
        <ele>27.5</ele>
        <time>2019-05-11T23:37:41.000Z</time>
      </trkpt>
      <trkpt lat="-20.848238" lon="-41.113822">
        <ele>27.5</ele>
        <time>2019-05-11T23:37:42.000Z</time>
      </trkpt>
      <trkpt lat="-20.848245" lon="-41.113785">
        <ele>27.4</ele>
        <time>2019-05-11T23:37:43.000Z</time>
      </trkpt>
      <trkpt lat="-20.848252" lon="-41.113748">
        <ele>27.4</ele>
        <time>2019-05-11T23:37:44.000Z</time>
      </trkpt>
      <trkpt lat="-20.848258" lon="-41.11371">
        <ele>27.3</ele>
        <time>2019-05-11T23:37:45.000Z</time>
      </trkpt>
      <trkpt lat="-20.848263" lon="-41.113672">
        <ele>27.2</ele>
        <time>2019-05-11T23:37:46.000Z</time>
      </trkpt>
      <trkpt lat="-20.848267" lon="-41.113633">
        <ele>27.2</ele>
        <time>2019-05-11T23:37:47.000Z</time>
      </trkpt>
      <trkpt lat="-20.848271" lon="-41.113592">
        <ele>27.1</ele>
        <time>2019-05-11T23:37:48.000Z</time>
      </trkpt>
      <trkpt lat="-20.848276" lon="-41.113548">
        <ele>27.0</ele>
        <time>2019-05-11T23:37:49.000Z</time>
      </trkpt>
      <trkpt lat="-20.848283" lon="-41.1135">
        <ele>27.0</ele>
        <time>2019-05-11T23:37:50.000Z</time>
      </trkpt>
      <trkpt lat="-20.848291" lon="-41.113459">
        <ele>26.9</ele>
        <time>2019-05-11T23:37:51.000Z</time>
      </trkpt>
      <trkpt lat="-20.8483" lon="-41.113436">
        <ele>26.9</ele>
        <time>2019-05-11T23:37:52.000Z</time>
      </trkpt>
      <trkpt lat="-20.848308" lon="-41.113418">
        <ele>27.0</ele>
        <time>2019-05-11T23:37:53.000Z</time>
      </trkpt>
      <trkpt lat="-20.848316" lon="-41.113392">
        <ele>27.0</ele>
        <time>2019-05-11T23:37:54.000Z</time>
      </trkpt>
      <trkpt lat="-20.848323" lon="-41.113348">
        <ele>26.9</ele>
        <time>2019-05-11T23:37:55.000Z</time>
      </trkpt>
      <trkpt lat="-20.84833" lon="-41.113297">
        <ele>26.9</ele>
        <time>2019-05-11T23:37:56.000Z</time>
      </trkpt>
      <trkpt lat="-20.848337" lon="-41.113251">
        <ele>26.9</ele>
        <time>2019-05-11T23:37:57.000Z</time>
      </trkpt>
      <trkpt lat="-20.848344" lon="-41.113212">
        <ele>27.0</ele>
        <time>2019-05-11T23:37:58.000Z</time>
      </trkpt>
      <trkpt lat="-20.84835" lon="-41.113176">
        <ele>27.0</ele>
        <time>2019-05-11T23:37:59.000Z</time>
      </trkpt>
      <trkpt lat="-20.848356" lon="-41.113141">
        <ele>27.0</ele>
        <time>2019-05-11T23:38:00.000Z</time>
      </trkpt>
      <trkpt lat="-20.84836" lon="-41.113105">
        <ele>27.0</ele>
        <time>2019-05-11T23:38:01.000Z</time>
      </trkpt>
      <trkpt lat="-20.848364" lon="-41.113066">
        <ele>27.1</ele>
        <time>2019-05-11T23:38:02.000Z</time>
      </trkpt>
      <trkpt lat="-20.848367" lon="-41.113024">
        <ele>27.1</ele>
        <time>2019-05-11T23:38:03.000Z</time>
      </trkpt>
      <trkpt lat="-20.848369" lon="-41.112981">
        <ele>27.0</ele>
        <time>2019-05-11T23:38:04.000Z</time>
      </trkpt>
      <trkpt lat="-20.848372" lon="-41.112939">
        <ele>27.0</ele>
        <time>2019-05-11T23:38:05.000Z</time>
      </trkpt>
      <trkpt lat="-20.848375" lon="-41.112899">
        <ele>27.0</ele>
        <time>2019-05-11T23:38:06.000Z</time>
      </trkpt>
      <trkpt lat="-20.848379" lon="-41.112864">
        <ele>27.1</ele>
        <time>2019-05-11T23:38:07.000Z</time>
      </trkpt>
      <trkpt lat="-20.848385" lon="-41.112831">
        <ele>27.1</ele>
        <time>2019-05-11T23:38:08.000Z</time>
      </trkpt>
      <trkpt lat="-20.84839" lon="-41.1128">
        <ele>27.1</ele>
        <time>2019-05-11T23:38:09.000Z</time>
      </trkpt>
      <trkpt lat="-20.848396" lon="-41.112771">
        <ele>27.2</ele>
        <time>2019-05-11T23:38:10.000Z</time>
      </trkpt>
      <trkpt lat="-20.848402" lon="-41.11274">
        <ele>27.3</ele>
        <time>2019-05-11T23:38:11.000Z</time>
      </trkpt>
      <trkpt lat="-20.848409" lon="-41.112709">
        <ele>27.3</ele>
        <time>2019-05-11T23:38:12.000Z</time>
      </trkpt>
      <trkpt lat="-20.848414" lon="-41.112677">
        <ele>27.4</ele>
        <time>2019-05-11T23:38:13.000Z</time>
      </trkpt>
      <trkpt lat="-20.848419" lon="-41.112646">
        <ele>27.4</ele>
        <time>2019-05-11T23:38:14.000Z</time>
      </trkpt>
      <trkpt lat="-20.848424" lon="-41.112615">
        <ele>27.5</ele>
        <time>2019-05-11T23:38:15.000Z</time>
      </trkpt>
      <trkpt lat="-20.848428" lon="-41.112587">
        <ele>27.5</ele>
        <time>2019-05-11T23:38:16.000Z</time>
      </trkpt>
      <trkpt lat="-20.84843" lon="-41.112561">
        <ele>27.5</ele>
        <time>2019-05-11T23:38:17.000Z</time>
      </trkpt>
      <trkpt lat="-20.848432" lon="-41.112537">
        <ele>27.6</ele>
        <time>2019-05-11T23:38:18.000Z</time>
      </trkpt>
      <trkpt lat="-20.848433" lon="-41.112513">
        <ele>27.6</ele>
        <time>2019-05-11T23:38:19.000Z</time>
      </trkpt>
      <trkpt lat="-20.848434" lon="-41.112489">
        <ele>27.6</ele>
        <time>2019-05-11T23:38:20.000Z</time>
      </trkpt>
      <trkpt lat="-20.848435" lon="-41.112463">
        <ele>27.5</ele>
        <time>2019-05-11T23:38:21.000Z</time>
      </trkpt>
      <trkpt lat="-20.848436" lon="-41.112435">
        <ele>27.5</ele>
        <time>2019-05-11T23:38:22.000Z</time>
      </trkpt>
      <trkpt lat="-20.848438" lon="-41.112405">
        <ele>27.5</ele>
        <time>2019-05-11T23:38:23.000Z</time>
      </trkpt>
      <trkpt lat="-20.848441" lon="-41.112372">
        <ele>27.5</ele>
        <time>2019-05-11T23:38:24.000Z</time>
      </trkpt>
      <trkpt lat="-20.848447" lon="-41.112336">
        <ele>27.6</ele>
        <time>2019-05-11T23:38:25.000Z</time>
      </trkpt>
      <trkpt lat="-20.848455" lon="-41.112299">
        <ele>27.6</ele>
        <time>2019-05-11T23:38:26.000Z</time>
      </trkpt>
      <trkpt lat="-20.848467" lon="-41.112259">
        <ele>27.7</ele>
        <time>2019-05-11T23:38:27.000Z</time>
      </trkpt>
      <trkpt lat="-20.848482" lon="-41.112217">
        <ele>27.8</ele>
        <time>2019-05-11T23:38:28.000Z</time>
      </trkpt>
      <trkpt lat="-20.848499" lon="-41.112176">
        <ele>28.0</ele>
        <time>2019-05-11T23:38:29.000Z</time>
      </trkpt>
      <trkpt lat="-20.848516" lon="-41.112134">
        <ele>28.1</ele>
        <time>2019-05-11T23:38:30.000Z</time>
      </trkpt>
      <trkpt lat="-20.848534" lon="-41.112093">
        <ele>28.2</ele>
        <time>2019-05-11T23:38:31.000Z</time>
      </trkpt>
      <trkpt lat="-20.848552" lon="-41.112053">
        <ele>28.3</ele>
        <time>2019-05-11T23:38:32.000Z</time>
      </trkpt>
      <trkpt lat="-20.84857" lon="-41.112017">
        <ele>28.4</ele>
        <time>2019-05-11T23:38:33.000Z</time>
      </trkpt>
      <trkpt lat="-20.84859" lon="-41.111983">
        <ele>28.5</ele>
        <time>2019-05-11T23:38:34.000Z</time>
      </trkpt>
      <trkpt lat="-20.848613" lon="-41.111954">
        <ele>28.6</ele>
        <time>2019-05-11T23:38:35.000Z</time>
      </trkpt>
      <trkpt lat="-20.84864" lon="-41.11193">
        <ele>28.8</ele>
        <time>2019-05-11T23:38:36.000Z</time>
      </trkpt>
      <trkpt lat="-20.848671" lon="-41.111911">
        <ele>29.0</ele>
        <time>2019-05-11T23:38:37.000Z</time>
      </trkpt>
      <trkpt lat="-20.848704" lon="-41.111897">
        <ele>29.2</ele>
        <time>2019-05-11T23:38:38.000Z</time>
      </trkpt>
      <trkpt lat="-20.848738" lon="-41.111887">
        <ele>29.5</ele>
        <time>2019-05-11T23:38:39.000Z</time>
      </trkpt>
      <trkpt lat="-20.848768" lon="-41.111879">
        <ele>29.7</ele>
        <time>2019-05-11T23:38:40.000Z</time>
      </trkpt>
      <trkpt lat="-20.848794" lon="-41.111873">
        <ele>29.9</ele>
        <time>2019-05-11T23:38:41.000Z</time>
      </trkpt>
      <trkpt lat="-20.848811" lon="-41.111866">
        <ele>30.0</ele>
        <time>2019-05-11T23:38:42.000Z</time>
      </trkpt>
      <trkpt lat="-20.848823" lon="-41.11186">
        <ele>30.0</ele>
        <time>2019-05-11T23:38:43.000Z</time>
      </trkpt>
      <trkpt lat="-20.848831" lon="-41.111854">
        <ele>30.1</ele>
        <time>2019-05-11T23:38:44.000Z</time>
      </trkpt>
      <trkpt lat="-20.848838" lon="-41.111847">
        <ele>30.1</ele>
        <time>2019-05-11T23:38:45.000Z</time>
      </trkpt>
      <trkpt lat="-20.848844" lon="-41.111841">
        <ele>30.1</ele>
        <time>2019-05-11T23:38:46.000Z</time>
      </trkpt>
      <trkpt lat="-20.848853" lon="-41.111835">
        <ele>30.1</ele>
        <time>2019-05-11T23:38:47.000Z</time>
      </trkpt>
      <trkpt lat="-20.848865" lon="-41.111829">
        <ele>30.2</ele>
        <time>2019-05-11T23:38:48.000Z</time>
      </trkpt>
      <trkpt lat="-20.848878" lon="-41.111823">
        <ele>30.2</ele>
        <time>2019-05-11T23:38:49.000Z</time>
      </trkpt>
      <trkpt lat="-20.848895" lon="-41.111817">
        <ele>30.3</ele>
        <time>2019-05-11T23:38:50.000Z</time>
      </trkpt>
      <trkpt lat="-20.848914" lon="-41.111812">
        <ele>30.5</ele>
        <time>2019-05-11T23:38:51.000Z</time>
      </trkpt>
      <trkpt lat="-20.848934" lon="-41.111807">
        <ele>30.6</ele>
        <time>2019-05-11T23:38:52.000Z</time>
      </trkpt>
      <trkpt lat="-20.848956" lon="-41.111803">
        <ele>30.7</ele>
        <time>2019-05-11T23:38:53.000Z</time>
      </trkpt>
      <trkpt lat="-20.848978" lon="-41.1118">
        <ele>30.9</ele>
        <time>2019-05-11T23:38:54.000Z</time>
      </trkpt>
      <trkpt lat="-20.848998" lon="-41.111798">
        <ele>31.0</ele>
        <time>2019-05-11T23:38:55.000Z</time>
      </trkpt>
      <trkpt lat="-20.849015" lon="-41.111796">
        <ele>31.1</ele>
        <time>2019-05-11T23:38:56.000Z</time>
      </trkpt>
      <trkpt lat="-20.849028" lon="-41.111797">
        <ele>31.2</ele>
        <time>2019-05-11T23:38:57.000Z</time>
      </trkpt>
      <trkpt lat="-20.849041" lon="-41.111797">
        <ele>31.3</ele>
        <time>2019-05-11T23:38:58.000Z</time>
      </trkpt>
      <trkpt lat="-20.849057" lon="-41.111797">
        <ele>31.4</ele>
        <time>2019-05-11T23:38:59.000Z</time>
      </trkpt>
      <trkpt lat="-20.84908" lon="-41.111796">
        <ele>31.6</ele>
        <time>2019-05-11T23:39:00.000Z</time>
      </trkpt>
      <trkpt lat="-20.849106" lon="-41.111793">
        <ele>31.8</ele>
        <time>2019-05-11T23:39:01.000Z</time>
      </trkpt>
      <trkpt lat="-20.84913" lon="-41.111789">
        <ele>31.9</ele>
        <time>2019-05-11T23:39:02.000Z</time>
      </trkpt>
      <trkpt lat="-20.849153" lon="-41.111783">
        <ele>32.0</ele>
        <time>2019-05-11T23:39:03.000Z</time>
      </trkpt>
      <trkpt lat="-20.849177" lon="-41.111777">
        <ele>32.1</ele>
        <time>2019-05-11T23:39:04.000Z</time>
      </trkpt>
      <trkpt lat="-20.849201" lon="-41.111773">
        <ele>32.1</ele>
        <time>2019-05-11T23:39:05.000Z</time>
      </trkpt>
      <trkpt lat="-20.849228" lon="-41.11177">
        <ele>32.1</ele>
        <time>2019-05-11T23:39:06.000Z</time>
      </trkpt>
      <trkpt lat="-20.849257" lon="-41.111771">
        <ele>32.2</ele>
        <time>2019-05-11T23:39:07.000Z</time>
      </trkpt>
      <trkpt lat="-20.849288" lon="-41.111773">
        <ele>32.2</ele>
        <time>2019-05-11T23:39:08.000Z</time>
      </trkpt>
      <trkpt lat="-20.849318" lon="-41.111777">
        <ele>32.3</ele>
        <time>2019-05-11T23:39:09.000Z</time>
      </trkpt>
      <trkpt lat="-20.849345" lon="-41.111781">
        <ele>32.4</ele>
        <time>2019-05-11T23:39:10.000Z</time>
      </trkpt>
      <trkpt lat="-20.849366" lon="-41.111785">
        <ele>32.5</ele>
        <time>2019-05-11T23:39:11.000Z</time>
      </trkpt>
      <trkpt lat="-20.849381" lon="-41.111787">
        <ele>32.5</ele>
        <time>2019-05-11T23:39:12.000Z</time>
      </trkpt>
      <trkpt lat="-20.84939" lon="-41.11179">
        <ele>32.6</ele>
        <time>2019-05-11T23:39:13.000Z</time>
      </trkpt>
      <trkpt lat="-20.849396" lon="-41.111793">
        <ele>32.6</ele>
        <time>2019-05-11T23:39:14.000Z</time>
      </trkpt>
      <trkpt lat="-20.849402" lon="-41.111799">
        <ele>32.7</ele>
        <time>2019-05-11T23:39:15.000Z</time>
      </trkpt>
      <trkpt lat="-20.849415" lon="-41.111804">
        <ele>32.8</ele>
        <time>2019-05-11T23:39:16.000Z</time>
      </trkpt>
      <trkpt lat="-20.84944" lon="-41.111804">
        <ele>32.8</ele>
        <time>2019-05-11T23:39:17.000Z</time>
      </trkpt>
      <trkpt lat="-20.849473" lon="-41.1118">
        <ele>32.8</ele>
        <time>2019-05-11T23:39:18.000Z</time>
      </trkpt>
      <trkpt lat="-20.849505" lon="-41.111794">
        <ele>32.8</ele>
        <time>2019-05-11T23:39:19.000Z</time>
      </trkpt>
      <trkpt lat="-20.84953" lon="-41.111788">
        <ele>32.8</ele>
        <time>2019-05-11T23:39:20.000Z</time>
      </trkpt>
      <trkpt lat="-20.84955" lon="-41.111782">
        <ele>32.8</ele>
        <time>2019-05-11T23:39:21.000Z</time>
      </trkpt>
      <trkpt lat="-20.849568" lon="-41.111774">
        <ele>32.7</ele>
        <time>2019-05-11T23:39:22.000Z</time>
      </trkpt>
      <trkpt lat="-20.849585" lon="-41.111765">
        <ele>32.6</ele>
        <time>2019-05-11T23:39:23.000Z</time>
      </trkpt>
      <trkpt lat="-20.849598" lon="-41.111759">
        <ele>32.6</ele>
        <time>2019-05-11T23:39:24.000Z</time>
      </trkpt>
      <trkpt lat="-20.84961" lon="-41.111755">
        <ele>32.5</ele>
        <time>2019-05-11T23:39:25.000Z</time>
      </trkpt>
      <trkpt lat="-20.849623" lon="-41.111751">
        <ele>32.5</ele>
        <time>2019-05-11T23:39:26.000Z</time>
      </trkpt>
      <trkpt lat="-20.849642" lon="-41.111745">
        <ele>32.5</ele>
        <time>2019-05-11T23:39:27.000Z</time>
      </trkpt>
      <trkpt lat="-20.849665" lon="-41.111734">
        <ele>32.4</ele>
        <time>2019-05-11T23:39:28.000Z</time>
      </trkpt>
      <trkpt lat="-20.849692" lon="-41.11172">
        <ele>32.3</ele>
        <time>2019-05-11T23:39:29.000Z</time>
      </trkpt>
      <trkpt lat="-20.849718" lon="-41.111703">
        <ele>32.1</ele>
        <time>2019-05-11T23:39:30.000Z</time>
      </trkpt>
      <trkpt lat="-20.849742" lon="-41.111682">
        <ele>31.9</ele>
        <time>2019-05-11T23:39:31.000Z</time>
      </trkpt>
      <trkpt lat="-20.849762" lon="-41.11166">
        <ele>31.6</ele>
        <time>2019-05-11T23:39:32.000Z</time>
      </trkpt>
      <trkpt lat="-20.849777" lon="-41.111635">
        <ele>31.3</ele>
        <time>2019-05-11T23:39:33.000Z</time>
      </trkpt>
      <trkpt lat="-20.849789" lon="-41.11161">
        <ele>30.9</ele>
        <time>2019-05-11T23:39:34.000Z</time>
      </trkpt>
      <trkpt lat="-20.849801" lon="-41.111586">
        <ele>30.6</ele>
        <time>2019-05-11T23:39:35.000Z</time>
      </trkpt>
      <trkpt lat="-20.849813" lon="-41.111563">
        <ele>30.3</ele>
        <time>2019-05-11T23:39:36.000Z</time>
      </trkpt>
      <trkpt lat="-20.849826" lon="-41.111541">
        <ele>30.0</ele>
        <time>2019-05-11T23:39:37.000Z</time>
      </trkpt>
      <trkpt lat="-20.849841" lon="-41.111522">
        <ele>29.8</ele>
        <time>2019-05-11T23:39:38.000Z</time>
      </trkpt>
      <trkpt lat="-20.849855" lon="-41.111505">
        <ele>29.5</ele>
        <time>2019-05-11T23:39:39.000Z</time>
      </trkpt>
      <trkpt lat="-20.849868" lon="-41.111489">
        <ele>29.3</ele>
        <time>2019-05-11T23:39:40.000Z</time>
      </trkpt>
      <trkpt lat="-20.849878" lon="-41.111475">
        <ele>29.1</ele>
        <time>2019-05-11T23:39:41.000Z</time>
      </trkpt>
      <trkpt lat="-20.849886" lon="-41.111462">
        <ele>28.9</ele>
        <time>2019-05-11T23:39:42.000Z</time>
      </trkpt>
      <trkpt lat="-20.849892" lon="-41.111452">
        <ele>28.8</ele>
        <time>2019-05-11T23:39:43.000Z</time>
      </trkpt>
      <trkpt lat="-20.849897" lon="-41.111444">
        <ele>28.7</ele>
        <time>2019-05-11T23:39:44.000Z</time>
      </trkpt>
      <trkpt lat="-20.849905" lon="-41.111441">
        <ele>28.7</ele>
        <time>2019-05-11T23:39:45.000Z</time>
      </trkpt>
      <trkpt lat="-20.849916" lon="-41.111443">
        <ele>28.7</ele>
        <time>2019-05-11T23:39:46.000Z</time>
      </trkpt>
      <trkpt lat="-20.849932" lon="-41.111451">
        <ele>28.8</ele>
        <time>2019-05-11T23:39:47.000Z</time>
      </trkpt>
      <trkpt lat="-20.849952" lon="-41.111462">
        <ele>29.0</ele>
        <time>2019-05-11T23:39:48.000Z</time>
      </trkpt>
      <trkpt lat="-20.849974" lon="-41.111475">
        <ele>29.2</ele>
        <time>2019-05-11T23:39:49.000Z</time>
      </trkpt>
      <trkpt lat="-20.849998" lon="-41.111486">
        <ele>29.4</ele>
        <time>2019-05-11T23:39:50.000Z</time>
      </trkpt>
      <trkpt lat="-20.850022" lon="-41.111494">
        <ele>29.6</ele>
        <time>2019-05-11T23:39:51.000Z</time>
      </trkpt>
      <trkpt lat="-20.850045" lon="-41.111496">
        <ele>29.8</ele>
        <time>2019-05-11T23:39:52.000Z</time>
      </trkpt>
      <trkpt lat="-20.850066" lon="-41.111493">
        <ele>29.9</ele>
        <time>2019-05-11T23:39:53.000Z</time>
      </trkpt>
      <trkpt lat="-20.850087" lon="-41.111486">
        <ele>29.9</ele>
        <time>2019-05-11T23:39:54.000Z</time>
      </trkpt>
      <trkpt lat="-20.850106" lon="-41.111475">
        <ele>29.9</ele>
        <time>2019-05-11T23:39:55.000Z</time>
      </trkpt>
      <trkpt lat="-20.850125" lon="-41.111461">
        <ele>29.8</ele>
        <time>2019-05-11T23:39:56.000Z</time>
      </trkpt>
      <trkpt lat="-20.850143" lon="-41.111445">
        <ele>29.7</ele>
        <time>2019-05-11T23:39:57.000Z</time>
      </trkpt>
      <trkpt lat="-20.85016" lon="-41.111428">
        <ele>29.6</ele>
        <time>2019-05-11T23:39:58.000Z</time>
      </trkpt>
      <trkpt lat="-20.850176" lon="-41.11141">
        <ele>29.4</ele>
        <time>2019-05-11T23:39:59.000Z</time>
      </trkpt>
      <trkpt lat="-20.850193" lon="-41.111392">
        <ele>29.3</ele>
        <time>2019-05-11T23:40:00.000Z</time>
      </trkpt>
      <trkpt lat="-20.850209" lon="-41.111375">
        <ele>29.2</ele>
        <time>2019-05-11T23:40:01.000Z</time>
      </trkpt>
      <trkpt lat="-20.850225" lon="-41.111358">
        <ele>29.0</ele>
        <time>2019-05-11T23:40:02.000Z</time>
      </trkpt>
      <trkpt lat="-20.850242" lon="-41.111342">
        <ele>28.9</ele>
        <time>2019-05-11T23:40:03.000Z</time>
      </trkpt>
      <trkpt lat="-20.850258" lon="-41.111328">
        <ele>28.9</ele>
        <time>2019-05-11T23:40:04.000Z</time>
      </trkpt>
      <trkpt lat="-20.850276" lon="-41.111316">
        <ele>28.8</ele>
        <time>2019-05-11T23:40:05.000Z</time>
      </trkpt>
      <trkpt lat="-20.850294" lon="-41.111307">
        <ele>28.8</ele>
        <time>2019-05-11T23:40:06.000Z</time>
      </trkpt>
    </trkseg>
  </trk>
</gpx>
